<?xml version="1.0" encoding="utf-8" standalone="yes"?>
<gpx version="1.1" creator="GPS Visualizer http://www.gpsvisualizer.com/" xmlns="http://www.topografix.com/GPX/1/1" xmlns:xsi="http://www.w3.org/2001/XMLSchema-instance" xsi:schemaLocation="http://www.topografix.com/GPX/1/1 http://www.topografix.com/GPX/1/1/gpx.xsd">
<trk>
  <name>2018-06-24-01</name>
  <trkseg>
    <trkpt lat="48.452156" lon="2.63339">
      <ele>120.816</ele>
      <time>2018-06-24T08:21:27Z</time>
    </trkpt>
    <trkpt lat="48.45219" lon="2.633469">
      <ele>121.954</ele>
      <time>2018-06-24T08:21:28Z</time>
    </trkpt>
    <trkpt lat="48.452322" lon="2.633389">
      <ele>119.58</ele>
      <time>2018-06-24T08:21:29Z</time>
    </trkpt>
    <trkpt lat="48.452244" lon="2.633544">
      <ele>122.679</ele>
      <time>2018-06-24T08:21:31Z</time>
    </trkpt>
    <trkpt lat="48.452238" lon="2.633362">
      <ele>120.231</ele>
      <time>2018-06-24T08:21:32Z</time>
    </trkpt>
    <trkpt lat="48.452169" lon="2.633274">
      <ele>119.359</ele>
      <time>2018-06-24T08:21:34Z</time>
    </trkpt>
    <trkpt lat="48.452205" lon="2.633514">
      <ele>122.602</ele>
      <time>2018-06-24T08:21:38Z</time>
    </trkpt>
    <trkpt lat="48.452128" lon="2.633393">
      <ele>120.859</ele>
      <time>2018-06-24T08:21:43Z</time>
    </trkpt>
    <trkpt lat="48.452016" lon="2.633375">
      <ele>120.6</ele>
      <time>2018-06-24T08:21:51Z</time>
    </trkpt>
    <trkpt lat="48.452009" lon="2.633579">
      <ele>123.538</ele>
      <time>2018-06-24T08:21:54Z</time>
    </trkpt>
    <trkpt lat="48.452038" lon="2.633725">
      <ele>125.23</ele>
      <time>2018-06-24T08:21:55Z</time>
    </trkpt>
    <trkpt lat="48.451979" lon="2.633612">
      <ele>124.01</ele>
      <time>2018-06-24T08:21:56Z</time>
    </trkpt>
    <trkpt lat="48.45208" lon="2.633571">
      <ele>123.422</ele>
      <time>2018-06-24T08:22:04Z</time>
    </trkpt>
    <trkpt lat="48.452034" lon="2.633698">
      <ele>124.938</ele>
      <time>2018-06-24T08:23:06Z</time>
    </trkpt>
    <trkpt lat="48.452023" lon="2.633854">
      <ele>126.623</ele>
      <time>2018-06-24T08:23:09Z</time>
    </trkpt>
    <trkpt lat="48.452014" lon="2.633999">
      <ele>128.09</ele>
      <time>2018-06-24T08:23:13Z</time>
    </trkpt>
    <trkpt lat="48.452007" lon="2.634144">
      <ele>129.548</ele>
      <time>2018-06-24T08:23:15Z</time>
    </trkpt>
    <trkpt lat="48.452007" lon="2.634559">
      <ele>130.868</ele>
      <time>2018-06-24T08:23:24Z</time>
    </trkpt>
    <trkpt lat="48.451835" lon="2.635278">
      <ele>131.608</ele>
      <time>2018-06-24T08:23:37Z</time>
    </trkpt>
    <trkpt lat="48.451758" lon="2.635369">
      <ele>132.426</ele>
      <time>2018-06-24T08:23:39Z</time>
    </trkpt>
    <trkpt lat="48.451684" lon="2.635704">
      <ele>136.006</ele>
      <time>2018-06-24T08:23:45Z</time>
    </trkpt>
    <trkpt lat="48.451719" lon="2.63585">
      <ele>136.932</ele>
      <time>2018-06-24T08:23:52Z</time>
    </trkpt>
    <trkpt lat="48.451743" lon="2.635998">
      <ele>137.911</ele>
      <time>2018-06-24T08:23:55Z</time>
    </trkpt>
    <trkpt lat="48.451679" lon="2.636121">
      <ele>138.991</ele>
      <time>2018-06-24T08:23:58Z</time>
    </trkpt>
    <trkpt lat="48.451605" lon="2.636275">
      <ele>139.277</ele>
      <time>2018-06-24T08:24:03Z</time>
    </trkpt>
    <trkpt lat="48.451447" lon="2.636368">
      <ele>139.075</ele>
      <time>2018-06-24T08:24:09Z</time>
    </trkpt>
    <trkpt lat="48.451375" lon="2.636472">
      <ele>139.114</ele>
      <time>2018-06-24T08:24:12Z</time>
    </trkpt>
    <trkpt lat="48.451283" lon="2.636622">
      <ele>138.634</ele>
      <time>2018-06-24T08:24:16Z</time>
    </trkpt>
    <trkpt lat="48.451178" lon="2.636891">
      <ele>138.336</ele>
      <time>2018-06-24T08:24:21Z</time>
    </trkpt>
    <trkpt lat="48.451108" lon="2.636986">
      <ele>137.947</ele>
      <time>2018-06-24T08:24:24Z</time>
    </trkpt>
    <trkpt lat="48.450973" lon="2.637301">
      <ele>136.649</ele>
      <time>2018-06-24T08:24:29Z</time>
    </trkpt>
    <trkpt lat="48.450959" lon="2.637462">
      <ele>136.83</ele>
      <time>2018-06-24T08:24:33Z</time>
    </trkpt>
    <trkpt lat="48.450915" lon="2.637668">
      <ele>137.193</ele>
      <time>2018-06-24T08:24:36Z</time>
    </trkpt>
    <trkpt lat="48.450857" lon="2.637847">
      <ele>137.192</ele>
      <time>2018-06-24T08:24:38Z</time>
    </trkpt>
    <trkpt lat="48.450858" lon="2.638049">
      <ele>137.264</ele>
      <time>2018-06-24T08:24:45Z</time>
    </trkpt>
    <trkpt lat="48.450845" lon="2.638265">
      <ele>137.126</ele>
      <time>2018-06-24T08:24:50Z</time>
    </trkpt>
    <trkpt lat="48.450845" lon="2.638434">
      <ele>136.764</ele>
      <time>2018-06-24T08:24:54Z</time>
    </trkpt>
    <trkpt lat="48.450848" lon="2.638686">
      <ele>135.889</ele>
      <time>2018-06-24T08:24:59Z</time>
    </trkpt>
    <trkpt lat="48.450849" lon="2.638878">
      <ele>135.208</ele>
      <time>2018-06-24T08:25:02Z</time>
    </trkpt>
    <trkpt lat="48.450887" lon="2.639002">
      <ele>135.251</ele>
      <time>2018-06-24T08:25:04Z</time>
    </trkpt>
    <trkpt lat="48.450892" lon="2.639217">
      <ele>134.845</ele>
      <time>2018-06-24T08:25:08Z</time>
    </trkpt>
    <trkpt lat="48.450918" lon="2.639429">
      <ele>135.219</ele>
      <time>2018-06-24T08:25:13Z</time>
    </trkpt>
    <trkpt lat="48.450949" lon="2.63956">
      <ele>136.082</ele>
      <time>2018-06-24T08:25:16Z</time>
    </trkpt>
    <trkpt lat="48.45102" lon="2.639695">
      <ele>137.59</ele>
      <time>2018-06-24T08:25:19Z</time>
    </trkpt>
    <trkpt lat="48.451047" lon="2.639848">
      <ele>138.181</ele>
      <time>2018-06-24T08:25:22Z</time>
    </trkpt>
    <trkpt lat="48.451027" lon="2.640026">
      <ele>138.12</ele>
      <time>2018-06-24T08:25:25Z</time>
    </trkpt>
    <trkpt lat="48.450949" lon="2.640308">
      <ele>137.896</ele>
      <time>2018-06-24T08:25:28Z</time>
    </trkpt>
    <trkpt lat="48.45086" lon="2.640533">
      <ele>138.023</ele>
      <time>2018-06-24T08:25:30Z</time>
    </trkpt>
    <trkpt lat="48.450802" lon="2.640637">
      <ele>137.807</ele>
      <time>2018-06-24T08:25:31Z</time>
    </trkpt>
    <trkpt lat="48.450803" lon="2.640786">
      <ele>137.872</ele>
      <time>2018-06-24T08:25:32Z</time>
    </trkpt>
    <trkpt lat="48.450734" lon="2.640996">
      <ele>138.604</ele>
      <time>2018-06-24T08:25:37Z</time>
    </trkpt>
    <trkpt lat="48.450679" lon="2.641144">
      <ele>139.073</ele>
      <time>2018-06-24T08:25:42Z</time>
    </trkpt>
    <trkpt lat="48.450385" lon="2.641451">
      <ele>139.833</ele>
      <time>2018-06-24T08:25:54Z</time>
    </trkpt>
    <trkpt lat="48.450309" lon="2.641553">
      <ele>140.294</ele>
      <time>2018-06-24T08:25:57Z</time>
    </trkpt>
    <trkpt lat="48.45023" lon="2.641719">
      <ele>141.344</ele>
      <time>2018-06-24T08:26:01Z</time>
    </trkpt>
    <trkpt lat="48.450154" lon="2.641855">
      <ele>142.054</ele>
      <time>2018-06-24T08:26:04Z</time>
    </trkpt>
    <trkpt lat="48.450092" lon="2.641989">
      <ele>142.438</ele>
      <time>2018-06-24T08:26:07Z</time>
    </trkpt>
    <trkpt lat="48.450022" lon="2.642098">
      <ele>142.588</ele>
      <time>2018-06-24T08:26:10Z</time>
    </trkpt>
    <trkpt lat="48.449867" lon="2.642232">
      <ele>143.0</ele>
      <time>2018-06-24T08:26:15Z</time>
    </trkpt>
    <trkpt lat="48.449677" lon="2.642453">
      <ele>143.0</ele>
      <time>2018-06-24T08:26:22Z</time>
    </trkpt>
    <trkpt lat="48.449617" lon="2.642566">
      <ele>142.91</ele>
      <time>2018-06-24T08:26:24Z</time>
    </trkpt>
    <trkpt lat="48.449541" lon="2.642691">
      <ele>142.551</ele>
      <time>2018-06-24T08:26:27Z</time>
    </trkpt>
    <trkpt lat="48.449441" lon="2.642839">
      <ele>141.975</ele>
      <time>2018-06-24T08:26:30Z</time>
    </trkpt>
    <trkpt lat="48.449377" lon="2.642992">
      <ele>141.514</ele>
      <time>2018-06-24T08:26:32Z</time>
    </trkpt>
    <trkpt lat="48.449273" lon="2.643083">
      <ele>140.705</ele>
      <time>2018-06-24T08:26:36Z</time>
    </trkpt>
    <trkpt lat="48.449579" lon="2.643843">
      <ele>141.969</ele>
      <time>2018-06-24T08:26:51Z</time>
    </trkpt>
    <trkpt lat="48.449612" lon="2.644034">
      <ele>142.314</ele>
      <time>2018-06-24T08:26:54Z</time>
    </trkpt>
    <trkpt lat="48.449601" lon="2.6442">
      <ele>142.322</ele>
      <time>2018-06-24T08:26:56Z</time>
    </trkpt>
    <trkpt lat="48.449616" lon="2.644341">
      <ele>142.858</ele>
      <time>2018-06-24T08:26:59Z</time>
    </trkpt>
    <trkpt lat="48.449575" lon="2.644514">
      <ele>142.232</ele>
      <time>2018-06-24T08:27:02Z</time>
    </trkpt>
    <trkpt lat="48.449571" lon="2.644887">
      <ele>141.499</ele>
      <time>2018-06-24T08:27:08Z</time>
    </trkpt>
    <trkpt lat="48.449622" lon="2.645304">
      <ele>141.523</ele>
      <time>2018-06-24T08:27:13Z</time>
    </trkpt>
    <trkpt lat="48.449627" lon="2.645442">
      <ele>141.426</ele>
      <time>2018-06-24T08:27:15Z</time>
    </trkpt>
    <trkpt lat="48.449627" lon="2.645616">
      <ele>141.068</ele>
      <time>2018-06-24T08:27:17Z</time>
    </trkpt>
    <trkpt lat="48.449618" lon="2.645873">
      <ele>140.178</ele>
      <time>2018-06-24T08:27:21Z</time>
    </trkpt>
    <trkpt lat="48.449572" lon="2.646038">
      <ele>139.694</ele>
      <time>2018-06-24T08:27:24Z</time>
    </trkpt>
    <trkpt lat="48.449586" lon="2.646211">
      <ele>140.398</ele>
      <time>2018-06-24T08:27:27Z</time>
    </trkpt>
    <trkpt lat="48.449597" lon="2.646374">
      <ele>141.143</ele>
      <time>2018-06-24T08:27:31Z</time>
    </trkpt>
    <trkpt lat="48.449577" lon="2.646545">
      <ele>142.033</ele>
      <time>2018-06-24T08:27:34Z</time>
    </trkpt>
    <trkpt lat="48.449592" lon="2.646744">
      <ele>143.125</ele>
      <time>2018-06-24T08:27:37Z</time>
    </trkpt>
    <trkpt lat="48.449536" lon="2.647024">
      <ele>142.416</ele>
      <time>2018-06-24T08:27:43Z</time>
    </trkpt>
    <trkpt lat="48.449453" lon="2.647098">
      <ele>141.642</ele>
      <time>2018-06-24T08:27:49Z</time>
    </trkpt>
    <trkpt lat="48.449319" lon="2.647096">
      <ele>141.299</ele>
      <time>2018-06-24T08:28:24Z</time>
    </trkpt>
    <trkpt lat="48.449212" lon="2.647151">
      <ele>141.121</ele>
      <time>2018-06-24T08:28:28Z</time>
    </trkpt>
    <trkpt lat="48.449124" lon="2.647228">
      <ele>141.325</ele>
      <time>2018-06-24T08:28:31Z</time>
    </trkpt>
    <trkpt lat="48.448775" lon="2.647987">
      <ele>144.753</ele>
      <time>2018-06-24T08:28:49Z</time>
    </trkpt>
    <trkpt lat="48.448735" lon="2.648144">
      <ele>145.318</ele>
      <time>2018-06-24T08:28:51Z</time>
    </trkpt>
    <trkpt lat="48.448686" lon="2.64845">
      <ele>146.113</ele>
      <time>2018-06-24T08:28:54Z</time>
    </trkpt>
    <trkpt lat="48.448543" lon="2.648961">
      <ele>145.068</ele>
      <time>2018-06-24T08:28:58Z</time>
    </trkpt>
    <trkpt lat="48.448408" lon="2.649125">
      <ele>143.578</ele>
      <time>2018-06-24T08:29:03Z</time>
    </trkpt>
    <trkpt lat="48.448254" lon="2.649346">
      <ele>141.866</ele>
      <time>2018-06-24T08:29:07Z</time>
    </trkpt>
    <trkpt lat="48.448198" lon="2.649578">
      <ele>141.513</ele>
      <time>2018-06-24T08:29:10Z</time>
    </trkpt>
    <trkpt lat="48.448139" lon="2.649767">
      <ele>141.3</ele>
      <time>2018-06-24T08:29:13Z</time>
    </trkpt>
    <trkpt lat="48.44807" lon="2.649903">
      <ele>141.052</ele>
      <time>2018-06-24T08:29:15Z</time>
    </trkpt>
    <trkpt lat="48.448018" lon="2.650111">
      <ele>141.346</ele>
      <time>2018-06-24T08:29:19Z</time>
    </trkpt>
    <trkpt lat="48.447879" lon="2.650392">
      <ele>141.364</ele>
      <time>2018-06-24T08:29:24Z</time>
    </trkpt>
    <trkpt lat="48.447833" lon="2.650556">
      <ele>141.199</ele>
      <time>2018-06-24T08:29:27Z</time>
    </trkpt>
    <trkpt lat="48.447847" lon="2.650789">
      <ele>141.249</ele>
      <time>2018-06-24T08:29:31Z</time>
    </trkpt>
    <trkpt lat="48.447926" lon="2.651064">
      <ele>141.09</ele>
      <time>2018-06-24T08:29:34Z</time>
    </trkpt>
    <trkpt lat="48.448015" lon="2.651331">
      <ele>141.0</ele>
      <time>2018-06-24T08:29:36Z</time>
    </trkpt>
    <trkpt lat="48.448016" lon="2.651554">
      <ele>141.0</ele>
      <time>2018-06-24T08:29:38Z</time>
    </trkpt>
    <trkpt lat="48.448069" lon="2.651699">
      <ele>141.0</ele>
      <time>2018-06-24T08:29:40Z</time>
    </trkpt>
    <trkpt lat="48.448097" lon="2.65187">
      <ele>141.0</ele>
      <time>2018-06-24T08:29:42Z</time>
    </trkpt>
    <trkpt lat="48.448651" lon="2.653008">
      <ele>139.455</ele>
      <time>2018-06-24T08:29:59Z</time>
    </trkpt>
    <trkpt lat="48.448718" lon="2.653113">
      <ele>139.995</ele>
      <time>2018-06-24T08:30:01Z</time>
    </trkpt>
    <trkpt lat="48.448773" lon="2.653253">
      <ele>139.92</ele>
      <time>2018-06-24T08:30:05Z</time>
    </trkpt>
    <trkpt lat="48.44884" lon="2.653398">
      <ele>139.399</ele>
      <time>2018-06-24T08:30:08Z</time>
    </trkpt>
    <trkpt lat="48.449073" lon="2.653994">
      <ele>138.198</ele>
      <time>2018-06-24T08:30:14Z</time>
    </trkpt>
    <trkpt lat="48.449037" lon="2.654125">
      <ele>137.67</ele>
      <time>2018-06-24T08:30:19Z</time>
    </trkpt>
    <trkpt lat="48.449009" lon="2.654302">
      <ele>137.574</ele>
      <time>2018-06-24T08:30:22Z</time>
    </trkpt>
    <trkpt lat="48.448965" lon="2.654445">
      <ele>137.548</ele>
      <time>2018-06-24T08:30:24Z</time>
    </trkpt>
    <trkpt lat="48.44893" lon="2.654573">
      <ele>137.296</ele>
      <time>2018-06-24T08:30:26Z</time>
    </trkpt>
    <trkpt lat="48.448863" lon="2.654705">
      <ele>136.913</ele>
      <time>2018-06-24T08:30:28Z</time>
    </trkpt>
    <trkpt lat="48.448827" lon="2.654853">
      <ele>137.248</ele>
      <time>2018-06-24T08:30:30Z</time>
    </trkpt>
    <trkpt lat="48.44879" lon="2.655024">
      <ele>137.786</ele>
      <time>2018-06-24T08:30:33Z</time>
    </trkpt>
    <trkpt lat="48.448733" lon="2.655262">
      <ele>138.796</ele>
      <time>2018-06-24T08:30:37Z</time>
    </trkpt>
    <trkpt lat="48.448699" lon="2.655407">
      <ele>139.098</ele>
      <time>2018-06-24T08:30:39Z</time>
    </trkpt>
    <trkpt lat="48.448628" lon="2.655619">
      <ele>139.35</ele>
      <time>2018-06-24T08:30:41Z</time>
    </trkpt>
    <trkpt lat="48.448594" lon="2.655783">
      <ele>139.757</ele>
      <time>2018-06-24T08:30:43Z</time>
    </trkpt>
    <trkpt lat="48.448541" lon="2.65597">
      <ele>140.24</ele>
      <time>2018-06-24T08:30:46Z</time>
    </trkpt>
    <trkpt lat="48.448521" lon="2.65612">
      <ele>140.644</ele>
      <time>2018-06-24T08:30:49Z</time>
    </trkpt>
    <trkpt lat="48.448517" lon="2.656331">
      <ele>139.87</ele>
      <time>2018-06-24T08:30:53Z</time>
    </trkpt>
    <trkpt lat="48.448454" lon="2.656507">
      <ele>139.009</ele>
      <time>2018-06-24T08:30:57Z</time>
    </trkpt>
    <trkpt lat="48.448428" lon="2.656701">
      <ele>138.422</ele>
      <time>2018-06-24T08:31:01Z</time>
    </trkpt>
    <trkpt lat="48.44836" lon="2.65681">
      <ele>138.562</ele>
      <time>2018-06-24T08:31:04Z</time>
    </trkpt>
    <trkpt lat="48.448247" lon="2.657088">
      <ele>139.367</ele>
      <time>2018-06-24T08:31:08Z</time>
    </trkpt>
    <trkpt lat="48.448237" lon="2.657328">
      <ele>140.381</ele>
      <time>2018-06-24T08:31:12Z</time>
    </trkpt>
    <trkpt lat="48.448025" lon="2.657959">
      <ele>141.542</ele>
      <time>2018-06-24T08:31:24Z</time>
    </trkpt>
    <trkpt lat="48.447969" lon="2.658088">
      <ele>141.608</ele>
      <time>2018-06-24T08:31:27Z</time>
    </trkpt>
    <trkpt lat="48.447917" lon="2.658258">
      <ele>141.136</ele>
      <time>2018-06-24T08:31:31Z</time>
    </trkpt>
    <trkpt lat="48.44788" lon="2.658386">
      <ele>141.0</ele>
      <time>2018-06-24T08:31:33Z</time>
    </trkpt>
    <trkpt lat="48.447584" lon="2.65903">
      <ele>138.451</ele>
      <time>2018-06-24T08:31:43Z</time>
    </trkpt>
    <trkpt lat="48.447551" lon="2.659203">
      <ele>138.16</ele>
      <time>2018-06-24T08:31:45Z</time>
    </trkpt>
    <trkpt lat="48.447519" lon="2.65944">
      <ele>138.001</ele>
      <time>2018-06-24T08:31:47Z</time>
    </trkpt>
    <trkpt lat="48.44745" lon="2.659863">
      <ele>138.687</ele>
      <time>2018-06-24T08:31:53Z</time>
    </trkpt>
    <trkpt lat="48.447397" lon="2.660034">
      <ele>139.493</ele>
      <time>2018-06-24T08:31:55Z</time>
    </trkpt>
    <trkpt lat="48.447307" lon="2.66031">
      <ele>140.846</ele>
      <time>2018-06-24T08:31:59Z</time>
    </trkpt>
    <trkpt lat="48.447157" lon="2.660466">
      <ele>141.678</ele>
      <time>2018-06-24T08:32:02Z</time>
    </trkpt>
    <trkpt lat="48.447059" lon="2.660513">
      <ele>141.847</ele>
      <time>2018-06-24T08:32:05Z</time>
    </trkpt>
    <trkpt lat="48.446971" lon="2.660615">
      <ele>142.214</ele>
      <time>2018-06-24T08:32:09Z</time>
    </trkpt>
    <trkpt lat="48.446566" lon="2.660895">
      <ele>143.142</ele>
      <time>2018-06-24T08:32:20Z</time>
    </trkpt>
    <trkpt lat="48.446456" lon="2.660941">
      <ele>143.094</ele>
      <time>2018-06-24T08:32:23Z</time>
    </trkpt>
    <trkpt lat="48.446342" lon="2.661012">
      <ele>142.94</ele>
      <time>2018-06-24T08:32:26Z</time>
    </trkpt>
    <trkpt lat="48.446186" lon="2.661114">
      <ele>143.01</ele>
      <time>2018-06-24T08:32:31Z</time>
    </trkpt>
    <trkpt lat="48.446103" lon="2.661174">
      <ele>143.175</ele>
      <time>2018-06-24T08:32:33Z</time>
    </trkpt>
    <trkpt lat="48.446012" lon="2.661262">
      <ele>143.023</ele>
      <time>2018-06-24T08:32:35Z</time>
    </trkpt>
    <trkpt lat="48.445916" lon="2.661306">
      <ele>142.79</ele>
      <time>2018-06-24T08:32:37Z</time>
    </trkpt>
    <trkpt lat="48.445741" lon="2.661381">
      <ele>142.611</ele>
      <time>2018-06-24T08:32:41Z</time>
    </trkpt>
    <trkpt lat="48.445645" lon="2.661453">
      <ele>142.553</ele>
      <time>2018-06-24T08:32:44Z</time>
    </trkpt>
    <trkpt lat="48.445556" lon="2.661491">
      <ele>142.369</ele>
      <time>2018-06-24T08:32:49Z</time>
    </trkpt>
    <trkpt lat="48.445067" lon="2.661783">
      <ele>141.342</ele>
      <time>2018-06-24T08:33:45Z</time>
    </trkpt>
    <trkpt lat="48.444966" lon="2.661869">
      <ele>141.0</ele>
      <time>2018-06-24T08:33:48Z</time>
    </trkpt>
    <trkpt lat="48.444805" lon="2.661965">
      <ele>141.074</ele>
      <time>2018-06-24T08:33:54Z</time>
    </trkpt>
    <trkpt lat="48.444716" lon="2.66207">
      <ele>141.452</ele>
      <time>2018-06-24T08:33:59Z</time>
    </trkpt>
    <trkpt lat="48.44464" lon="2.662202">
      <ele>141.927</ele>
      <time>2018-06-24T08:34:04Z</time>
    </trkpt>
    <trkpt lat="48.444556" lon="2.662353">
      <ele>142.189</ele>
      <time>2018-06-24T08:34:08Z</time>
    </trkpt>
    <trkpt lat="48.444482" lon="2.6625">
      <ele>142.135</ele>
      <time>2018-06-24T08:34:12Z</time>
    </trkpt>
    <trkpt lat="48.444322" lon="2.662728">
      <ele>142.0</ele>
      <time>2018-06-24T08:34:18Z</time>
    </trkpt>
    <trkpt lat="48.444225" lon="2.662964">
      <ele>141.47</ele>
      <time>2018-06-24T08:34:23Z</time>
    </trkpt>
    <trkpt lat="48.444111" lon="2.663248">
      <ele>141.0</ele>
      <time>2018-06-24T08:34:30Z</time>
    </trkpt>
    <trkpt lat="48.444053" lon="2.663361">
      <ele>141.0</ele>
      <time>2018-06-24T08:34:34Z</time>
    </trkpt>
    <trkpt lat="48.444031" lon="2.663546">
      <ele>141.0</ele>
      <time>2018-06-24T08:34:40Z</time>
    </trkpt>
    <trkpt lat="48.443992" lon="2.66371">
      <ele>141.0</ele>
      <time>2018-06-24T08:39:34Z</time>
    </trkpt>
    <trkpt lat="48.44401" lon="2.663963">
      <ele>141.116</ele>
      <time>2018-06-24T08:39:40Z</time>
    </trkpt>
    <trkpt lat="48.444033" lon="2.664124">
      <ele>141.439</ele>
      <time>2018-06-24T08:39:44Z</time>
    </trkpt>
    <trkpt lat="48.443939" lon="2.664773">
      <ele>143.183</ele>
      <time>2018-06-24T08:39:57Z</time>
    </trkpt>
    <trkpt lat="48.443915" lon="2.664931">
      <ele>143.752</ele>
      <time>2018-06-24T08:40:00Z</time>
    </trkpt>
    <trkpt lat="48.443899" lon="2.665112">
      <ele>144.0</ele>
      <time>2018-06-24T08:40:03Z</time>
    </trkpt>
    <trkpt lat="48.443903" lon="2.66532">
      <ele>144.0</ele>
      <time>2018-06-24T08:40:06Z</time>
    </trkpt>
    <trkpt lat="48.443859" lon="2.665499">
      <ele>143.914</ele>
      <time>2018-06-24T08:40:09Z</time>
    </trkpt>
    <trkpt lat="48.443836" lon="2.66568">
      <ele>143.362</ele>
      <time>2018-06-24T08:40:13Z</time>
    </trkpt>
    <trkpt lat="48.443818" lon="2.665934">
      <ele>143.015</ele>
      <time>2018-06-24T08:40:18Z</time>
    </trkpt>
    <trkpt lat="48.443781" lon="2.666129">
      <ele>143.223</ele>
      <time>2018-06-24T08:40:24Z</time>
    </trkpt>
    <trkpt lat="48.443673" lon="2.666545">
      <ele>142.882</ele>
      <time>2018-06-24T08:40:32Z</time>
    </trkpt>
    <trkpt lat="48.443612" lon="2.666719">
      <ele>143.191</ele>
      <time>2018-06-24T08:40:35Z</time>
    </trkpt>
    <trkpt lat="48.443594" lon="2.666862">
      <ele>143.703</ele>
      <time>2018-06-24T08:40:37Z</time>
    </trkpt>
    <trkpt lat="48.443545" lon="2.667096">
      <ele>144.546</ele>
      <time>2018-06-24T08:40:43Z</time>
    </trkpt>
    <trkpt lat="48.443382" lon="2.667441">
      <ele>145.788</ele>
      <time>2018-06-24T08:40:52Z</time>
    </trkpt>
    <trkpt lat="48.443315" lon="2.667544">
      <ele>145.934</ele>
      <time>2018-06-24T08:40:55Z</time>
    </trkpt>
    <trkpt lat="48.443248" lon="2.66764">
      <ele>145.693</ele>
      <time>2018-06-24T08:40:59Z</time>
    </trkpt>
    <trkpt lat="48.443194" lon="2.667852">
      <ele>145.365</ele>
      <time>2018-06-24T08:41:03Z</time>
    </trkpt>
    <trkpt lat="48.443196" lon="2.668015">
      <ele>145.074</ele>
      <time>2018-06-24T08:41:06Z</time>
    </trkpt>
    <trkpt lat="48.443199" lon="2.668175">
      <ele>144.57</ele>
      <time>2018-06-24T08:41:11Z</time>
    </trkpt>
    <trkpt lat="48.44319" lon="2.668334">
      <ele>143.999</ele>
      <time>2018-06-24T08:41:16Z</time>
    </trkpt>
    <trkpt lat="48.44364" lon="2.669136">
      <ele>144.208</ele>
      <time>2018-06-24T08:41:54Z</time>
    </trkpt>
    <trkpt lat="48.443695" lon="2.669281">
      <ele>144.48</ele>
      <time>2018-06-24T08:42:01Z</time>
    </trkpt>
    <trkpt lat="48.443723" lon="2.669433">
      <ele>144.419</ele>
      <time>2018-06-24T08:42:05Z</time>
    </trkpt>
    <trkpt lat="48.443763" lon="2.669579">
      <ele>144.282</ele>
      <time>2018-06-24T08:42:09Z</time>
    </trkpt>
    <trkpt lat="48.443756" lon="2.669718">
      <ele>144.008</ele>
      <time>2018-06-24T08:42:14Z</time>
    </trkpt>
    <trkpt lat="48.443648" lon="2.66976">
      <ele>144.0</ele>
      <time>2018-06-24T08:42:19Z</time>
    </trkpt>
    <trkpt lat="48.443593" lon="2.669606">
      <ele>144.0</ele>
      <time>2018-06-24T08:42:23Z</time>
    </trkpt>
    <trkpt lat="48.443461" lon="2.669561">
      <ele>144.0</ele>
      <time>2018-06-24T08:42:29Z</time>
    </trkpt>
    <trkpt lat="48.443371" lon="2.66956">
      <ele>144.0</ele>
      <time>2018-06-24T08:42:32Z</time>
    </trkpt>
    <trkpt lat="48.443272" lon="2.669544">
      <ele>144.0</ele>
      <time>2018-06-24T08:42:35Z</time>
    </trkpt>
    <trkpt lat="48.443103" lon="2.669414">
      <ele>143.909</ele>
      <time>2018-06-24T08:42:42Z</time>
    </trkpt>
    <trkpt lat="48.442959" lon="2.669398">
      <ele>143.485</ele>
      <time>2018-06-24T08:42:47Z</time>
    </trkpt>
    <trkpt lat="48.442808" lon="2.669444">
      <ele>143.107</ele>
      <time>2018-06-24T08:42:52Z</time>
    </trkpt>
    <trkpt lat="48.442646" lon="2.669446">
      <ele>143.003</ele>
      <time>2018-06-24T08:42:56Z</time>
    </trkpt>
    <trkpt lat="48.442537" lon="2.669403">
      <ele>142.851</ele>
      <time>2018-06-24T08:43:00Z</time>
    </trkpt>
    <trkpt lat="48.442307" lon="2.669297">
      <ele>141.774</ele>
      <time>2018-06-24T08:43:07Z</time>
    </trkpt>
    <trkpt lat="48.4422" lon="2.669303">
      <ele>141.372</ele>
      <time>2018-06-24T08:43:18Z</time>
    </trkpt>
    <trkpt lat="48.442111" lon="2.669275">
      <ele>140.833</ele>
      <time>2018-06-24T08:43:27Z</time>
    </trkpt>
    <trkpt lat="48.442023" lon="2.669219">
      <ele>140.336</ele>
      <time>2018-06-24T08:43:33Z</time>
    </trkpt>
    <trkpt lat="48.44186" lon="2.669119">
      <ele>140.0</ele>
      <time>2018-06-24T08:43:38Z</time>
    </trkpt>
    <trkpt lat="48.441756" lon="2.669045">
      <ele>140.0</ele>
      <time>2018-06-24T08:43:41Z</time>
    </trkpt>
    <trkpt lat="48.441638" lon="2.668971">
      <ele>140.145</ele>
      <time>2018-06-24T08:43:44Z</time>
    </trkpt>
    <trkpt lat="48.441113" lon="2.668607">
      <ele>143.008</ele>
      <time>2018-06-24T08:43:56Z</time>
    </trkpt>
    <trkpt lat="48.441009" lon="2.66853">
      <ele>143.92</ele>
      <time>2018-06-24T08:43:58Z</time>
    </trkpt>
    <trkpt lat="48.440926" lon="2.668468">
      <ele>144.505</ele>
      <time>2018-06-24T08:43:59Z</time>
    </trkpt>
    <trkpt lat="48.440841" lon="2.668421">
      <ele>144.964</ele>
      <time>2018-06-24T08:44:00Z</time>
    </trkpt>
    <trkpt lat="48.440684" lon="2.668353">
      <ele>144.962</ele>
      <time>2018-06-24T08:44:05Z</time>
    </trkpt>
    <trkpt lat="48.440593" lon="2.668301">
      <ele>145.0</ele>
      <time>2018-06-24T08:44:07Z</time>
    </trkpt>
    <trkpt lat="48.4405" lon="2.668243">
      <ele>144.865</ele>
      <time>2018-06-24T08:44:09Z</time>
    </trkpt>
    <trkpt lat="48.440369" lon="2.668204">
      <ele>144.641</ele>
      <time>2018-06-24T08:44:11Z</time>
    </trkpt>
    <trkpt lat="48.440252" lon="2.668144">
      <ele>144.682</ele>
      <time>2018-06-24T08:44:14Z</time>
    </trkpt>
    <trkpt lat="48.440129" lon="2.668086">
      <ele>144.89</ele>
      <time>2018-06-24T08:44:17Z</time>
    </trkpt>
    <trkpt lat="48.440049" lon="2.668012">
      <ele>145.129</ele>
      <time>2018-06-24T08:44:19Z</time>
    </trkpt>
    <trkpt lat="48.439925" lon="2.667953">
      <ele>145.639</ele>
      <time>2018-06-24T08:44:21Z</time>
    </trkpt>
    <trkpt lat="48.439785" lon="2.667888">
      <ele>146.377</ele>
      <time>2018-06-24T08:44:23Z</time>
    </trkpt>
    <trkpt lat="48.439688" lon="2.667856">
      <ele>146.507</ele>
      <time>2018-06-24T08:44:25Z</time>
    </trkpt>
    <trkpt lat="48.439398" lon="2.667888">
      <ele>144.833</ele>
      <time>2018-06-24T08:44:33Z</time>
    </trkpt>
    <trkpt lat="48.439303" lon="2.667908">
      <ele>144.491</ele>
      <time>2018-06-24T08:44:35Z</time>
    </trkpt>
    <trkpt lat="48.439147" lon="2.667896">
      <ele>144.011</ele>
      <time>2018-06-24T08:44:38Z</time>
    </trkpt>
    <trkpt lat="48.439044" lon="2.667905">
      <ele>144.037</ele>
      <time>2018-06-24T08:44:40Z</time>
    </trkpt>
    <trkpt lat="48.43894" lon="2.667869">
      <ele>144.28</ele>
      <time>2018-06-24T08:44:42Z</time>
    </trkpt>
    <trkpt lat="48.43885" lon="2.667835">
      <ele>144.337</ele>
      <time>2018-06-24T08:44:45Z</time>
    </trkpt>
    <trkpt lat="48.438578" lon="2.667789">
      <ele>142.84</ele>
      <time>2018-06-24T08:44:54Z</time>
    </trkpt>
    <trkpt lat="48.438409" lon="2.667677">
      <ele>142.998</ele>
      <time>2018-06-24T08:44:57Z</time>
    </trkpt>
    <trkpt lat="48.438327" lon="2.667603">
      <ele>143.258</ele>
      <time>2018-06-24T08:44:59Z</time>
    </trkpt>
    <trkpt lat="48.438237" lon="2.667508">
      <ele>143.942</ele>
      <time>2018-06-24T08:45:02Z</time>
    </trkpt>
    <trkpt lat="48.43814" lon="2.667448">
      <ele>144.448</ele>
      <time>2018-06-24T08:45:04Z</time>
    </trkpt>
    <trkpt lat="48.437957" lon="2.667393">
      <ele>145.019</ele>
      <time>2018-06-24T08:45:09Z</time>
    </trkpt>
    <trkpt lat="48.437854" lon="2.667334">
      <ele>145.359</ele>
      <time>2018-06-24T08:45:13Z</time>
    </trkpt>
    <trkpt lat="48.437659" lon="2.667246">
      <ele>145.401</ele>
      <time>2018-06-24T08:45:18Z</time>
    </trkpt>
    <trkpt lat="48.437557" lon="2.667218">
      <ele>145.224</ele>
      <time>2018-06-24T08:45:20Z</time>
    </trkpt>
    <trkpt lat="48.437424" lon="2.667163">
      <ele>144.724</ele>
      <time>2018-06-24T08:45:23Z</time>
    </trkpt>
    <trkpt lat="48.437237" lon="2.667096">
      <ele>143.991</ele>
      <time>2018-06-24T08:45:29Z</time>
    </trkpt>
    <trkpt lat="48.437122" lon="2.66708">
      <ele>143.126</ele>
      <time>2018-06-24T08:45:31Z</time>
    </trkpt>
    <trkpt lat="48.436932" lon="2.667068">
      <ele>141.531</ele>
      <time>2018-06-24T08:45:35Z</time>
    </trkpt>
    <trkpt lat="48.436842" lon="2.6671">
      <ele>140.214</ele>
      <time>2018-06-24T08:45:37Z</time>
    </trkpt>
    <trkpt lat="48.436709" lon="2.667096">
      <ele>138.82</ele>
      <time>2018-06-24T08:45:40Z</time>
    </trkpt>
    <trkpt lat="48.436606" lon="2.667117">
      <ele>138.219</ele>
      <time>2018-06-24T08:45:42Z</time>
    </trkpt>
    <trkpt lat="48.436515" lon="2.667144">
      <ele>137.999</ele>
      <time>2018-06-24T08:45:44Z</time>
    </trkpt>
    <trkpt lat="48.436419" lon="2.667173">
      <ele>137.69</ele>
      <time>2018-06-24T08:45:46Z</time>
    </trkpt>
    <trkpt lat="48.436139" lon="2.66715">
      <ele>137.14</ele>
      <time>2018-06-24T08:45:54Z</time>
    </trkpt>
    <trkpt lat="48.436082" lon="2.667038">
      <ele>138.513</ele>
      <time>2018-06-24T08:45:58Z</time>
    </trkpt>
    <trkpt lat="48.435965" lon="2.66697">
      <ele>139.058</ele>
      <time>2018-06-24T08:46:04Z</time>
    </trkpt>
    <trkpt lat="48.435858" lon="2.666856">
      <ele>140.016</ele>
      <time>2018-06-24T08:46:09Z</time>
    </trkpt>
    <trkpt lat="48.435586" lon="2.666721">
      <ele>142.478</ele>
      <time>2018-06-24T08:46:17Z</time>
    </trkpt>
    <trkpt lat="48.435464" lon="2.666645">
      <ele>143.737</ele>
      <time>2018-06-24T08:46:20Z</time>
    </trkpt>
    <trkpt lat="48.43542" lon="2.666489">
      <ele>144.616</ele>
      <time>2018-06-24T08:46:25Z</time>
    </trkpt>
    <trkpt lat="48.435322" lon="2.666437">
      <ele>145.508</ele>
      <time>2018-06-24T08:46:29Z</time>
    </trkpt>
    <trkpt lat="48.43521" lon="2.666422">
      <ele>146.125</ele>
      <time>2018-06-24T08:46:33Z</time>
    </trkpt>
    <trkpt lat="48.435096" lon="2.666425">
      <ele>146.524</ele>
      <time>2018-06-24T08:46:36Z</time>
    </trkpt>
    <trkpt lat="48.435" lon="2.666414">
      <ele>146.91</ele>
      <time>2018-06-24T08:46:42Z</time>
    </trkpt>
    <trkpt lat="48.434851" lon="2.666378">
      <ele>146.485</ele>
      <time>2018-06-24T08:46:47Z</time>
    </trkpt>
    <trkpt lat="48.434738" lon="2.666363">
      <ele>146.145</ele>
      <time>2018-06-24T08:46:51Z</time>
    </trkpt>
    <trkpt lat="48.434542" lon="2.666331">
      <ele>146.722</ele>
      <time>2018-06-24T08:46:58Z</time>
    </trkpt>
    <trkpt lat="48.434448" lon="2.66631">
      <ele>146.991</ele>
      <time>2018-06-24T08:47:03Z</time>
    </trkpt>
    <trkpt lat="48.434195" lon="2.666202">
      <ele>148.502</ele>
      <time>2018-06-24T08:47:13Z</time>
    </trkpt>
    <trkpt lat="48.434059" lon="2.666195">
      <ele>149.086</ele>
      <time>2018-06-24T08:47:18Z</time>
    </trkpt>
    <trkpt lat="48.433948" lon="2.666164">
      <ele>149.597</ele>
      <time>2018-06-24T08:47:23Z</time>
    </trkpt>
    <trkpt lat="48.433838" lon="2.666143">
      <ele>149.723</ele>
      <time>2018-06-24T08:47:27Z</time>
    </trkpt>
    <trkpt lat="48.43365" lon="2.666037">
      <ele>149.369</ele>
      <time>2018-06-24T08:47:34Z</time>
    </trkpt>
    <trkpt lat="48.433619" lon="2.665903">
      <ele>149.756</ele>
      <time>2018-06-24T08:47:39Z</time>
    </trkpt>
    <trkpt lat="48.433502" lon="2.665846">
      <ele>149.562</ele>
      <time>2018-06-24T08:47:44Z</time>
    </trkpt>
    <trkpt lat="48.433469" lon="2.666037">
      <ele>148.755</ele>
      <time>2018-06-24T08:47:50Z</time>
    </trkpt>
    <trkpt lat="48.433364" lon="2.666024">
      <ele>148.424</ele>
      <time>2018-06-24T08:47:53Z</time>
    </trkpt>
    <trkpt lat="48.433171" lon="2.665997">
      <ele>147.826</ele>
      <time>2018-06-24T08:47:59Z</time>
    </trkpt>
    <trkpt lat="48.433056" lon="2.665951">
      <ele>147.578</ele>
      <time>2018-06-24T08:48:02Z</time>
    </trkpt>
    <trkpt lat="48.432916" lon="2.665887">
      <ele>148.309</ele>
      <time>2018-06-24T08:48:07Z</time>
    </trkpt>
    <trkpt lat="48.43282" lon="2.665844">
      <ele>148.81</ele>
      <time>2018-06-24T08:48:10Z</time>
    </trkpt>
    <trkpt lat="48.43258" lon="2.665812">
      <ele>149.734</ele>
      <time>2018-06-24T08:48:16Z</time>
    </trkpt>
    <trkpt lat="48.432459" lon="2.665782">
      <ele>149.88</ele>
      <time>2018-06-24T08:48:19Z</time>
    </trkpt>
    <trkpt lat="48.432322" lon="2.665761">
      <ele>149.526</ele>
      <time>2018-06-24T08:48:23Z</time>
    </trkpt>
    <trkpt lat="48.432189" lon="2.665734">
      <ele>149.118</ele>
      <time>2018-06-24T08:48:27Z</time>
    </trkpt>
    <trkpt lat="48.432085" lon="2.665756">
      <ele>148.29</ele>
      <time>2018-06-24T08:48:30Z</time>
    </trkpt>
    <trkpt lat="48.431945" lon="2.665693">
      <ele>147.509</ele>
      <time>2018-06-24T08:48:34Z</time>
    </trkpt>
    <trkpt lat="48.431832" lon="2.665693">
      <ele>146.9</ele>
      <time>2018-06-24T08:48:36Z</time>
    </trkpt>
    <trkpt lat="48.431649" lon="2.665709">
      <ele>145.895</ele>
      <time>2018-06-24T08:48:41Z</time>
    </trkpt>
    <trkpt lat="48.431548" lon="2.665685">
      <ele>146.068</ele>
      <time>2018-06-24T08:48:44Z</time>
    </trkpt>
    <trkpt lat="48.431444" lon="2.665633">
      <ele>146.442</ele>
      <time>2018-06-24T08:48:47Z</time>
    </trkpt>
    <trkpt lat="48.431125" lon="2.665609">
      <ele>147.382</ele>
      <time>2018-06-24T08:48:54Z</time>
    </trkpt>
    <trkpt lat="48.431036" lon="2.665571">
      <ele>148.119</ele>
      <time>2018-06-24T08:48:56Z</time>
    </trkpt>
    <trkpt lat="48.430927" lon="2.665615">
      <ele>148.163</ele>
      <time>2018-06-24T08:49:00Z</time>
    </trkpt>
    <trkpt lat="48.430803" lon="2.665729">
      <ele>147.819</ele>
      <time>2018-06-24T08:49:03Z</time>
    </trkpt>
    <trkpt lat="48.430693" lon="2.665821">
      <ele>147.572</ele>
      <time>2018-06-24T08:49:07Z</time>
    </trkpt>
    <trkpt lat="48.430632" lon="2.66593">
      <ele>147.029</ele>
      <time>2018-06-24T08:49:14Z</time>
    </trkpt>
    <trkpt lat="48.430554" lon="2.666075">
      <ele>146.259</ele>
      <time>2018-06-24T08:49:19Z</time>
    </trkpt>
    <trkpt lat="48.430461" lon="2.666158">
      <ele>145.72</ele>
      <time>2018-06-24T08:49:22Z</time>
    </trkpt>
    <trkpt lat="48.430423" lon="2.666307">
      <ele>144.926</ele>
      <time>2018-06-24T08:49:26Z</time>
    </trkpt>
    <trkpt lat="48.430359" lon="2.666403">
      <ele>144.591</ele>
      <time>2018-06-24T08:49:30Z</time>
    </trkpt>
    <trkpt lat="48.430277" lon="2.666526">
      <ele>144.014</ele>
      <time>2018-06-24T08:49:33Z</time>
    </trkpt>
    <trkpt lat="48.43012" lon="2.666738">
      <ele>143.2</ele>
      <time>2018-06-24T08:49:39Z</time>
    </trkpt>
    <trkpt lat="48.430047" lon="2.666889">
      <ele>142.895</ele>
      <time>2018-06-24T08:49:42Z</time>
    </trkpt>
    <trkpt lat="48.429984" lon="2.667046">
      <ele>142.713</ele>
      <time>2018-06-24T08:49:46Z</time>
    </trkpt>
    <trkpt lat="48.430029" lon="2.667275">
      <ele>141.183</ele>
      <time>2018-06-24T08:49:52Z</time>
    </trkpt>
    <trkpt lat="48.430032" lon="2.667431">
      <ele>139.949</ele>
      <time>2018-06-24T08:49:55Z</time>
    </trkpt>
    <trkpt lat="48.430072" lon="2.667601">
      <ele>137.613</ele>
      <time>2018-06-24T08:50:04Z</time>
    </trkpt>
    <trkpt lat="48.429972" lon="2.66777">
      <ele>137.384</ele>
      <time>2018-06-24T08:50:13Z</time>
    </trkpt>
    <trkpt lat="48.429949" lon="2.667938">
      <ele>136.397</ele>
      <time>2018-06-24T08:50:26Z</time>
    </trkpt>
    <trkpt lat="48.429887" lon="2.668059">
      <ele>136.183</ele>
      <time>2018-06-24T08:50:42Z</time>
    </trkpt>
    <trkpt lat="48.429797" lon="2.668186">
      <ele>135.784</ele>
      <time>2018-06-24T08:50:44Z</time>
    </trkpt>
    <trkpt lat="48.429768" lon="2.668039">
      <ele>137.625</ele>
      <time>2018-06-24T08:50:50Z</time>
    </trkpt>
    <trkpt lat="48.42967" lon="2.667894">
      <ele>139.351</ele>
      <time>2018-06-24T08:50:59Z</time>
    </trkpt>
    <trkpt lat="48.429574" lon="2.66788">
      <ele>139.798</ele>
      <time>2018-06-24T08:51:49Z</time>
    </trkpt>
    <trkpt lat="48.429354" lon="2.667778">
      <ele>140.673</ele>
      <time>2018-06-24T08:51:59Z</time>
    </trkpt>
    <trkpt lat="48.429262" lon="2.667635">
      <ele>140.857</ele>
      <time>2018-06-24T08:52:06Z</time>
    </trkpt>
    <trkpt lat="48.429154" lon="2.667518">
      <ele>140.929</ele>
      <time>2018-06-24T08:52:13Z</time>
    </trkpt>
    <trkpt lat="48.429067" lon="2.6674">
      <ele>141.72</ele>
      <time>2018-06-24T08:52:17Z</time>
    </trkpt>
    <trkpt lat="48.429033" lon="2.667213">
      <ele>143.016</ele>
      <time>2018-06-24T08:52:21Z</time>
    </trkpt>
    <trkpt lat="48.428988" lon="2.667072">
      <ele>143.348</ele>
      <time>2018-06-24T08:52:27Z</time>
    </trkpt>
    <trkpt lat="48.428894" lon="2.666971">
      <ele>143.888</ele>
      <time>2018-06-24T08:52:30Z</time>
    </trkpt>
    <trkpt lat="48.428822" lon="2.666857">
      <ele>143.835</ele>
      <time>2018-06-24T08:52:34Z</time>
    </trkpt>
    <trkpt lat="48.428714" lon="2.666747">
      <ele>143.818</ele>
      <time>2018-06-24T08:52:37Z</time>
    </trkpt>
    <trkpt lat="48.428652" lon="2.66661">
      <ele>144.03</ele>
      <time>2018-06-24T08:52:42Z</time>
    </trkpt>
    <trkpt lat="48.428557" lon="2.666491">
      <ele>143.734</ele>
      <time>2018-06-24T08:52:46Z</time>
    </trkpt>
    <trkpt lat="48.428235" lon="2.666534">
      <ele>142.124</ele>
      <time>2018-06-24T08:53:00Z</time>
    </trkpt>
    <trkpt lat="48.42813" lon="2.666537">
      <ele>141.735</ele>
      <time>2018-06-24T08:53:04Z</time>
    </trkpt>
    <trkpt lat="48.428027" lon="2.666559">
      <ele>141.388</ele>
      <time>2018-06-24T08:53:11Z</time>
    </trkpt>
    <trkpt lat="48.427974" lon="2.666701">
      <ele>141.0</ele>
      <time>2018-06-24T08:53:16Z</time>
    </trkpt>
    <trkpt lat="48.427881" lon="2.666708">
      <ele>141.0</ele>
      <time>2018-06-24T08:53:19Z</time>
    </trkpt>
    <trkpt lat="48.427792" lon="2.666764">
      <ele>141.0</ele>
      <time>2018-06-24T08:53:22Z</time>
    </trkpt>
    <trkpt lat="48.427688" lon="2.666807">
      <ele>141.323</ele>
      <time>2018-06-24T08:53:25Z</time>
    </trkpt>
    <trkpt lat="48.427472" lon="2.666891">
      <ele>142.182</ele>
      <time>2018-06-24T08:53:32Z</time>
    </trkpt>
    <trkpt lat="48.427383" lon="2.666966">
      <ele>142.92</ele>
      <time>2018-06-24T08:53:35Z</time>
    </trkpt>
    <trkpt lat="48.427059" lon="2.667219">
      <ele>146.164</ele>
      <time>2018-06-24T08:53:44Z</time>
    </trkpt>
    <trkpt lat="48.426916" lon="2.667274">
      <ele>146.814</ele>
      <time>2018-06-24T08:53:48Z</time>
    </trkpt>
    <trkpt lat="48.426798" lon="2.667368">
      <ele>146.222</ele>
      <time>2018-06-24T08:53:51Z</time>
    </trkpt>
    <trkpt lat="48.426598" lon="2.66747">
      <ele>145.371</ele>
      <time>2018-06-24T08:53:59Z</time>
    </trkpt>
    <trkpt lat="48.426488" lon="2.66751">
      <ele>144.796</ele>
      <time>2018-06-24T08:54:02Z</time>
    </trkpt>
    <trkpt lat="48.426404" lon="2.66758">
      <ele>144.941</ele>
      <time>2018-06-24T08:54:04Z</time>
    </trkpt>
    <trkpt lat="48.426278" lon="2.667664">
      <ele>144.809</ele>
      <time>2018-06-24T08:54:08Z</time>
    </trkpt>
    <trkpt lat="48.426103" lon="2.667728">
      <ele>144.259</ele>
      <time>2018-06-24T08:54:13Z</time>
    </trkpt>
    <trkpt lat="48.425999" lon="2.667817">
      <ele>144.879</ele>
      <time>2018-06-24T08:54:15Z</time>
    </trkpt>
    <trkpt lat="48.425904" lon="2.667889">
      <ele>145.055</ele>
      <time>2018-06-24T08:54:18Z</time>
    </trkpt>
    <trkpt lat="48.425671" lon="2.668072">
      <ele>146.703</ele>
      <time>2018-06-24T08:54:25Z</time>
    </trkpt>
    <trkpt lat="48.424975" lon="2.668559">
      <ele>148.552</ele>
      <time>2018-06-24T08:54:47Z</time>
    </trkpt>
    <trkpt lat="48.424857" lon="2.668612">
      <ele>148.488</ele>
      <time>2018-06-24T08:54:50Z</time>
    </trkpt>
    <trkpt lat="48.424756" lon="2.668665">
      <ele>148.316</ele>
      <time>2018-06-24T08:54:53Z</time>
    </trkpt>
    <trkpt lat="48.424624" lon="2.668688">
      <ele>147.57</ele>
      <time>2018-06-24T08:54:56Z</time>
    </trkpt>
    <trkpt lat="48.424494" lon="2.668863">
      <ele>147.264</ele>
      <time>2018-06-24T08:54:59Z</time>
    </trkpt>
    <trkpt lat="48.424393" lon="2.668908">
      <ele>146.884</ele>
      <time>2018-06-24T08:55:01Z</time>
    </trkpt>
    <trkpt lat="48.424303" lon="2.668942">
      <ele>146.682</ele>
      <time>2018-06-24T08:55:03Z</time>
    </trkpt>
    <trkpt lat="48.424206" lon="2.66899">
      <ele>146.506</ele>
      <time>2018-06-24T08:55:05Z</time>
    </trkpt>
    <trkpt lat="48.422622" lon="2.670199">
      <ele>144.153</ele>
      <time>2018-06-24T08:55:41Z</time>
    </trkpt>
    <trkpt lat="48.422517" lon="2.670273">
      <ele>144.921</ele>
      <time>2018-06-24T08:55:43Z</time>
    </trkpt>
    <trkpt lat="48.422332" lon="2.670439">
      <ele>145.229</ele>
      <time>2018-06-24T08:55:46Z</time>
    </trkpt>
    <trkpt lat="48.422226" lon="2.670528">
      <ele>145.012</ele>
      <time>2018-06-24T08:55:49Z</time>
    </trkpt>
    <trkpt lat="48.421987" lon="2.670723">
      <ele>145.092</ele>
      <time>2018-06-24T08:55:54Z</time>
    </trkpt>
    <trkpt lat="48.421717" lon="2.670977">
      <ele>144.698</ele>
      <time>2018-06-24T08:55:59Z</time>
    </trkpt>
    <trkpt lat="48.421617" lon="2.671057">
      <ele>144.482</ele>
      <time>2018-06-24T08:56:01Z</time>
    </trkpt>
    <trkpt lat="48.421457" lon="2.671143">
      <ele>143.605</ele>
      <time>2018-06-24T08:56:05Z</time>
    </trkpt>
    <trkpt lat="48.421294" lon="2.671268">
      <ele>142.347</ele>
      <time>2018-06-24T08:56:08Z</time>
    </trkpt>
    <trkpt lat="48.421024" lon="2.671439">
      <ele>139.553</ele>
      <time>2018-06-24T08:56:14Z</time>
    </trkpt>
    <trkpt lat="48.420881" lon="2.671569">
      <ele>138.992</ele>
      <time>2018-06-24T08:56:17Z</time>
    </trkpt>
    <trkpt lat="48.420751" lon="2.671721">
      <ele>139.572</ele>
      <time>2018-06-24T08:56:19Z</time>
    </trkpt>
    <trkpt lat="48.420637" lon="2.671851">
      <ele>140.096</ele>
      <time>2018-06-24T08:56:21Z</time>
    </trkpt>
    <trkpt lat="48.420552" lon="2.671927">
      <ele>139.988</ele>
      <time>2018-06-24T08:56:23Z</time>
    </trkpt>
    <trkpt lat="48.420421" lon="2.67203">
      <ele>139.366</ele>
      <time>2018-06-24T08:56:25Z</time>
    </trkpt>
    <trkpt lat="48.420342" lon="2.672105">
      <ele>138.787</ele>
      <time>2018-06-24T08:56:27Z</time>
    </trkpt>
    <trkpt lat="48.420202" lon="2.672177">
      <ele>137.934</ele>
      <time>2018-06-24T08:56:30Z</time>
    </trkpt>
    <trkpt lat="48.420105" lon="2.672234">
      <ele>137.362</ele>
      <time>2018-06-24T08:56:32Z</time>
    </trkpt>
    <trkpt lat="48.42" lon="2.67233">
      <ele>137.0</ele>
      <time>2018-06-24T08:56:35Z</time>
    </trkpt>
    <trkpt lat="48.41987" lon="2.672431">
      <ele>138.288</ele>
      <time>2018-06-24T08:56:37Z</time>
    </trkpt>
    <trkpt lat="48.419599" lon="2.67268">
      <ele>142.183</ele>
      <time>2018-06-24T08:56:42Z</time>
    </trkpt>
    <trkpt lat="48.419497" lon="2.672814">
      <ele>143.907</ele>
      <time>2018-06-24T08:56:44Z</time>
    </trkpt>
    <trkpt lat="48.419227" lon="2.673009">
      <ele>144.882</ele>
      <time>2018-06-24T08:56:49Z</time>
    </trkpt>
    <trkpt lat="48.419136" lon="2.673055">
      <ele>144.665</ele>
      <time>2018-06-24T08:56:51Z</time>
    </trkpt>
    <trkpt lat="48.419042" lon="2.673103">
      <ele>143.901</ele>
      <time>2018-06-24T08:56:55Z</time>
    </trkpt>
    <trkpt lat="48.418933" lon="2.673168">
      <ele>143.222</ele>
      <time>2018-06-24T08:56:59Z</time>
    </trkpt>
    <trkpt lat="48.418843" lon="2.673226">
      <ele>143.062</ele>
      <time>2018-06-24T08:57:02Z</time>
    </trkpt>
    <trkpt lat="48.418589" lon="2.673343">
      <ele>142.955</ele>
      <time>2018-06-24T08:57:09Z</time>
    </trkpt>
    <trkpt lat="48.418496" lon="2.673415">
      <ele>142.88</ele>
      <time>2018-06-24T08:57:12Z</time>
    </trkpt>
    <trkpt lat="48.418195" lon="2.673814">
      <ele>142.734</ele>
      <time>2018-06-24T08:57:25Z</time>
    </trkpt>
    <trkpt lat="48.418137" lon="2.673979">
      <ele>143.045</ele>
      <time>2018-06-24T08:57:31Z</time>
    </trkpt>
    <trkpt lat="48.417988" lon="2.674375">
      <ele>144.365</ele>
      <time>2018-06-24T08:57:45Z</time>
    </trkpt>
    <trkpt lat="48.417977" lon="2.674216">
      <ele>144.1</ele>
      <time>2018-06-24T08:57:54Z</time>
    </trkpt>
    <trkpt lat="48.418064" lon="2.673959">
      <ele>142.55</ele>
      <time>2018-06-24T08:57:59Z</time>
    </trkpt>
    <trkpt lat="48.418157" lon="2.673597">
      <ele>141.647</ele>
      <time>2018-06-24T08:58:04Z</time>
    </trkpt>
    <trkpt lat="48.41817" lon="2.673268">
      <ele>139.904</ele>
      <time>2018-06-24T08:58:08Z</time>
    </trkpt>
    <trkpt lat="48.418096" lon="2.673081">
      <ele>138.396</ele>
      <time>2018-06-24T08:58:11Z</time>
    </trkpt>
    <trkpt lat="48.418091" lon="2.672934">
      <ele>138.144</ele>
      <time>2018-06-24T08:58:13Z</time>
    </trkpt>
    <trkpt lat="48.418072" lon="2.672772">
      <ele>138.0</ele>
      <time>2018-06-24T08:58:16Z</time>
    </trkpt>
    <trkpt lat="48.418064" lon="2.672611">
      <ele>138.0</ele>
      <time>2018-06-24T08:58:19Z</time>
    </trkpt>
    <trkpt lat="48.418048" lon="2.672415">
      <ele>138.09</ele>
      <time>2018-06-24T08:58:23Z</time>
    </trkpt>
    <trkpt lat="48.417997" lon="2.672218">
      <ele>138.834</ele>
      <time>2018-06-24T08:58:26Z</time>
    </trkpt>
    <trkpt lat="48.417974" lon="2.671917">
      <ele>138.791</ele>
      <time>2018-06-24T08:58:31Z</time>
    </trkpt>
    <trkpt lat="48.417934" lon="2.671698">
      <ele>140.014</ele>
      <time>2018-06-24T08:58:35Z</time>
    </trkpt>
    <trkpt lat="48.417881" lon="2.671496">
      <ele>141.013</ele>
      <time>2018-06-24T08:58:39Z</time>
    </trkpt>
    <trkpt lat="48.41786" lon="2.671319">
      <ele>140.721</ele>
      <time>2018-06-24T08:58:42Z</time>
    </trkpt>
    <trkpt lat="48.417855" lon="2.671167">
      <ele>139.734</ele>
      <time>2018-06-24T08:58:46Z</time>
    </trkpt>
    <trkpt lat="48.417843" lon="2.670925">
      <ele>137.581</ele>
      <time>2018-06-24T08:58:51Z</time>
    </trkpt>
    <trkpt lat="48.417814" lon="2.670745">
      <ele>136.623</ele>
      <time>2018-06-24T08:58:54Z</time>
    </trkpt>
    <trkpt lat="48.417797" lon="2.670596">
      <ele>135.935</ele>
      <time>2018-06-24T08:58:57Z</time>
    </trkpt>
    <trkpt lat="48.41782" lon="2.670442">
      <ele>134.014</ele>
      <time>2018-06-24T08:58:59Z</time>
    </trkpt>
    <trkpt lat="48.417823" lon="2.670305">
      <ele>132.48</ele>
      <time>2018-06-24T08:59:01Z</time>
    </trkpt>
    <trkpt lat="48.417804" lon="2.670097">
      <ele>130.698</ele>
      <time>2018-06-24T08:59:03Z</time>
    </trkpt>
    <trkpt lat="48.417764" lon="2.669721">
      <ele>128.19</ele>
      <time>2018-06-24T08:59:06Z</time>
    </trkpt>
    <trkpt lat="48.417715" lon="2.669584">
      <ele>127.909</ele>
      <time>2018-06-24T08:59:07Z</time>
    </trkpt>
    <trkpt lat="48.417667" lon="2.669331">
      <ele>126.616</ele>
      <time>2018-06-24T08:59:09Z</time>
    </trkpt>
    <trkpt lat="48.417612" lon="2.668806">
      <ele>124.016</ele>
      <time>2018-06-24T08:59:13Z</time>
    </trkpt>
    <trkpt lat="48.417591" lon="2.668667">
      <ele>123.808</ele>
      <time>2018-06-24T08:59:14Z</time>
    </trkpt>
    <trkpt lat="48.417565" lon="2.668521">
      <ele>123.518</ele>
      <time>2018-06-24T08:59:15Z</time>
    </trkpt>
    <trkpt lat="48.41753" lon="2.668107">
      <ele>123.0</ele>
      <time>2018-06-24T08:59:19Z</time>
    </trkpt>
    <trkpt lat="48.417462" lon="2.66791">
      <ele>124.136</ele>
      <time>2018-06-24T08:59:21Z</time>
    </trkpt>
    <trkpt lat="48.417268" lon="2.667076">
      <ele>127.066</ele>
      <time>2018-06-24T08:59:44Z</time>
    </trkpt>
    <trkpt lat="48.417207" lon="2.6668">
      <ele>127.248</ele>
      <time>2018-06-24T08:59:55Z</time>
    </trkpt>
    <trkpt lat="48.417168" lon="2.666657">
      <ele>128.004</ele>
      <time>2018-06-24T09:00:00Z</time>
    </trkpt>
    <trkpt lat="48.417098" lon="2.666448">
      <ele>129.671</ele>
      <time>2018-06-24T09:00:09Z</time>
    </trkpt>
    <trkpt lat="48.41705" lon="2.666312">
      <ele>130.757</ele>
      <time>2018-06-24T09:00:17Z</time>
    </trkpt>
    <trkpt lat="48.416976" lon="2.666162">
      <ele>132.362</ele>
      <time>2018-06-24T09:00:25Z</time>
    </trkpt>
    <trkpt lat="48.41695" lon="2.666006">
      <ele>132.928</ele>
      <time>2018-06-24T09:00:30Z</time>
    </trkpt>
    <trkpt lat="48.416899" lon="2.665894">
      <ele>133.363</ele>
      <time>2018-06-24T09:00:36Z</time>
    </trkpt>
    <trkpt lat="48.416756" lon="2.665383">
      <ele>133.736</ele>
      <time>2018-06-24T09:00:50Z</time>
    </trkpt>
    <trkpt lat="48.416688" lon="2.665257">
      <ele>133.777</ele>
      <time>2018-06-24T09:00:55Z</time>
    </trkpt>
    <trkpt lat="48.416659" lon="2.665112">
      <ele>133.376</ele>
      <time>2018-06-24T09:00:59Z</time>
    </trkpt>
    <trkpt lat="48.416661" lon="2.664922">
      <ele>132.705</ele>
      <time>2018-06-24T09:01:03Z</time>
    </trkpt>
    <trkpt lat="48.416585" lon="2.664643">
      <ele>131.715</ele>
      <time>2018-06-24T09:01:07Z</time>
    </trkpt>
    <trkpt lat="48.416498" lon="2.66452">
      <ele>131.272</ele>
      <time>2018-06-24T09:01:10Z</time>
    </trkpt>
    <trkpt lat="48.416392" lon="2.66439">
      <ele>130.608</ele>
      <time>2018-06-24T09:01:13Z</time>
    </trkpt>
    <trkpt lat="48.416251" lon="2.664149">
      <ele>129.464</ele>
      <time>2018-06-24T09:01:20Z</time>
    </trkpt>
    <trkpt lat="48.416184" lon="2.664015">
      <ele>129.594</ele>
      <time>2018-06-24T09:01:26Z</time>
    </trkpt>
    <trkpt lat="48.416118" lon="2.663898">
      <ele>129.951</ele>
      <time>2018-06-24T09:01:29Z</time>
    </trkpt>
    <trkpt lat="48.416048" lon="2.663804">
      <ele>130.227</ele>
      <time>2018-06-24T09:01:32Z</time>
    </trkpt>
    <trkpt lat="48.415672" lon="2.663121">
      <ele>131.0</ele>
      <time>2018-06-24T09:01:54Z</time>
    </trkpt>
    <trkpt lat="48.41558" lon="2.662986">
      <ele>131.022</ele>
      <time>2018-06-24T09:01:58Z</time>
    </trkpt>
    <trkpt lat="48.415488" lon="2.662856">
      <ele>131.106</ele>
      <time>2018-06-24T09:02:03Z</time>
    </trkpt>
    <trkpt lat="48.415339" lon="2.662611">
      <ele>132.38</ele>
      <time>2018-06-24T09:02:11Z</time>
    </trkpt>
    <trkpt lat="48.415085" lon="2.662136">
      <ele>134.884</ele>
      <time>2018-06-24T09:02:22Z</time>
    </trkpt>
    <trkpt lat="48.414951" lon="2.661927">
      <ele>134.647</ele>
      <time>2018-06-24T09:11:09Z</time>
    </trkpt>
    <trkpt lat="48.414832" lon="2.661678">
      <ele>133.79</ele>
      <time>2018-06-24T09:11:13Z</time>
    </trkpt>
    <trkpt lat="48.41472" lon="2.66151">
      <ele>132.987</ele>
      <time>2018-06-24T09:11:16Z</time>
    </trkpt>
    <trkpt lat="48.414618" lon="2.661354">
      <ele>132.124</ele>
      <time>2018-06-24T09:11:21Z</time>
    </trkpt>
    <trkpt lat="48.414533" lon="2.661288">
      <ele>131.274</ele>
      <time>2018-06-24T09:11:23Z</time>
    </trkpt>
    <trkpt lat="48.41444" lon="2.661141">
      <ele>130.14</ele>
      <time>2018-06-24T09:11:26Z</time>
    </trkpt>
    <trkpt lat="48.413996" lon="2.660371">
      <ele>132.206</ele>
      <time>2018-06-24T09:11:40Z</time>
    </trkpt>
    <trkpt lat="48.413925" lon="2.660249">
      <ele>132.104</ele>
      <time>2018-06-24T09:11:43Z</time>
    </trkpt>
    <trkpt lat="48.413849" lon="2.660137">
      <ele>132.578</ele>
      <time>2018-06-24T09:11:49Z</time>
    </trkpt>
    <trkpt lat="48.413779" lon="2.660004">
      <ele>132.991</ele>
      <time>2018-06-24T09:11:53Z</time>
    </trkpt>
    <trkpt lat="48.413667" lon="2.659809">
      <ele>133.0</ele>
      <time>2018-06-24T09:11:57Z</time>
    </trkpt>
    <trkpt lat="48.413543" lon="2.659669">
      <ele>133.245</ele>
      <time>2018-06-24T09:12:00Z</time>
    </trkpt>
    <trkpt lat="48.413497" lon="2.659496">
      <ele>133.411</ele>
      <time>2018-06-24T09:12:04Z</time>
    </trkpt>
    <trkpt lat="48.413429" lon="2.659305">
      <ele>133.326</ele>
      <time>2018-06-24T09:12:09Z</time>
    </trkpt>
    <trkpt lat="48.413293" lon="2.659194">
      <ele>133.113</ele>
      <time>2018-06-24T09:12:12Z</time>
    </trkpt>
    <trkpt lat="48.413218" lon="2.659068">
      <ele>132.497</ele>
      <time>2018-06-24T09:12:14Z</time>
    </trkpt>
    <trkpt lat="48.413155" lon="2.658922">
      <ele>131.554</ele>
      <time>2018-06-24T09:12:17Z</time>
    </trkpt>
    <trkpt lat="48.413092" lon="2.658805">
      <ele>130.829</ele>
      <time>2018-06-24T09:12:20Z</time>
    </trkpt>
    <trkpt lat="48.413038" lon="2.65869">
      <ele>130.329</ele>
      <time>2018-06-24T09:12:22Z</time>
    </trkpt>
    <trkpt lat="48.41294" lon="2.658595">
      <ele>130.392</ele>
      <time>2018-06-24T09:12:24Z</time>
    </trkpt>
    <trkpt lat="48.412824" lon="2.658222">
      <ele>130.0</ele>
      <time>2018-06-24T09:12:30Z</time>
    </trkpt>
    <trkpt lat="48.41271" lon="2.658112">
      <ele>130.244</ele>
      <time>2018-06-24T09:12:33Z</time>
    </trkpt>
    <trkpt lat="48.412583" lon="2.65792">
      <ele>130.359</ele>
      <time>2018-06-24T09:12:37Z</time>
    </trkpt>
    <trkpt lat="48.412488" lon="2.657766">
      <ele>130.085</ele>
      <time>2018-06-24T09:12:41Z</time>
    </trkpt>
    <trkpt lat="48.412354" lon="2.657503">
      <ele>130.531</ele>
      <time>2018-06-24T09:12:46Z</time>
    </trkpt>
    <trkpt lat="48.412283" lon="2.657398">
      <ele>130.414</ele>
      <time>2018-06-24T09:12:48Z</time>
    </trkpt>
    <trkpt lat="48.412217" lon="2.657305">
      <ele>130.33</ele>
      <time>2018-06-24T09:12:50Z</time>
    </trkpt>
    <trkpt lat="48.412121" lon="2.657168">
      <ele>130.924</ele>
      <time>2018-06-24T09:12:53Z</time>
    </trkpt>
    <trkpt lat="48.412008" lon="2.65701">
      <ele>132.306</ele>
      <time>2018-06-24T09:12:55Z</time>
    </trkpt>
    <trkpt lat="48.411974" lon="2.656878">
      <ele>132.787</ele>
      <time>2018-06-24T09:13:00Z</time>
    </trkpt>
    <trkpt lat="48.411889" lon="2.656744">
      <ele>133.2</ele>
      <time>2018-06-24T09:13:03Z</time>
    </trkpt>
    <trkpt lat="48.411806" lon="2.656638">
      <ele>133.498</ele>
      <time>2018-06-24T09:13:07Z</time>
    </trkpt>
    <trkpt lat="48.411711" lon="2.656692">
      <ele>133.84</ele>
      <time>2018-06-24T09:13:11Z</time>
    </trkpt>
    <trkpt lat="48.411637" lon="2.656948">
      <ele>133.869</ele>
      <time>2018-06-24T09:13:16Z</time>
    </trkpt>
    <trkpt lat="48.411541" lon="2.657131">
      <ele>132.508</ele>
      <time>2018-06-24T09:13:21Z</time>
    </trkpt>
    <trkpt lat="48.411484" lon="2.657259">
      <ele>131.868</ele>
      <time>2018-06-24T09:13:25Z</time>
    </trkpt>
    <trkpt lat="48.411407" lon="2.657399">
      <ele>131.364</ele>
      <time>2018-06-24T09:13:27Z</time>
    </trkpt>
    <trkpt lat="48.41135" lon="2.657509">
      <ele>131.0</ele>
      <time>2018-06-24T09:13:29Z</time>
    </trkpt>
    <trkpt lat="48.411273" lon="2.657673">
      <ele>131.0</ele>
      <time>2018-06-24T09:13:32Z</time>
    </trkpt>
    <trkpt lat="48.411191" lon="2.657838">
      <ele>131.062</ele>
      <time>2018-06-24T09:13:35Z</time>
    </trkpt>
    <trkpt lat="48.411135" lon="2.657978">
      <ele>131.062</ele>
      <time>2018-06-24T09:13:38Z</time>
    </trkpt>
    <trkpt lat="48.411028" lon="2.658197">
      <ele>131.509</ele>
      <time>2018-06-24T09:13:42Z</time>
    </trkpt>
    <trkpt lat="48.410914" lon="2.658431">
      <ele>132.352</ele>
      <time>2018-06-24T09:13:47Z</time>
    </trkpt>
    <trkpt lat="48.410843" lon="2.658562">
      <ele>132.823</ele>
      <time>2018-06-24T09:13:49Z</time>
    </trkpt>
    <trkpt lat="48.410776" lon="2.65866">
      <ele>133.006</ele>
      <time>2018-06-24T09:13:51Z</time>
    </trkpt>
    <trkpt lat="48.410677" lon="2.658797">
      <ele>133.483</ele>
      <time>2018-06-24T09:13:54Z</time>
    </trkpt>
    <trkpt lat="48.410609" lon="2.658947">
      <ele>134.0</ele>
      <time>2018-06-24T09:13:57Z</time>
    </trkpt>
    <trkpt lat="48.410561" lon="2.65909">
      <ele>134.0</ele>
      <time>2018-06-24T09:14:00Z</time>
    </trkpt>
    <trkpt lat="48.41048" lon="2.659247">
      <ele>133.807</ele>
      <time>2018-06-24T09:14:03Z</time>
    </trkpt>
    <trkpt lat="48.410197" lon="2.659673">
      <ele>135.114</ele>
      <time>2018-06-24T09:14:11Z</time>
    </trkpt>
    <trkpt lat="48.410114" lon="2.659822">
      <ele>136.161</ele>
      <time>2018-06-24T09:14:14Z</time>
    </trkpt>
    <trkpt lat="48.410089" lon="2.659958">
      <ele>137.105</ele>
      <time>2018-06-24T09:14:17Z</time>
    </trkpt>
    <trkpt lat="48.410057" lon="2.66011">
      <ele>138.067</ele>
      <time>2018-06-24T09:14:20Z</time>
    </trkpt>
    <trkpt lat="48.409997" lon="2.660242">
      <ele>138.871</ele>
      <time>2018-06-24T09:14:23Z</time>
    </trkpt>
    <trkpt lat="48.409634" lon="2.660977">
      <ele>139.353</ele>
      <time>2018-06-24T09:14:40Z</time>
    </trkpt>
    <trkpt lat="48.409411" lon="2.661336">
      <ele>139.81</ele>
      <time>2018-06-24T09:14:49Z</time>
    </trkpt>
    <trkpt lat="48.409252" lon="2.661692">
      <ele>140.0</ele>
      <time>2018-06-24T09:14:59Z</time>
    </trkpt>
    <trkpt lat="48.409198" lon="2.661809">
      <ele>140.0</ele>
      <time>2018-06-24T09:15:02Z</time>
    </trkpt>
    <trkpt lat="48.409119" lon="2.662024">
      <ele>140.172</ele>
      <time>2018-06-24T09:15:06Z</time>
    </trkpt>
    <trkpt lat="48.40904" lon="2.662138">
      <ele>140.456</ele>
      <time>2018-06-24T09:15:08Z</time>
    </trkpt>
    <trkpt lat="48.408958" lon="2.662222">
      <ele>140.751</ele>
      <time>2018-06-24T09:15:10Z</time>
    </trkpt>
    <trkpt lat="48.408815" lon="2.662613">
      <ele>140.158</ele>
      <time>2018-06-24T09:15:22Z</time>
    </trkpt>
    <trkpt lat="48.408737" lon="2.662725">
      <ele>140.104</ele>
      <time>2018-06-24T09:15:25Z</time>
    </trkpt>
    <trkpt lat="48.408658" lon="2.662928">
      <ele>140.0</ele>
      <time>2018-06-24T09:15:31Z</time>
    </trkpt>
    <trkpt lat="48.408586" lon="2.66304">
      <ele>139.915</ele>
      <time>2018-06-24T09:15:35Z</time>
    </trkpt>
    <trkpt lat="48.408519" lon="2.663282">
      <ele>139.939</ele>
      <time>2018-06-24T09:15:41Z</time>
    </trkpt>
    <trkpt lat="48.408452" lon="2.663392">
      <ele>140.0</ele>
      <time>2018-06-24T09:15:44Z</time>
    </trkpt>
    <trkpt lat="48.408397" lon="2.663499">
      <ele>140.0</ele>
      <time>2018-06-24T09:15:48Z</time>
    </trkpt>
    <trkpt lat="48.408301" lon="2.663576">
      <ele>139.884</ele>
      <time>2018-06-24T09:15:53Z</time>
    </trkpt>
    <trkpt lat="48.408125" lon="2.663466">
      <ele>139.25</ele>
      <time>2018-06-24T09:15:59Z</time>
    </trkpt>
    <trkpt lat="48.408074" lon="2.663287">
      <ele>139.055</ele>
      <time>2018-06-24T09:16:04Z</time>
    </trkpt>
    <trkpt lat="48.408045" lon="2.66299">
      <ele>138.65</ele>
      <time>2018-06-24T09:16:09Z</time>
    </trkpt>
    <trkpt lat="48.407974" lon="2.662768">
      <ele>137.109</ele>
      <time>2018-06-24T09:16:13Z</time>
    </trkpt>
    <trkpt lat="48.407963" lon="2.662552">
      <ele>136.73</ele>
      <time>2018-06-24T09:16:16Z</time>
    </trkpt>
    <trkpt lat="48.407917" lon="2.662164">
      <ele>135.11</ele>
      <time>2018-06-24T09:16:20Z</time>
    </trkpt>
    <trkpt lat="48.40787" lon="2.661979">
      <ele>134.619</ele>
      <time>2018-06-24T09:16:22Z</time>
    </trkpt>
    <trkpt lat="48.40771" lon="2.661332">
      <ele>131.741</ele>
      <time>2018-06-24T09:16:34Z</time>
    </trkpt>
    <trkpt lat="48.407687" lon="2.660903">
      <ele>132.039</ele>
      <time>2018-06-24T09:16:42Z</time>
    </trkpt>
    <trkpt lat="48.407592" lon="2.660572">
      <ele>129.987</ele>
      <time>2018-06-24T09:16:47Z</time>
    </trkpt>
    <trkpt lat="48.407571" lon="2.66038">
      <ele>130.004</ele>
      <time>2018-06-24T09:16:50Z</time>
    </trkpt>
    <trkpt lat="48.407553" lon="2.660217">
      <ele>129.954</ele>
      <time>2018-06-24T09:16:53Z</time>
    </trkpt>
    <trkpt lat="48.407544" lon="2.660039">
      <ele>129.792</ele>
      <time>2018-06-24T09:16:56Z</time>
    </trkpt>
    <trkpt lat="48.407575" lon="2.659846">
      <ele>129.541</ele>
      <time>2018-06-24T09:17:00Z</time>
    </trkpt>
    <trkpt lat="48.407602" lon="2.659654">
      <ele>129.726</ele>
      <time>2018-06-24T09:17:03Z</time>
    </trkpt>
    <trkpt lat="48.407601" lon="2.658839">
      <ele>129.524</ele>
      <time>2018-06-24T09:17:16Z</time>
    </trkpt>
    <trkpt lat="48.407634" lon="2.658706">
      <ele>129.413</ele>
      <time>2018-06-24T09:17:19Z</time>
    </trkpt>
    <trkpt lat="48.407669" lon="2.658549">
      <ele>129.427</ele>
      <time>2018-06-24T09:17:22Z</time>
    </trkpt>
    <trkpt lat="48.407731" lon="2.658386">
      <ele>130.179</ele>
      <time>2018-06-24T09:17:25Z</time>
    </trkpt>
    <trkpt lat="48.407788" lon="2.658196">
      <ele>130.195</ele>
      <time>2018-06-24T09:17:28Z</time>
    </trkpt>
    <trkpt lat="48.407819" lon="2.657911">
      <ele>129.813</ele>
      <time>2018-06-24T09:17:32Z</time>
    </trkpt>
    <trkpt lat="48.407835" lon="2.657724">
      <ele>129.876</ele>
      <time>2018-06-24T09:17:35Z</time>
    </trkpt>
    <trkpt lat="48.407843" lon="2.657582">
      <ele>129.635</ele>
      <time>2018-06-24T09:17:37Z</time>
    </trkpt>
    <trkpt lat="48.407838" lon="2.657235">
      <ele>130.795</ele>
      <time>2018-06-24T09:17:42Z</time>
    </trkpt>
    <trkpt lat="48.407922" lon="2.656997">
      <ele>133.698</ele>
      <time>2018-06-24T09:17:47Z</time>
    </trkpt>
    <trkpt lat="48.407948" lon="2.656832">
      <ele>134.856</ele>
      <time>2018-06-24T09:17:50Z</time>
    </trkpt>
    <trkpt lat="48.408006" lon="2.656659">
      <ele>136.309</ele>
      <time>2018-06-24T09:17:53Z</time>
    </trkpt>
    <trkpt lat="48.407985" lon="2.656496">
      <ele>136.442</ele>
      <time>2018-06-24T09:17:56Z</time>
    </trkpt>
    <trkpt lat="48.407947" lon="2.656258">
      <ele>135.759</ele>
      <time>2018-06-24T09:17:59Z</time>
    </trkpt>
    <trkpt lat="48.407923" lon="2.656047">
      <ele>135.201</ele>
      <time>2018-06-24T09:18:02Z</time>
    </trkpt>
    <trkpt lat="48.407906" lon="2.655877">
      <ele>135.3</ele>
      <time>2018-06-24T09:18:04Z</time>
    </trkpt>
    <trkpt lat="48.407894" lon="2.655743">
      <ele>135.255</ele>
      <time>2018-06-24T09:18:06Z</time>
    </trkpt>
    <trkpt lat="48.407829" lon="2.655609">
      <ele>134.553</ele>
      <time>2018-06-24T09:18:10Z</time>
    </trkpt>
    <trkpt lat="48.407711" lon="2.655333">
      <ele>133.84</ele>
      <time>2018-06-24T09:18:18Z</time>
    </trkpt>
    <trkpt lat="48.407631" lon="2.6551">
      <ele>132.585</ele>
      <time>2018-06-24T09:18:22Z</time>
    </trkpt>
    <trkpt lat="48.407725" lon="2.654599">
      <ele>133.346</ele>
      <time>2018-06-24T09:18:31Z</time>
    </trkpt>
    <trkpt lat="48.40776" lon="2.654415">
      <ele>133.638</ele>
      <time>2018-06-24T09:18:35Z</time>
    </trkpt>
    <trkpt lat="48.407807" lon="2.654057">
      <ele>133.421</ele>
      <time>2018-06-24T09:18:41Z</time>
    </trkpt>
    <trkpt lat="48.407798" lon="2.653918">
      <ele>133.291</ele>
      <time>2018-06-24T09:18:43Z</time>
    </trkpt>
    <trkpt lat="48.407813" lon="2.653487">
      <ele>132.06</ele>
      <time>2018-06-24T09:18:52Z</time>
    </trkpt>
    <trkpt lat="48.407826" lon="2.65324">
      <ele>131.694</ele>
      <time>2018-06-24T09:18:56Z</time>
    </trkpt>
    <trkpt lat="48.407805" lon="2.653087">
      <ele>131.392</ele>
      <time>2018-06-24T09:18:59Z</time>
    </trkpt>
    <trkpt lat="48.407808" lon="2.652912">
      <ele>131.435</ele>
      <time>2018-06-24T09:19:02Z</time>
    </trkpt>
    <trkpt lat="48.407815" lon="2.652775">
      <ele>131.526</ele>
      <time>2018-06-24T09:19:04Z</time>
    </trkpt>
    <trkpt lat="48.407851" lon="2.652634">
      <ele>131.537</ele>
      <time>2018-06-24T09:19:06Z</time>
    </trkpt>
    <trkpt lat="48.407879" lon="2.652345">
      <ele>130.545</ele>
      <time>2018-06-24T09:19:11Z</time>
    </trkpt>
    <trkpt lat="48.40788" lon="2.652162">
      <ele>129.543</ele>
      <time>2018-06-24T09:19:13Z</time>
    </trkpt>
    <trkpt lat="48.407865" lon="2.652015">
      <ele>128.59</ele>
      <time>2018-06-24T09:19:15Z</time>
    </trkpt>
    <trkpt lat="48.407817" lon="2.651758">
      <ele>125.646</ele>
      <time>2018-06-24T09:19:20Z</time>
    </trkpt>
    <trkpt lat="48.407898" lon="2.651487">
      <ele>125.15</ele>
      <time>2018-06-24T09:19:26Z</time>
    </trkpt>
    <trkpt lat="48.407853" lon="2.651337">
      <ele>123.625</ele>
      <time>2018-06-24T09:19:29Z</time>
    </trkpt>
    <trkpt lat="48.407772" lon="2.651177">
      <ele>121.917</ele>
      <time>2018-06-24T09:19:32Z</time>
    </trkpt>
    <trkpt lat="48.40767" lon="2.651032">
      <ele>120.907</ele>
      <time>2018-06-24T09:19:36Z</time>
    </trkpt>
    <trkpt lat="48.407564" lon="2.65097">
      <ele>119.547</ele>
      <time>2018-06-24T09:19:39Z</time>
    </trkpt>
    <trkpt lat="48.407485" lon="2.650882">
      <ele>118.663</ele>
      <time>2018-06-24T09:19:41Z</time>
    </trkpt>
    <trkpt lat="48.407339" lon="2.65079">
      <ele>117.483</ele>
      <time>2018-06-24T09:19:43Z</time>
    </trkpt>
    <trkpt lat="48.40725" lon="2.650737">
      <ele>116.681</ele>
      <time>2018-06-24T09:19:44Z</time>
    </trkpt>
    <trkpt lat="48.407155" lon="2.650645">
      <ele>115.788</ele>
      <time>2018-06-24T09:19:45Z</time>
    </trkpt>
    <trkpt lat="48.407185" lon="2.65047">
      <ele>116.772</ele>
      <time>2018-06-24T09:19:49Z</time>
    </trkpt>
    <trkpt lat="48.407125" lon="2.650311">
      <ele>116.48</ele>
      <time>2018-06-24T09:19:52Z</time>
    </trkpt>
    <trkpt lat="48.406898" lon="2.649735">
      <ele>117.574</ele>
      <time>2018-06-24T09:20:04Z</time>
    </trkpt>
    <trkpt lat="48.406706" lon="2.649492">
      <ele>117.823</ele>
      <time>2018-06-24T09:20:11Z</time>
    </trkpt>
    <trkpt lat="48.406684" lon="2.649315">
      <ele>118.528</ele>
      <time>2018-06-24T09:20:13Z</time>
    </trkpt>
    <trkpt lat="48.406705" lon="2.649182">
      <ele>119.083</ele>
      <time>2018-06-24T09:20:15Z</time>
    </trkpt>
    <trkpt lat="48.406638" lon="2.649033">
      <ele>119.481</ele>
      <time>2018-06-24T09:20:18Z</time>
    </trkpt>
    <trkpt lat="48.406633" lon="2.648863">
      <ele>120.011</ele>
      <time>2018-06-24T09:20:24Z</time>
    </trkpt>
    <trkpt lat="48.406566" lon="2.648643">
      <ele>120.321</ele>
      <time>2018-06-24T09:20:32Z</time>
    </trkpt>
    <trkpt lat="48.406543" lon="2.648494">
      <ele>120.867</ele>
      <time>2018-06-24T09:20:37Z</time>
    </trkpt>
    <trkpt lat="48.40645" lon="2.648136">
      <ele>121.936</ele>
      <time>2018-06-24T09:20:52Z</time>
    </trkpt>
    <trkpt lat="48.406321" lon="2.648083">
      <ele>121.487</ele>
      <time>2018-06-24T09:21:02Z</time>
    </trkpt>
    <trkpt lat="48.4061" lon="2.648038">
      <ele>119.819</ele>
      <time>2018-06-24T09:21:11Z</time>
    </trkpt>
    <trkpt lat="48.405954" lon="2.647964">
      <ele>118.16</ele>
      <time>2018-06-24T09:21:15Z</time>
    </trkpt>
    <trkpt lat="48.405858" lon="2.647909">
      <ele>117.22</ele>
      <time>2018-06-24T09:21:18Z</time>
    </trkpt>
    <trkpt lat="48.405754" lon="2.647903">
      <ele>117.157</ele>
      <time>2018-06-24T09:21:20Z</time>
    </trkpt>
    <trkpt lat="48.405648" lon="2.647898">
      <ele>117.378</ele>
      <time>2018-06-24T09:21:23Z</time>
    </trkpt>
    <trkpt lat="48.405521" lon="2.647897">
      <ele>117.766</ele>
      <time>2018-06-24T09:21:27Z</time>
    </trkpt>
    <trkpt lat="48.405432" lon="2.647842">
      <ele>118.556</ele>
      <time>2018-06-24T09:21:32Z</time>
    </trkpt>
    <trkpt lat="48.405283" lon="2.647823">
      <ele>119.64</ele>
      <time>2018-06-24T09:21:38Z</time>
    </trkpt>
    <trkpt lat="48.405178" lon="2.647823">
      <ele>119.674</ele>
      <time>2018-06-24T09:21:43Z</time>
    </trkpt>
    <trkpt lat="48.405035" lon="2.647794">
      <ele>119.883</ele>
      <time>2018-06-24T09:21:47Z</time>
    </trkpt>
    <trkpt lat="48.404943" lon="2.647683">
      <ele>121.434</ele>
      <time>2018-06-24T09:21:53Z</time>
    </trkpt>
    <trkpt lat="48.404849" lon="2.647627">
      <ele>122.716</ele>
      <time>2018-06-24T09:22:00Z</time>
    </trkpt>
    <trkpt lat="48.40468" lon="2.647489">
      <ele>125.602</ele>
      <time>2018-06-24T09:22:14Z</time>
    </trkpt>
    <trkpt lat="48.404575" lon="2.64747">
      <ele>126.908</ele>
      <time>2018-06-24T09:22:22Z</time>
    </trkpt>
    <trkpt lat="48.404555" lon="2.647334">
      <ele>128.477</ele>
      <time>2018-06-24T09:22:29Z</time>
    </trkpt>
    <trkpt lat="48.404467" lon="2.647269">
      <ele>129.555</ele>
      <time>2018-06-24T09:22:41Z</time>
    </trkpt>
    <trkpt lat="48.4044" lon="2.647179">
      <ele>130.286</ele>
      <time>2018-06-24T09:23:25Z</time>
    </trkpt>
    <trkpt lat="48.404287" lon="2.647131">
      <ele>130.471</ele>
      <time>2018-06-24T09:24:09Z</time>
    </trkpt>
    <trkpt lat="48.404254" lon="2.647258">
      <ele>129.831</ele>
      <time>2018-06-24T09:25:07Z</time>
    </trkpt>
    <trkpt lat="48.404204" lon="2.647382">
      <ele>129.347</ele>
      <time>2018-06-24T09:25:13Z</time>
    </trkpt>
    <trkpt lat="48.404123" lon="2.6475">
      <ele>129.157</ele>
      <time>2018-06-24T09:25:19Z</time>
    </trkpt>
    <trkpt lat="48.404053" lon="2.647674">
      <ele>127.9</ele>
      <time>2018-06-24T09:25:27Z</time>
    </trkpt>
    <trkpt lat="48.40399" lon="2.647775">
      <ele>127.026</ele>
      <time>2018-06-24T09:25:29Z</time>
    </trkpt>
    <trkpt lat="48.404009" lon="2.647919">
      <ele>125.475</ele>
      <time>2018-06-24T09:25:36Z</time>
    </trkpt>
    <trkpt lat="48.404048" lon="2.648054">
      <ele>124.017</ele>
      <time>2018-06-24T09:25:41Z</time>
    </trkpt>
    <trkpt lat="48.404114" lon="2.648146">
      <ele>123.613</ele>
      <time>2018-06-24T09:25:45Z</time>
    </trkpt>
    <trkpt lat="48.404185" lon="2.648234">
      <ele>123.292</ele>
      <time>2018-06-24T09:25:49Z</time>
    </trkpt>
    <trkpt lat="48.404224" lon="2.648378">
      <ele>122.472</ele>
      <time>2018-06-24T09:25:54Z</time>
    </trkpt>
    <trkpt lat="48.40426" lon="2.648531">
      <ele>121.241</ele>
      <time>2018-06-24T09:25:57Z</time>
    </trkpt>
    <trkpt lat="48.404249" lon="2.648672">
      <ele>120.046</ele>
      <time>2018-06-24T09:26:02Z</time>
    </trkpt>
    <trkpt lat="48.404249" lon="2.648809">
      <ele>118.566</ele>
      <time>2018-06-24T09:26:07Z</time>
    </trkpt>
    <trkpt lat="48.404316" lon="2.648916">
      <ele>117.267</ele>
      <time>2018-06-24T09:26:12Z</time>
    </trkpt>
    <trkpt lat="48.404404" lon="2.648991">
      <ele>116.41</ele>
      <time>2018-06-24T09:26:15Z</time>
    </trkpt>
    <trkpt lat="48.40448" lon="2.649115">
      <ele>115.092</ele>
      <time>2018-06-24T09:26:30Z</time>
    </trkpt>
    <trkpt lat="48.404579" lon="2.64921">
      <ele>113.795</ele>
      <time>2018-06-24T09:26:45Z</time>
    </trkpt>
    <trkpt lat="48.404704" lon="2.649243">
      <ele>112.838</ele>
      <time>2018-06-24T09:26:48Z</time>
    </trkpt>
    <trkpt lat="48.404757" lon="2.649378">
      <ele>111.989</ele>
      <time>2018-06-24T09:26:53Z</time>
    </trkpt>
    <trkpt lat="48.404849" lon="2.649394">
      <ele>111.269</ele>
      <time>2018-06-24T09:26:58Z</time>
    </trkpt>
    <trkpt lat="48.404956" lon="2.649481">
      <ele>110.296</ele>
      <time>2018-06-24T09:27:02Z</time>
    </trkpt>
    <trkpt lat="48.405027" lon="2.649588">
      <ele>110.0</ele>
      <time>2018-06-24T09:27:07Z</time>
    </trkpt>
    <trkpt lat="48.405142" lon="2.64962">
      <ele>110.0</ele>
      <time>2018-06-24T09:27:11Z</time>
    </trkpt>
    <trkpt lat="48.405258" lon="2.649691">
      <ele>110.0</ele>
      <time>2018-06-24T09:27:46Z</time>
    </trkpt>
    <trkpt lat="48.405277" lon="2.649851">
      <ele>110.461</ele>
      <time>2018-06-24T09:27:49Z</time>
    </trkpt>
    <trkpt lat="48.405233" lon="2.649977">
      <ele>110.621</ele>
      <time>2018-06-24T09:27:52Z</time>
    </trkpt>
    <trkpt lat="48.405149" lon="2.650066">
      <ele>110.09</ele>
      <time>2018-06-24T09:27:57Z</time>
    </trkpt>
    <trkpt lat="48.405147" lon="2.650211">
      <ele>110.103</ele>
      <time>2018-06-24T09:28:02Z</time>
    </trkpt>
    <trkpt lat="48.405059" lon="2.650355">
      <ele>108.968</ele>
      <time>2018-06-24T09:28:06Z</time>
    </trkpt>
    <trkpt lat="48.404956" lon="2.650403">
      <ele>107.857</ele>
      <time>2018-06-24T09:28:07Z</time>
    </trkpt>
    <trkpt lat="48.404834" lon="2.650512">
      <ele>106.992</ele>
      <time>2018-06-24T09:28:10Z</time>
    </trkpt>
    <trkpt lat="48.404758" lon="2.650601">
      <ele>106.115</ele>
      <time>2018-06-24T09:28:13Z</time>
    </trkpt>
    <trkpt lat="48.404694" lon="2.650711">
      <ele>105.339</ele>
      <time>2018-06-24T09:28:18Z</time>
    </trkpt>
    <trkpt lat="48.404714" lon="2.650856">
      <ele>104.886</ele>
      <time>2018-06-24T09:28:25Z</time>
    </trkpt>
    <trkpt lat="48.40469" lon="2.651014">
      <ele>104.158</ele>
      <time>2018-06-24T09:28:29Z</time>
    </trkpt>
    <trkpt lat="48.404608" lon="2.6511">
      <ele>103.234</ele>
      <time>2018-06-24T09:28:33Z</time>
    </trkpt>
    <trkpt lat="48.404501" lon="2.651129">
      <ele>102.356</ele>
      <time>2018-06-24T09:28:36Z</time>
    </trkpt>
    <trkpt lat="48.404401" lon="2.651168">
      <ele>101.795</ele>
      <time>2018-06-24T09:28:38Z</time>
    </trkpt>
    <trkpt lat="48.404384" lon="2.651353">
      <ele>101.129</ele>
      <time>2018-06-24T09:28:42Z</time>
    </trkpt>
    <trkpt lat="48.404342" lon="2.651524">
      <ele>100.821</ele>
      <time>2018-06-24T09:28:46Z</time>
    </trkpt>
    <trkpt lat="48.40432" lon="2.651668">
      <ele>100.555</ele>
      <time>2018-06-24T09:28:48Z</time>
    </trkpt>
    <trkpt lat="48.404363" lon="2.651815">
      <ele>101.084</ele>
      <time>2018-06-24T09:28:51Z</time>
    </trkpt>
    <trkpt lat="48.40436" lon="2.651975">
      <ele>101.282</ele>
      <time>2018-06-24T09:28:55Z</time>
    </trkpt>
    <trkpt lat="48.404347" lon="2.652122">
      <ele>100.659</ele>
      <time>2018-06-24T09:28:57Z</time>
    </trkpt>
    <trkpt lat="48.404321" lon="2.652262">
      <ele>100.111</ele>
      <time>2018-06-24T09:28:59Z</time>
    </trkpt>
    <trkpt lat="48.404273" lon="2.652405">
      <ele>99.766</ele>
      <time>2018-06-24T09:29:01Z</time>
    </trkpt>
    <trkpt lat="48.404204" lon="2.65258">
      <ele>99.308</ele>
      <time>2018-06-24T09:29:03Z</time>
    </trkpt>
    <trkpt lat="48.404156" lon="2.652724">
      <ele>98.892</ele>
      <time>2018-06-24T09:29:05Z</time>
    </trkpt>
    <trkpt lat="48.404225" lon="2.652839">
      <ele>99.584</ele>
      <time>2018-06-24T09:29:08Z</time>
    </trkpt>
    <trkpt lat="48.404267" lon="2.652962">
      <ele>99.844</ele>
      <time>2018-06-24T09:29:10Z</time>
    </trkpt>
    <trkpt lat="48.404294" lon="2.653146">
      <ele>99.591</ele>
      <time>2018-06-24T09:29:14Z</time>
    </trkpt>
    <trkpt lat="48.404322" lon="2.653286">
      <ele>99.289</ele>
      <time>2018-06-24T09:29:16Z</time>
    </trkpt>
    <trkpt lat="48.404314" lon="2.653476">
      <ele>98.034</ele>
      <time>2018-06-24T09:29:18Z</time>
    </trkpt>
    <trkpt lat="48.404302" lon="2.653619">
      <ele>96.974</ele>
      <time>2018-06-24T09:29:19Z</time>
    </trkpt>
    <trkpt lat="48.404255" lon="2.653744">
      <ele>96.462</ele>
      <time>2018-06-24T09:29:20Z</time>
    </trkpt>
    <trkpt lat="48.404166" lon="2.653887">
      <ele>95.002</ele>
      <time>2018-06-24T09:29:21Z</time>
    </trkpt>
    <trkpt lat="48.404067" lon="2.654028">
      <ele>94.604</ele>
      <time>2018-06-24T09:29:22Z</time>
    </trkpt>
    <trkpt lat="48.403995" lon="2.654151">
      <ele>94.124</ele>
      <time>2018-06-24T09:29:23Z</time>
    </trkpt>
    <trkpt lat="48.403925" lon="2.654348">
      <ele>94.043</ele>
      <time>2018-06-24T09:29:25Z</time>
    </trkpt>
    <trkpt lat="48.40392" lon="2.654495">
      <ele>94.518</ele>
      <time>2018-06-24T09:29:27Z</time>
    </trkpt>
    <trkpt lat="48.403905" lon="2.65463">
      <ele>94.842</ele>
      <time>2018-06-24T09:29:29Z</time>
    </trkpt>
    <trkpt lat="48.403898" lon="2.654804">
      <ele>95.393</ele>
      <time>2018-06-24T09:29:31Z</time>
    </trkpt>
    <trkpt lat="48.403877" lon="2.654978">
      <ele>95.921</ele>
      <time>2018-06-24T09:29:33Z</time>
    </trkpt>
    <trkpt lat="48.40387" lon="2.655121">
      <ele>96.0</ele>
      <time>2018-06-24T09:29:35Z</time>
    </trkpt>
    <trkpt lat="48.403855" lon="2.655304">
      <ele>95.988</ele>
      <time>2018-06-24T09:29:38Z</time>
    </trkpt>
    <trkpt lat="48.403836" lon="2.655484">
      <ele>95.859</ele>
      <time>2018-06-24T09:29:41Z</time>
    </trkpt>
    <trkpt lat="48.40384" lon="2.655623">
      <ele>95.781</ele>
      <time>2018-06-24T09:29:45Z</time>
    </trkpt>
    <trkpt lat="48.403838" lon="2.655795">
      <ele>95.659</ele>
      <time>2018-06-24T09:29:50Z</time>
    </trkpt>
    <trkpt lat="48.403891" lon="2.655913">
      <ele>96.028</ele>
      <time>2018-06-24T09:29:54Z</time>
    </trkpt>
    <trkpt lat="48.40393" lon="2.656042">
      <ele>96.481</ele>
      <time>2018-06-24T09:29:57Z</time>
    </trkpt>
    <trkpt lat="48.40399" lon="2.656159">
      <ele>97.202</ele>
      <time>2018-06-24T09:30:00Z</time>
    </trkpt>
    <trkpt lat="48.404047" lon="2.656293">
      <ele>97.99</ele>
      <time>2018-06-24T09:30:03Z</time>
    </trkpt>
    <trkpt lat="48.404101" lon="2.65641">
      <ele>98.469</ele>
      <time>2018-06-24T09:30:07Z</time>
    </trkpt>
    <trkpt lat="48.404165" lon="2.656559">
      <ele>98.379</ele>
      <time>2018-06-24T09:30:10Z</time>
    </trkpt>
    <trkpt lat="48.404199" lon="2.65672">
      <ele>98.286</ele>
      <time>2018-06-24T09:30:15Z</time>
    </trkpt>
    <trkpt lat="48.404275" lon="2.656835">
      <ele>98.76</ele>
      <time>2018-06-24T09:30:17Z</time>
    </trkpt>
    <trkpt lat="48.404371" lon="2.656901">
      <ele>98.959</ele>
      <time>2018-06-24T09:30:20Z</time>
    </trkpt>
    <trkpt lat="48.404409" lon="2.657056">
      <ele>99.0</ele>
      <time>2018-06-24T09:30:26Z</time>
    </trkpt>
    <trkpt lat="48.404501" lon="2.657139">
      <ele>99.407</ele>
      <time>2018-06-24T09:30:30Z</time>
    </trkpt>
    <trkpt lat="48.404562" lon="2.657259">
      <ele>100.055</ele>
      <time>2018-06-24T09:30:35Z</time>
    </trkpt>
    <trkpt lat="48.404621" lon="2.657369">
      <ele>100.992</ele>
      <time>2018-06-24T09:30:41Z</time>
    </trkpt>
    <trkpt lat="48.404719" lon="2.657434">
      <ele>101.748</ele>
      <time>2018-06-24T09:30:45Z</time>
    </trkpt>
    <trkpt lat="48.404755" lon="2.65758">
      <ele>102.456</ele>
      <time>2018-06-24T09:30:51Z</time>
    </trkpt>
    <trkpt lat="48.404746" lon="2.65772">
      <ele>102.828</ele>
      <time>2018-06-24T09:30:58Z</time>
    </trkpt>
    <trkpt lat="48.404681" lon="2.657822">
      <ele>103.159</ele>
      <time>2018-06-24T09:31:07Z</time>
    </trkpt>
    <trkpt lat="48.404614" lon="2.657916">
      <ele>103.498</ele>
      <time>2018-06-24T09:31:37Z</time>
    </trkpt>
    <trkpt lat="48.404601" lon="2.658059">
      <ele>104.0</ele>
      <time>2018-06-24T09:31:42Z</time>
    </trkpt>
    <trkpt lat="48.404533" lon="2.658182">
      <ele>104.0</ele>
      <time>2018-06-24T09:31:48Z</time>
    </trkpt>
    <trkpt lat="48.404497" lon="2.658312">
      <ele>104.0</ele>
      <time>2018-06-24T09:31:52Z</time>
    </trkpt>
    <trkpt lat="48.404458" lon="2.658446">
      <ele>103.594</ele>
      <time>2018-06-24T09:31:57Z</time>
    </trkpt>
    <trkpt lat="48.404425" lon="2.658601">
      <ele>102.894</ele>
      <time>2018-06-24T09:32:03Z</time>
    </trkpt>
    <trkpt lat="48.404444" lon="2.65874">
      <ele>102.996</ele>
      <time>2018-06-24T09:32:07Z</time>
    </trkpt>
    <trkpt lat="48.40442" lon="2.658903">
      <ele>102.787</ele>
      <time>2018-06-24T09:32:12Z</time>
    </trkpt>
    <trkpt lat="48.404395" lon="2.659038">
      <ele>103.003</ele>
      <time>2018-06-24T09:32:19Z</time>
    </trkpt>
    <trkpt lat="48.404317" lon="2.65912">
      <ele>102.456</ele>
      <time>2018-06-24T09:32:23Z</time>
    </trkpt>
    <trkpt lat="48.404336" lon="2.659269">
      <ele>103.053</ele>
      <time>2018-06-24T09:32:28Z</time>
    </trkpt>
    <trkpt lat="48.404387" lon="2.65939">
      <ele>104.017</ele>
      <time>2018-06-24T09:32:33Z</time>
    </trkpt>
    <trkpt lat="48.404461" lon="2.659487">
      <ele>104.94</ele>
      <time>2018-06-24T09:32:40Z</time>
    </trkpt>
    <trkpt lat="48.404486" lon="2.659621">
      <ele>104.85</ele>
      <time>2018-06-24T09:32:46Z</time>
    </trkpt>
    <trkpt lat="48.404501" lon="2.65976">
      <ele>104.688</ele>
      <time>2018-06-24T09:32:52Z</time>
    </trkpt>
    <trkpt lat="48.404503" lon="2.659924">
      <ele>104.216</ele>
      <time>2018-06-24T09:32:56Z</time>
    </trkpt>
    <trkpt lat="48.40449" lon="2.660107">
      <ele>103.937</ele>
      <time>2018-06-24T09:33:00Z</time>
    </trkpt>
    <trkpt lat="48.404396" lon="2.66022">
      <ele>103.826</ele>
      <time>2018-06-24T09:33:04Z</time>
    </trkpt>
    <trkpt lat="48.404306" lon="2.6603">
      <ele>103.502</ele>
      <time>2018-06-24T09:33:08Z</time>
    </trkpt>
    <trkpt lat="48.404292" lon="2.660447">
      <ele>103.451</ele>
      <time>2018-06-24T09:33:14Z</time>
    </trkpt>
    <trkpt lat="48.404236" lon="2.66057">
      <ele>103.198</ele>
      <time>2018-06-24T09:33:25Z</time>
    </trkpt>
    <trkpt lat="48.404124" lon="2.660611">
      <ele>102.34</ele>
      <time>2018-06-24T09:34:34Z</time>
    </trkpt>
    <trkpt lat="48.40401" lon="2.66059">
      <ele>101.184</ele>
      <time>2018-06-24T09:34:39Z</time>
    </trkpt>
    <trkpt lat="48.403898" lon="2.660635">
      <ele>99.812</ele>
      <time>2018-06-24T09:34:43Z</time>
    </trkpt>
    <trkpt lat="48.403862" lon="2.660765">
      <ele>99.005</ele>
      <time>2018-06-24T09:35:47Z</time>
    </trkpt>
    <trkpt lat="48.403947" lon="2.660873">
      <ele>99.598</ele>
      <time>2018-06-24T09:35:52Z</time>
    </trkpt>
    <trkpt lat="48.404014" lon="2.660978">
      <ele>100.117</ele>
      <time>2018-06-24T09:35:57Z</time>
    </trkpt>
    <trkpt lat="48.404081" lon="2.66107">
      <ele>100.486</ele>
      <time>2018-06-24T09:36:02Z</time>
    </trkpt>
    <trkpt lat="48.404165" lon="2.66117">
      <ele>100.777</ele>
      <time>2018-06-24T09:36:08Z</time>
    </trkpt>
    <trkpt lat="48.404277" lon="2.661156">
      <ele>101.364</ele>
      <time>2018-06-24T09:36:12Z</time>
    </trkpt>
    <trkpt lat="48.404381" lon="2.661148">
      <ele>101.844</ele>
      <time>2018-06-24T09:36:17Z</time>
    </trkpt>
    <trkpt lat="48.404481" lon="2.661108">
      <ele>102.14</ele>
      <time>2018-06-24T09:36:20Z</time>
    </trkpt>
    <trkpt lat="48.404594" lon="2.661063">
      <ele>102.525</ele>
      <time>2018-06-24T09:36:24Z</time>
    </trkpt>
    <trkpt lat="48.404701" lon="2.661061">
      <ele>102.771</ele>
      <time>2018-06-24T09:36:28Z</time>
    </trkpt>
    <trkpt lat="48.40481" lon="2.661037">
      <ele>103.197</ele>
      <time>2018-06-24T09:36:32Z</time>
    </trkpt>
    <trkpt lat="48.404898" lon="2.661001">
      <ele>103.368</ele>
      <time>2018-06-24T09:36:35Z</time>
    </trkpt>
    <trkpt lat="48.405005" lon="2.660989">
      <ele>103.671</ele>
      <time>2018-06-24T09:36:39Z</time>
    </trkpt>
    <trkpt lat="48.405099" lon="2.660949">
      <ele>103.101</ele>
      <time>2018-06-24T09:36:44Z</time>
    </trkpt>
    <trkpt lat="48.405195" lon="2.660991">
      <ele>103.304</ele>
      <time>2018-06-24T09:36:48Z</time>
    </trkpt>
    <trkpt lat="48.4053" lon="2.661015">
      <ele>103.363</ele>
      <time>2018-06-24T09:36:55Z</time>
    </trkpt>
    <trkpt lat="48.405361" lon="2.661131">
      <ele>104.1</ele>
      <time>2018-06-24T09:36:59Z</time>
    </trkpt>
    <trkpt lat="48.405413" lon="2.661258">
      <ele>104.543</ele>
      <time>2018-06-24T09:37:03Z</time>
    </trkpt>
    <trkpt lat="48.405466" lon="2.661387">
      <ele>104.64</ele>
      <time>2018-06-24T09:37:07Z</time>
    </trkpt>
    <trkpt lat="48.405484" lon="2.661534">
      <ele>105.307</ele>
      <time>2018-06-24T09:37:11Z</time>
    </trkpt>
    <trkpt lat="48.405518" lon="2.66168">
      <ele>105.643</ele>
      <time>2018-06-24T09:37:15Z</time>
    </trkpt>
    <trkpt lat="48.405551" lon="2.661847">
      <ele>106.375</ele>
      <time>2018-06-24T09:37:19Z</time>
    </trkpt>
    <trkpt lat="48.40558" lon="2.662005">
      <ele>107.329</ele>
      <time>2018-06-24T09:37:24Z</time>
    </trkpt>
    <trkpt lat="48.405608" lon="2.662139">
      <ele>108.08</ele>
      <time>2018-06-24T09:37:28Z</time>
    </trkpt>
    <trkpt lat="48.405646" lon="2.662302">
      <ele>109.023</ele>
      <time>2018-06-24T09:37:32Z</time>
    </trkpt>
    <trkpt lat="48.40571" lon="2.662448">
      <ele>109.423</ele>
      <time>2018-06-24T09:37:37Z</time>
    </trkpt>
    <trkpt lat="48.405778" lon="2.662572">
      <ele>109.056</ele>
      <time>2018-06-24T09:37:40Z</time>
    </trkpt>
    <trkpt lat="48.405817" lon="2.662715">
      <ele>109.009</ele>
      <time>2018-06-24T09:37:46Z</time>
    </trkpt>
    <trkpt lat="48.405871" lon="2.662842">
      <ele>108.864</ele>
      <time>2018-06-24T09:37:50Z</time>
    </trkpt>
    <trkpt lat="48.405892" lon="2.662984">
      <ele>108.789</ele>
      <time>2018-06-24T09:37:54Z</time>
    </trkpt>
    <trkpt lat="48.405863" lon="2.663114">
      <ele>108.916</ele>
      <time>2018-06-24T09:37:57Z</time>
    </trkpt>
    <trkpt lat="48.405814" lon="2.663271">
      <ele>109.209</ele>
      <time>2018-06-24T09:38:01Z</time>
    </trkpt>
    <trkpt lat="48.40584" lon="2.663417">
      <ele>108.706</ele>
      <time>2018-06-24T09:38:07Z</time>
    </trkpt>
    <trkpt lat="48.405826" lon="2.663558">
      <ele>108.27</ele>
      <time>2018-06-24T09:38:11Z</time>
    </trkpt>
    <trkpt lat="48.405826" lon="2.663704">
      <ele>108.07</ele>
      <time>2018-06-24T09:38:15Z</time>
    </trkpt>
    <trkpt lat="48.405811" lon="2.663845">
      <ele>108.174</ele>
      <time>2018-06-24T09:38:19Z</time>
    </trkpt>
    <trkpt lat="48.405772" lon="2.66399">
      <ele>108.564</ele>
      <time>2018-06-24T09:38:24Z</time>
    </trkpt>
    <trkpt lat="48.40567" lon="2.664066">
      <ele>108.689</ele>
      <time>2018-06-24T09:38:27Z</time>
    </trkpt>
    <trkpt lat="48.405587" lon="2.664184">
      <ele>108.058</ele>
      <time>2018-06-24T09:38:30Z</time>
    </trkpt>
    <trkpt lat="48.405538" lon="2.664309">
      <ele>107.705</ele>
      <time>2018-06-24T09:38:33Z</time>
    </trkpt>
    <trkpt lat="48.40547" lon="2.664445">
      <ele>107.303</ele>
      <time>2018-06-24T09:38:36Z</time>
    </trkpt>
    <trkpt lat="48.405378" lon="2.664547">
      <ele>106.429</ele>
      <time>2018-06-24T09:38:38Z</time>
    </trkpt>
    <trkpt lat="48.405304" lon="2.664686">
      <ele>104.591</ele>
      <time>2018-06-24T09:38:40Z</time>
    </trkpt>
    <trkpt lat="48.405232" lon="2.664875">
      <ele>102.443</ele>
      <time>2018-06-24T09:38:42Z</time>
    </trkpt>
    <trkpt lat="48.405222" lon="2.66503">
      <ele>100.516</ele>
      <time>2018-06-24T09:38:44Z</time>
    </trkpt>
    <trkpt lat="48.405213" lon="2.665203">
      <ele>100.018</ele>
      <time>2018-06-24T09:38:47Z</time>
    </trkpt>
    <trkpt lat="48.405203" lon="2.665389">
      <ele>99.731</ele>
      <time>2018-06-24T09:38:50Z</time>
    </trkpt>
    <trkpt lat="48.405203" lon="2.665526">
      <ele>99.731</ele>
      <time>2018-06-24T09:38:52Z</time>
    </trkpt>
    <trkpt lat="48.405235" lon="2.665679">
      <ele>99.846</ele>
      <time>2018-06-24T09:38:56Z</time>
    </trkpt>
    <trkpt lat="48.40526" lon="2.665812">
      <ele>99.936</ele>
      <time>2018-06-24T09:38:59Z</time>
    </trkpt>
    <trkpt lat="48.405213" lon="2.665975">
      <ele>99.257</ele>
      <time>2018-06-24T09:39:03Z</time>
    </trkpt>
    <trkpt lat="48.405165" lon="2.666114">
      <ele>98.584</ele>
      <time>2018-06-24T09:39:05Z</time>
    </trkpt>
    <trkpt lat="48.405117" lon="2.666286">
      <ele>97.792</ele>
      <time>2018-06-24T09:39:07Z</time>
    </trkpt>
    <trkpt lat="48.405084" lon="2.666418">
      <ele>97.271</ele>
      <time>2018-06-24T09:39:09Z</time>
    </trkpt>
    <trkpt lat="48.40514" lon="2.66657">
      <ele>97.175</ele>
      <time>2018-06-24T09:39:12Z</time>
    </trkpt>
    <trkpt lat="48.405144" lon="2.666764">
      <ele>97.0</ele>
      <time>2018-06-24T09:39:15Z</time>
    </trkpt>
    <trkpt lat="48.405135" lon="2.666919">
      <ele>97.0</ele>
      <time>2018-06-24T09:39:17Z</time>
    </trkpt>
    <trkpt lat="48.405116" lon="2.667109">
      <ele>97.0</ele>
      <time>2018-06-24T09:39:19Z</time>
    </trkpt>
    <trkpt lat="48.405093" lon="2.667307">
      <ele>96.797</ele>
      <time>2018-06-24T09:39:21Z</time>
    </trkpt>
    <trkpt lat="48.405053" lon="2.667453">
      <ele>96.328</ele>
      <time>2018-06-24T09:39:23Z</time>
    </trkpt>
    <trkpt lat="48.40503" lon="2.667598">
      <ele>95.793</ele>
      <time>2018-06-24T09:39:25Z</time>
    </trkpt>
    <trkpt lat="48.405001" lon="2.667774">
      <ele>95.021</ele>
      <time>2018-06-24T09:39:28Z</time>
    </trkpt>
    <trkpt lat="48.405012" lon="2.667944">
      <ele>94.488</ele>
      <time>2018-06-24T09:39:31Z</time>
    </trkpt>
    <trkpt lat="48.404983" lon="2.668108">
      <ele>93.988</ele>
      <time>2018-06-24T09:39:33Z</time>
    </trkpt>
    <trkpt lat="48.404987" lon="2.668294">
      <ele>93.96</ele>
      <time>2018-06-24T09:39:36Z</time>
    </trkpt>
    <trkpt lat="48.404973" lon="2.668451">
      <ele>93.479</ele>
      <time>2018-06-24T09:39:38Z</time>
    </trkpt>
    <trkpt lat="48.404988" lon="2.668604">
      <ele>92.982</ele>
      <time>2018-06-24T09:39:40Z</time>
    </trkpt>
    <trkpt lat="48.405026" lon="2.668758">
      <ele>93.138</ele>
      <time>2018-06-24T09:39:42Z</time>
    </trkpt>
    <trkpt lat="48.405054" lon="2.66895">
      <ele>93.194</ele>
      <time>2018-06-24T09:39:44Z</time>
    </trkpt>
    <trkpt lat="48.405036" lon="2.669187">
      <ele>93.056</ele>
      <time>2018-06-24T09:39:46Z</time>
    </trkpt>
    <trkpt lat="48.405049" lon="2.669384">
      <ele>92.394</ele>
      <time>2018-06-24T09:39:49Z</time>
    </trkpt>
    <trkpt lat="48.405058" lon="2.669542">
      <ele>92.135</ele>
      <time>2018-06-24T09:39:51Z</time>
    </trkpt>
    <trkpt lat="48.405085" lon="2.66971">
      <ele>92.013</ele>
      <time>2018-06-24T09:39:54Z</time>
    </trkpt>
    <trkpt lat="48.405131" lon="2.669847">
      <ele>92.0</ele>
      <time>2018-06-24T09:39:57Z</time>
    </trkpt>
    <trkpt lat="48.405189" lon="2.67002">
      <ele>91.977</ele>
      <time>2018-06-24T09:40:00Z</time>
    </trkpt>
    <trkpt lat="48.405243" lon="2.670195">
      <ele>91.912</ele>
      <time>2018-06-24T09:40:02Z</time>
    </trkpt>
    <trkpt lat="48.405275" lon="2.670343">
      <ele>91.99</ele>
      <time>2018-06-24T09:40:04Z</time>
    </trkpt>
    <trkpt lat="48.405317" lon="2.670478">
      <ele>92.181</ele>
      <time>2018-06-24T09:40:06Z</time>
    </trkpt>
    <trkpt lat="48.40533" lon="2.670669">
      <ele>91.856</ele>
      <time>2018-06-24T09:40:09Z</time>
    </trkpt>
    <trkpt lat="48.405312" lon="2.670846">
      <ele>91.246</ele>
      <time>2018-06-24T09:40:11Z</time>
    </trkpt>
    <trkpt lat="48.405341" lon="2.670997">
      <ele>91.455</ele>
      <time>2018-06-24T09:40:14Z</time>
    </trkpt>
    <trkpt lat="48.405362" lon="2.671178">
      <ele>91.606</ele>
      <time>2018-06-24T09:40:17Z</time>
    </trkpt>
    <trkpt lat="48.405369" lon="2.671349">
      <ele>91.657</ele>
      <time>2018-06-24T09:40:20Z</time>
    </trkpt>
    <trkpt lat="48.405411" lon="2.671502">
      <ele>91.764</ele>
      <time>2018-06-24T09:40:23Z</time>
    </trkpt>
    <trkpt lat="48.405445" lon="2.671682">
      <ele>91.547</ele>
      <time>2018-06-24T09:40:26Z</time>
    </trkpt>
    <trkpt lat="48.405484" lon="2.67184">
      <ele>91.118</ele>
      <time>2018-06-24T09:40:29Z</time>
    </trkpt>
    <trkpt lat="48.405561" lon="2.671976">
      <ele>90.906</ele>
      <time>2018-06-24T09:40:32Z</time>
    </trkpt>
    <trkpt lat="48.405645" lon="2.672114">
      <ele>90.712</ele>
      <time>2018-06-24T09:40:36Z</time>
    </trkpt>
    <trkpt lat="48.405712" lon="2.672225">
      <ele>90.559</ele>
      <time>2018-06-24T09:40:39Z</time>
    </trkpt>
    <trkpt lat="48.405784" lon="2.672352">
      <ele>90.739</ele>
      <time>2018-06-24T09:40:42Z</time>
    </trkpt>
    <trkpt lat="48.405834" lon="2.672496">
      <ele>91.007</ele>
      <time>2018-06-24T09:40:46Z</time>
    </trkpt>
    <trkpt lat="48.405893" lon="2.672646">
      <ele>91.644</ele>
      <time>2018-06-24T09:40:49Z</time>
    </trkpt>
    <trkpt lat="48.405958" lon="2.672773">
      <ele>92.346</ele>
      <time>2018-06-24T09:40:51Z</time>
    </trkpt>
    <trkpt lat="48.40601" lon="2.672902">
      <ele>92.908</ele>
      <time>2018-06-24T09:40:54Z</time>
    </trkpt>
    <trkpt lat="48.406072" lon="2.673043">
      <ele>93.578</ele>
      <time>2018-06-24T09:40:57Z</time>
    </trkpt>
    <trkpt lat="48.40615" lon="2.673167">
      <ele>93.534</ele>
      <time>2018-06-24T09:41:00Z</time>
    </trkpt>
    <trkpt lat="48.406214" lon="2.67329">
      <ele>93.365</ele>
      <time>2018-06-24T09:41:03Z</time>
    </trkpt>
    <trkpt lat="48.406264" lon="2.673427">
      <ele>93.466</ele>
      <time>2018-06-24T09:41:06Z</time>
    </trkpt>
    <trkpt lat="48.406323" lon="2.673584">
      <ele>93.6</ele>
      <time>2018-06-24T09:41:09Z</time>
    </trkpt>
    <trkpt lat="48.406333" lon="2.673724">
      <ele>93.273</ele>
      <time>2018-06-24T09:41:13Z</time>
    </trkpt>
    <trkpt lat="48.406386" lon="2.673843">
      <ele>93.153</ele>
      <time>2018-06-24T09:41:16Z</time>
    </trkpt>
    <trkpt lat="48.406411" lon="2.673981">
      <ele>93.053</ele>
      <time>2018-06-24T09:41:20Z</time>
    </trkpt>
    <trkpt lat="48.406467" lon="2.674116">
      <ele>93.051</ele>
      <time>2018-06-24T09:41:24Z</time>
    </trkpt>
    <trkpt lat="48.406544" lon="2.674188">
      <ele>92.966</ele>
      <time>2018-06-24T09:41:26Z</time>
    </trkpt>
    <trkpt lat="48.406635" lon="2.674295">
      <ele>92.947</ele>
      <time>2018-06-24T09:41:29Z</time>
    </trkpt>
    <trkpt lat="48.406719" lon="2.674443">
      <ele>93.377</ele>
      <time>2018-06-24T09:41:32Z</time>
    </trkpt>
    <trkpt lat="48.406715" lon="2.674601">
      <ele>93.348</ele>
      <time>2018-06-24T09:41:37Z</time>
    </trkpt>
    <trkpt lat="48.406796" lon="2.674673">
      <ele>93.931</ele>
      <time>2018-06-24T09:41:41Z</time>
    </trkpt>
    <trkpt lat="48.406896" lon="2.674668">
      <ele>94.651</ele>
      <time>2018-06-24T09:41:43Z</time>
    </trkpt>
    <trkpt lat="48.406985" lon="2.674721">
      <ele>95.584</ele>
      <time>2018-06-24T09:41:46Z</time>
    </trkpt>
    <trkpt lat="48.407094" lon="2.674769">
      <ele>97.063</ele>
      <time>2018-06-24T09:41:49Z</time>
    </trkpt>
    <trkpt lat="48.407152" lon="2.674904">
      <ele>97.5</ele>
      <time>2018-06-24T09:41:56Z</time>
    </trkpt>
    <trkpt lat="48.407215" lon="2.675016">
      <ele>97.866</ele>
      <time>2018-06-24T09:42:00Z</time>
    </trkpt>
    <trkpt lat="48.407264" lon="2.675186">
      <ele>97.631</ele>
      <time>2018-06-24T09:42:04Z</time>
    </trkpt>
    <trkpt lat="48.407298" lon="2.675313">
      <ele>97.327</ele>
      <time>2018-06-24T09:42:07Z</time>
    </trkpt>
    <trkpt lat="48.4074" lon="2.675431">
      <ele>97.53</ele>
      <time>2018-06-24T09:42:10Z</time>
    </trkpt>
    <trkpt lat="48.407446" lon="2.675573">
      <ele>97.303</ele>
      <time>2018-06-24T09:42:14Z</time>
    </trkpt>
    <trkpt lat="48.407478" lon="2.675733">
      <ele>96.535</ele>
      <time>2018-06-24T09:42:18Z</time>
    </trkpt>
    <trkpt lat="48.407555" lon="2.675822">
      <ele>96.28</ele>
      <time>2018-06-24T09:42:23Z</time>
    </trkpt>
    <trkpt lat="48.407627" lon="2.675918">
      <ele>96.152</ele>
      <time>2018-06-24T09:45:26Z</time>
    </trkpt>
    <trkpt lat="48.407545" lon="2.675978">
      <ele>95.641</ele>
      <time>2018-06-24T09:45:30Z</time>
    </trkpt>
    <trkpt lat="48.407643" lon="2.676088">
      <ele>95.598</ele>
      <time>2018-06-24T09:51:50Z</time>
    </trkpt>
    <trkpt lat="48.407734" lon="2.676146">
      <ele>95.611</ele>
      <time>2018-06-24T09:51:53Z</time>
    </trkpt>
    <trkpt lat="48.407819" lon="2.676279">
      <ele>94.881</ele>
      <time>2018-06-24T09:51:57Z</time>
    </trkpt>
    <trkpt lat="48.407902" lon="2.676412">
      <ele>94.327</ele>
      <time>2018-06-24T09:51:59Z</time>
    </trkpt>
    <trkpt lat="48.407883" lon="2.67659">
      <ele>93.381</ele>
      <time>2018-06-24T09:52:04Z</time>
    </trkpt>
    <trkpt lat="48.407957" lon="2.676681">
      <ele>93.0</ele>
      <time>2018-06-24T09:52:07Z</time>
    </trkpt>
    <trkpt lat="48.407954" lon="2.676838">
      <ele>93.0</ele>
      <time>2018-06-24T09:52:10Z</time>
    </trkpt>
    <trkpt lat="48.407996" lon="2.676979">
      <ele>93.098</ele>
      <time>2018-06-24T09:52:13Z</time>
    </trkpt>
    <trkpt lat="48.408131" lon="2.677043">
      <ele>93.802</ele>
      <time>2018-06-24T09:52:15Z</time>
    </trkpt>
    <trkpt lat="48.408221" lon="2.677081">
      <ele>94.39</ele>
      <time>2018-06-24T09:52:26Z</time>
    </trkpt>
    <trkpt lat="48.408331" lon="2.677174">
      <ele>94.99</ele>
      <time>2018-06-24T09:53:27Z</time>
    </trkpt>
    <trkpt lat="48.408396" lon="2.677284">
      <ele>95.623</ele>
      <time>2018-06-24T09:53:30Z</time>
    </trkpt>
    <trkpt lat="48.408483" lon="2.677383">
      <ele>96.345</ele>
      <time>2018-06-24T09:53:33Z</time>
    </trkpt>
    <trkpt lat="48.408564" lon="2.677475">
      <ele>96.815</ele>
      <time>2018-06-24T09:53:36Z</time>
    </trkpt>
    <trkpt lat="48.408509" lon="2.677608">
      <ele>96.387</ele>
      <time>2018-06-24T09:53:38Z</time>
    </trkpt>
    <trkpt lat="48.408519" lon="2.677783">
      <ele>95.987</ele>
      <time>2018-06-24T09:53:41Z</time>
    </trkpt>
    <trkpt lat="48.408482" lon="2.677924">
      <ele>95.718</ele>
      <time>2018-06-24T09:53:44Z</time>
    </trkpt>
    <trkpt lat="48.408462" lon="2.678078">
      <ele>95.419</ele>
      <time>2018-06-24T09:53:47Z</time>
    </trkpt>
    <trkpt lat="48.408446" lon="2.678214">
      <ele>94.793</ele>
      <time>2018-06-24T09:53:50Z</time>
    </trkpt>
    <trkpt lat="48.40843" lon="2.678349">
      <ele>94.248</ele>
      <time>2018-06-24T09:53:52Z</time>
    </trkpt>
    <trkpt lat="48.408396" lon="2.678503">
      <ele>93.938</ele>
      <time>2018-06-24T09:53:55Z</time>
    </trkpt>
    <trkpt lat="48.408373" lon="2.678659">
      <ele>93.739</ele>
      <time>2018-06-24T09:53:59Z</time>
    </trkpt>
    <trkpt lat="48.408434" lon="2.67879">
      <ele>93.509</ele>
      <time>2018-06-24T09:54:02Z</time>
    </trkpt>
    <trkpt lat="48.408444" lon="2.678941">
      <ele>93.602</ele>
      <time>2018-06-24T09:54:07Z</time>
    </trkpt>
    <trkpt lat="48.408443" lon="2.679077">
      <ele>93.605</ele>
      <time>2018-06-24T09:54:11Z</time>
    </trkpt>
    <trkpt lat="48.408491" lon="2.679219">
      <ele>93.432</ele>
      <time>2018-06-24T09:54:15Z</time>
    </trkpt>
    <trkpt lat="48.408558" lon="2.679344">
      <ele>93.191</ele>
      <time>2018-06-24T09:54:18Z</time>
    </trkpt>
    <trkpt lat="48.408551" lon="2.679489">
      <ele>93.182</ele>
      <time>2018-06-24T09:54:22Z</time>
    </trkpt>
    <trkpt lat="48.408542" lon="2.679636">
      <ele>93.077</ele>
      <time>2018-06-24T09:54:27Z</time>
    </trkpt>
    <trkpt lat="48.408518" lon="2.679773">
      <ele>92.939</ele>
      <time>2018-06-24T09:54:31Z</time>
    </trkpt>
    <trkpt lat="48.408571" lon="2.679914">
      <ele>92.9</ele>
      <time>2018-06-24T09:54:35Z</time>
    </trkpt>
    <trkpt lat="48.40858" lon="2.680084">
      <ele>92.854</ele>
      <time>2018-06-24T09:54:38Z</time>
    </trkpt>
    <trkpt lat="48.408587" lon="2.680244">
      <ele>92.837</ele>
      <time>2018-06-24T09:54:42Z</time>
    </trkpt>
    <trkpt lat="48.408625" lon="2.680373">
      <ele>92.757</ele>
      <time>2018-06-24T09:54:45Z</time>
    </trkpt>
    <trkpt lat="48.408679" lon="2.68052">
      <ele>92.617</ele>
      <time>2018-06-24T09:54:48Z</time>
    </trkpt>
    <trkpt lat="48.408768" lon="2.680659">
      <ele>92.709</ele>
      <time>2018-06-24T09:54:52Z</time>
    </trkpt>
    <trkpt lat="48.408792" lon="2.680794">
      <ele>92.184</ele>
      <time>2018-06-24T09:54:54Z</time>
    </trkpt>
    <trkpt lat="48.408876" lon="2.680972">
      <ele>91.977</ele>
      <time>2018-06-24T09:54:57Z</time>
    </trkpt>
    <trkpt lat="48.408933" lon="2.681109">
      <ele>92.159</ele>
      <time>2018-06-24T09:54:59Z</time>
    </trkpt>
    <trkpt lat="48.409041" lon="2.681262">
      <ele>92.548</ele>
      <time>2018-06-24T09:55:01Z</time>
    </trkpt>
    <trkpt lat="48.409188" lon="2.681388">
      <ele>93.077</ele>
      <time>2018-06-24T09:55:03Z</time>
    </trkpt>
    <trkpt lat="48.409261" lon="2.681468">
      <ele>93.34</ele>
      <time>2018-06-24T09:55:05Z</time>
    </trkpt>
    <trkpt lat="48.409348" lon="2.681524">
      <ele>93.653</ele>
      <time>2018-06-24T09:55:07Z</time>
    </trkpt>
    <trkpt lat="48.409414" lon="2.681668">
      <ele>93.887</ele>
      <time>2018-06-24T09:55:11Z</time>
    </trkpt>
    <trkpt lat="48.409515" lon="2.681638">
      <ele>94.026</ele>
      <time>2018-06-24T09:55:17Z</time>
    </trkpt>
    <trkpt lat="48.409571" lon="2.681512">
      <ele>94.254</ele>
      <time>2018-06-24T09:55:22Z</time>
    </trkpt>
    <trkpt lat="48.409635" lon="2.681406">
      <ele>94.644</ele>
      <time>2018-06-24T09:55:26Z</time>
    </trkpt>
    <trkpt lat="48.409721" lon="2.681315">
      <ele>94.996</ele>
      <time>2018-06-24T09:55:30Z</time>
    </trkpt>
    <trkpt lat="48.409816" lon="2.681203">
      <ele>95.226</ele>
      <time>2018-06-24T09:55:34Z</time>
    </trkpt>
    <trkpt lat="48.409898" lon="2.681049">
      <ele>95.774</ele>
      <time>2018-06-24T09:55:39Z</time>
    </trkpt>
    <trkpt lat="48.409966" lon="2.680938">
      <ele>96.425</ele>
      <time>2018-06-24T09:55:42Z</time>
    </trkpt>
    <trkpt lat="48.410039" lon="2.6808">
      <ele>97.298</ele>
      <time>2018-06-24T09:55:45Z</time>
    </trkpt>
    <trkpt lat="48.410097" lon="2.680634">
      <ele>97.949</ele>
      <time>2018-06-24T09:55:49Z</time>
    </trkpt>
    <trkpt lat="48.410154" lon="2.680527">
      <ele>98.663</ele>
      <time>2018-06-24T09:55:52Z</time>
    </trkpt>
    <trkpt lat="48.410262" lon="2.680411">
      <ele>99.83</ele>
      <time>2018-06-24T09:55:56Z</time>
    </trkpt>
    <trkpt lat="48.410337" lon="2.68033">
      <ele>100.213</ele>
      <time>2018-06-24T09:55:59Z</time>
    </trkpt>
    <trkpt lat="48.410394" lon="2.680178">
      <ele>100.209</ele>
      <time>2018-06-24T09:56:02Z</time>
    </trkpt>
    <trkpt lat="48.410457" lon="2.680043">
      <ele>100.345</ele>
      <time>2018-06-24T09:56:07Z</time>
    </trkpt>
    <trkpt lat="48.410526" lon="2.679922">
      <ele>100.226</ele>
      <time>2018-06-24T09:56:12Z</time>
    </trkpt>
    <trkpt lat="48.410589" lon="2.679786">
      <ele>99.432</ele>
      <time>2018-06-24T09:56:15Z</time>
    </trkpt>
    <trkpt lat="48.410657" lon="2.679663">
      <ele>98.865</ele>
      <time>2018-06-24T09:56:18Z</time>
    </trkpt>
    <trkpt lat="48.410724" lon="2.67956">
      <ele>98.77</ele>
      <time>2018-06-24T09:56:21Z</time>
    </trkpt>
    <trkpt lat="48.410793" lon="2.679458">
      <ele>98.862</ele>
      <time>2018-06-24T09:56:24Z</time>
    </trkpt>
    <trkpt lat="48.410871" lon="2.679337">
      <ele>99.271</ele>
      <time>2018-06-24T09:56:28Z</time>
    </trkpt>
    <trkpt lat="48.410942" lon="2.679234">
      <ele>99.782</ele>
      <time>2018-06-24T09:56:31Z</time>
    </trkpt>
    <trkpt lat="48.411002" lon="2.679096">
      <ele>100.114</ele>
      <time>2018-06-24T09:56:34Z</time>
    </trkpt>
    <trkpt lat="48.411079" lon="2.678995">
      <ele>100.697</ele>
      <time>2018-06-24T09:56:37Z</time>
    </trkpt>
    <trkpt lat="48.411137" lon="2.678884">
      <ele>101.264</ele>
      <time>2018-06-24T09:56:41Z</time>
    </trkpt>
    <trkpt lat="48.41122" lon="2.678788">
      <ele>101.955</ele>
      <time>2018-06-24T09:56:44Z</time>
    </trkpt>
    <trkpt lat="48.411292" lon="2.67863">
      <ele>102.629</ele>
      <time>2018-06-24T09:56:49Z</time>
    </trkpt>
    <trkpt lat="48.411375" lon="2.678512">
      <ele>103.818</ele>
      <time>2018-06-24T09:56:52Z</time>
    </trkpt>
    <trkpt lat="48.411451" lon="2.678374">
      <ele>104.224</ele>
      <time>2018-06-24T09:56:55Z</time>
    </trkpt>
    <trkpt lat="48.411551" lon="2.67824">
      <ele>104.248</ele>
      <time>2018-06-24T09:56:59Z</time>
    </trkpt>
    <trkpt lat="48.411621" lon="2.678131">
      <ele>104.107</ele>
      <time>2018-06-24T09:57:02Z</time>
    </trkpt>
    <trkpt lat="48.411679" lon="2.678021">
      <ele>103.762</ele>
      <time>2018-06-24T09:57:06Z</time>
    </trkpt>
    <trkpt lat="48.411749" lon="2.677935">
      <ele>103.389</ele>
      <time>2018-06-24T09:57:09Z</time>
    </trkpt>
    <trkpt lat="48.411816" lon="2.677838">
      <ele>103.276</ele>
      <time>2018-06-24T09:57:12Z</time>
    </trkpt>
    <trkpt lat="48.411895" lon="2.67777">
      <ele>103.644</ele>
      <time>2018-06-24T09:57:16Z</time>
    </trkpt>
    <trkpt lat="48.411956" lon="2.677652">
      <ele>104.102</ele>
      <time>2018-06-24T09:57:20Z</time>
    </trkpt>
    <trkpt lat="48.412007" lon="2.677512">
      <ele>104.666</ele>
      <time>2018-06-24T09:57:24Z</time>
    </trkpt>
    <trkpt lat="48.412106" lon="2.677406">
      <ele>106.083</ele>
      <time>2018-06-24T09:57:29Z</time>
    </trkpt>
    <trkpt lat="48.412175" lon="2.677269">
      <ele>107.322</ele>
      <time>2018-06-24T09:57:33Z</time>
    </trkpt>
    <trkpt lat="48.412257" lon="2.67716">
      <ele>108.252</ele>
      <time>2018-06-24T09:57:37Z</time>
    </trkpt>
    <trkpt lat="48.412329" lon="2.677054">
      <ele>108.838</ele>
      <time>2018-06-24T09:57:41Z</time>
    </trkpt>
    <trkpt lat="48.412412" lon="2.67692">
      <ele>109.743</ele>
      <time>2018-06-24T09:57:44Z</time>
    </trkpt>
    <trkpt lat="48.412475" lon="2.676809">
      <ele>110.354</ele>
      <time>2018-06-24T09:57:47Z</time>
    </trkpt>
    <trkpt lat="48.412538" lon="2.67667">
      <ele>111.123</ele>
      <time>2018-06-24T09:57:51Z</time>
    </trkpt>
    <trkpt lat="48.41262" lon="2.676593">
      <ele>111.432</ele>
      <time>2018-06-24T09:57:55Z</time>
    </trkpt>
    <trkpt lat="48.412698" lon="2.676516">
      <ele>111.713</ele>
      <time>2018-06-24T09:57:59Z</time>
    </trkpt>
    <trkpt lat="48.412772" lon="2.676425">
      <ele>111.979</ele>
      <time>2018-06-24T09:58:04Z</time>
    </trkpt>
    <trkpt lat="48.41282" lon="2.676299">
      <ele>111.676</ele>
      <time>2018-06-24T09:58:10Z</time>
    </trkpt>
    <trkpt lat="48.412893" lon="2.676158">
      <ele>111.169</ele>
      <time>2018-06-24T09:58:15Z</time>
    </trkpt>
    <trkpt lat="48.412967" lon="2.676037">
      <ele>110.466</ele>
      <time>2018-06-24T09:58:20Z</time>
    </trkpt>
    <trkpt lat="48.413045" lon="2.675934">
      <ele>109.725</ele>
      <time>2018-06-24T09:58:25Z</time>
    </trkpt>
    <trkpt lat="48.41311" lon="2.675824">
      <ele>109.392</ele>
      <time>2018-06-24T09:58:31Z</time>
    </trkpt>
    <trkpt lat="48.413154" lon="2.67569">
      <ele>109.709</ele>
      <time>2018-06-24T09:58:35Z</time>
    </trkpt>
    <trkpt lat="48.413252" lon="2.67557">
      <ele>110.414</ele>
      <time>2018-06-24T09:58:39Z</time>
    </trkpt>
    <trkpt lat="48.413295" lon="2.675447">
      <ele>110.724</ele>
      <time>2018-06-24T10:00:01Z</time>
    </trkpt>
    <trkpt lat="48.413392" lon="2.675351">
      <ele>111.478</ele>
      <time>2018-06-24T10:00:03Z</time>
    </trkpt>
    <trkpt lat="48.413461" lon="2.675257">
      <ele>111.919</ele>
      <time>2018-06-24T10:00:05Z</time>
    </trkpt>
    <trkpt lat="48.413535" lon="2.675154">
      <ele>112.452</ele>
      <time>2018-06-24T10:00:08Z</time>
    </trkpt>
    <trkpt lat="48.413644" lon="2.675077">
      <ele>113.388</ele>
      <time>2018-06-24T10:00:11Z</time>
    </trkpt>
    <trkpt lat="48.413715" lon="2.67488">
      <ele>113.528</ele>
      <time>2018-06-24T10:00:15Z</time>
    </trkpt>
    <trkpt lat="48.41377" lon="2.674746">
      <ele>113.279</ele>
      <time>2018-06-24T10:00:19Z</time>
    </trkpt>
    <trkpt lat="48.41386" lon="2.674605">
      <ele>113.37</ele>
      <time>2018-06-24T10:00:23Z</time>
    </trkpt>
    <trkpt lat="48.413954" lon="2.674449">
      <ele>113.723</ele>
      <time>2018-06-24T10:00:26Z</time>
    </trkpt>
    <trkpt lat="48.414046" lon="2.674269">
      <ele>114.065</ele>
      <time>2018-06-24T10:00:31Z</time>
    </trkpt>
    <trkpt lat="48.414102" lon="2.674157">
      <ele>114.336</ele>
      <time>2018-06-24T10:00:35Z</time>
    </trkpt>
    <trkpt lat="48.414176" lon="2.674053">
      <ele>115.496</ele>
      <time>2018-06-24T10:00:38Z</time>
    </trkpt>
    <trkpt lat="48.414264" lon="2.673926">
      <ele>116.614</ele>
      <time>2018-06-24T10:00:42Z</time>
    </trkpt>
    <trkpt lat="48.414374" lon="2.67372">
      <ele>117.947</ele>
      <time>2018-06-24T10:00:49Z</time>
    </trkpt>
    <trkpt lat="48.41448" lon="2.673704">
      <ele>119.092</ele>
      <time>2018-06-24T10:00:53Z</time>
    </trkpt>
    <trkpt lat="48.414584" lon="2.673657">
      <ele>120.678</ele>
      <time>2018-06-24T10:00:57Z</time>
    </trkpt>
    <trkpt lat="48.414698" lon="2.673607">
      <ele>122.696</ele>
      <time>2018-06-24T10:01:03Z</time>
    </trkpt>
    <trkpt lat="48.414791" lon="2.673562">
      <ele>124.725</ele>
      <time>2018-06-24T10:01:07Z</time>
    </trkpt>
    <trkpt lat="48.414949" lon="2.673574">
      <ele>127.374</ele>
      <time>2018-06-24T10:01:16Z</time>
    </trkpt>
    <trkpt lat="48.415067" lon="2.673551">
      <ele>129.828</ele>
      <time>2018-06-24T10:01:26Z</time>
    </trkpt>
    <trkpt lat="48.415158" lon="2.673576">
      <ele>131.594</ele>
      <time>2018-06-24T10:01:31Z</time>
    </trkpt>
    <trkpt lat="48.415244" lon="2.673634">
      <ele>133.106</ele>
      <time>2018-06-24T10:02:06Z</time>
    </trkpt>
    <trkpt lat="48.415458" lon="2.673679">
      <ele>136.265</ele>
      <time>2018-06-24T10:02:20Z</time>
    </trkpt>
    <trkpt lat="48.415571" lon="2.673672">
      <ele>137.849</ele>
      <time>2018-06-24T10:02:35Z</time>
    </trkpt>
    <trkpt lat="48.4157" lon="2.673703">
      <ele>138.361</ele>
      <time>2018-06-24T10:02:40Z</time>
    </trkpt>
    <trkpt lat="48.415794" lon="2.673739">
      <ele>138.793</ele>
      <time>2018-06-24T10:02:43Z</time>
    </trkpt>
    <trkpt lat="48.415911" lon="2.673751">
      <ele>139.28</ele>
      <time>2018-06-24T10:02:50Z</time>
    </trkpt>
    <trkpt lat="48.416006" lon="2.673746">
      <ele>139.622</ele>
      <time>2018-06-24T10:03:00Z</time>
    </trkpt>
    <trkpt lat="48.416094" lon="2.673703">
      <ele>139.938</ele>
      <time>2018-06-24T10:03:10Z</time>
    </trkpt>
    <trkpt lat="48.416206" lon="2.673712">
      <ele>141.366</ele>
      <time>2018-06-24T10:03:14Z</time>
    </trkpt>
    <trkpt lat="48.416317" lon="2.673699">
      <ele>142.965</ele>
      <time>2018-06-24T10:03:18Z</time>
    </trkpt>
    <trkpt lat="48.416417" lon="2.673686">
      <ele>144.202</ele>
      <time>2018-06-24T10:03:25Z</time>
    </trkpt>
    <trkpt lat="48.416552" lon="2.673642">
      <ele>145.174</ele>
      <time>2018-06-24T10:03:35Z</time>
    </trkpt>
    <trkpt lat="48.416802" lon="2.673563">
      <ele>145.255</ele>
      <time>2018-06-24T10:03:50Z</time>
    </trkpt>
    <trkpt lat="48.416904" lon="2.673522">
      <ele>144.551</ele>
      <time>2018-06-24T10:03:59Z</time>
    </trkpt>
    <trkpt lat="48.417045" lon="2.673441">
      <ele>143.051</ele>
      <time>2018-06-24T10:04:06Z</time>
    </trkpt>
    <trkpt lat="48.417137" lon="2.673381">
      <ele>141.957</ele>
      <time>2018-06-24T10:04:09Z</time>
    </trkpt>
    <trkpt lat="48.417233" lon="2.673369">
      <ele>141.208</ele>
      <time>2018-06-24T10:04:14Z</time>
    </trkpt>
    <trkpt lat="48.417363" lon="2.673393">
      <ele>140.705</ele>
      <time>2018-06-24T10:04:21Z</time>
    </trkpt>
    <trkpt lat="48.417455" lon="2.673346">
      <ele>140.177</ele>
      <time>2018-06-24T10:04:27Z</time>
    </trkpt>
    <trkpt lat="48.417638" lon="2.673268">
      <ele>139.62</ele>
      <time>2018-06-24T10:04:33Z</time>
    </trkpt>
    <trkpt lat="48.41773" lon="2.673229">
      <ele>139.483</ele>
      <time>2018-06-24T10:04:35Z</time>
    </trkpt>
    <trkpt lat="48.417907" lon="2.673214">
      <ele>139.03</ele>
      <time>2018-06-24T10:04:38Z</time>
    </trkpt>
    <trkpt lat="48.418034" lon="2.673233">
      <ele>138.695</ele>
      <time>2018-06-24T10:04:41Z</time>
    </trkpt>
    <trkpt lat="48.418142" lon="2.673378">
      <ele>140.205</ele>
      <time>2018-06-24T10:04:49Z</time>
    </trkpt>
    <trkpt lat="48.418109" lon="2.673646">
      <ele>141.51</ele>
      <time>2018-06-24T10:04:56Z</time>
    </trkpt>
    <trkpt lat="48.418113" lon="2.673833">
      <ele>142.212</ele>
      <time>2018-06-24T10:04:59Z</time>
    </trkpt>
    <trkpt lat="48.418056" lon="2.674067">
      <ele>143.284</ele>
      <time>2018-06-24T10:05:06Z</time>
    </trkpt>
    <trkpt lat="48.417971" lon="2.674165">
      <ele>143.988</ele>
      <time>2018-06-24T10:05:08Z</time>
    </trkpt>
    <trkpt lat="48.417968" lon="2.674371">
      <ele>144.464</ele>
      <time>2018-06-24T10:05:22Z</time>
    </trkpt>
    <trkpt lat="48.418" lon="2.674219">
      <ele>144.075</ele>
      <time>2018-06-24T10:05:34Z</time>
    </trkpt>
    <trkpt lat="48.41806" lon="2.674097">
      <ele>143.506</ele>
      <time>2018-06-24T10:05:37Z</time>
    </trkpt>
    <trkpt lat="48.418147" lon="2.673972">
      <ele>143.06</ele>
      <time>2018-06-24T10:05:40Z</time>
    </trkpt>
    <trkpt lat="48.41823" lon="2.673852">
      <ele>143.123</ele>
      <time>2018-06-24T10:05:43Z</time>
    </trkpt>
    <trkpt lat="48.418301" lon="2.673731">
      <ele>143.199</ele>
      <time>2018-06-24T10:05:46Z</time>
    </trkpt>
    <trkpt lat="48.418339" lon="2.673593">
      <ele>142.955</ele>
      <time>2018-06-24T10:05:49Z</time>
    </trkpt>
    <trkpt lat="48.418426" lon="2.673381">
      <ele>142.505</ele>
      <time>2018-06-24T10:05:54Z</time>
    </trkpt>
    <trkpt lat="48.418564" lon="2.673329">
      <ele>142.799</ele>
      <time>2018-06-24T10:05:59Z</time>
    </trkpt>
    <trkpt lat="48.418788" lon="2.6732">
      <ele>142.677</ele>
      <time>2018-06-24T10:06:05Z</time>
    </trkpt>
    <trkpt lat="48.418909" lon="2.673075">
      <ele>142.352</ele>
      <time>2018-06-24T10:06:10Z</time>
    </trkpt>
    <trkpt lat="48.41935" lon="2.672878">
      <ele>144.382</ele>
      <time>2018-06-24T10:06:21Z</time>
    </trkpt>
    <trkpt lat="48.419457" lon="2.672761">
      <ele>143.789</ele>
      <time>2018-06-24T10:06:25Z</time>
    </trkpt>
    <trkpt lat="48.419578" lon="2.67269">
      <ele>142.406</ele>
      <time>2018-06-24T10:06:28Z</time>
    </trkpt>
    <trkpt lat="48.419681" lon="2.672593">
      <ele>140.966</ele>
      <time>2018-06-24T10:06:31Z</time>
    </trkpt>
    <trkpt lat="48.4198" lon="2.672475">
      <ele>139.095</ele>
      <time>2018-06-24T10:06:35Z</time>
    </trkpt>
    <trkpt lat="48.419932" lon="2.672431">
      <ele>137.674</ele>
      <time>2018-06-24T10:06:38Z</time>
    </trkpt>
    <trkpt lat="48.420103" lon="2.672352">
      <ele>137.198</ele>
      <time>2018-06-24T10:06:41Z</time>
    </trkpt>
    <trkpt lat="48.420252" lon="2.672256">
      <ele>137.797</ele>
      <time>2018-06-24T10:06:44Z</time>
    </trkpt>
    <trkpt lat="48.420439" lon="2.672082">
      <ele>139.373</ele>
      <time>2018-06-24T10:06:51Z</time>
    </trkpt>
    <trkpt lat="48.420517" lon="2.671963">
      <ele>139.852</ele>
      <time>2018-06-24T10:06:54Z</time>
    </trkpt>
    <trkpt lat="48.420609" lon="2.671909">
      <ele>140.143</ele>
      <time>2018-06-24T10:06:56Z</time>
    </trkpt>
    <trkpt lat="48.420716" lon="2.671839">
      <ele>140.139</ele>
      <time>2018-06-24T10:07:00Z</time>
    </trkpt>
    <trkpt lat="48.420786" lon="2.67162">
      <ele>139.002</ele>
      <time>2018-06-24T10:07:04Z</time>
    </trkpt>
    <trkpt lat="48.420901" lon="2.671609">
      <ele>139.28</ele>
      <time>2018-06-24T10:07:06Z</time>
    </trkpt>
    <trkpt lat="48.421365" lon="2.671274">
      <ele>143.278</ele>
      <time>2018-06-24T10:07:19Z</time>
    </trkpt>
    <trkpt lat="48.421459" lon="2.671166">
      <ele>143.702</ele>
      <time>2018-06-24T10:07:22Z</time>
    </trkpt>
    <trkpt lat="48.421561" lon="2.671136">
      <ele>144.329</ele>
      <time>2018-06-24T10:07:24Z</time>
    </trkpt>
    <trkpt lat="48.421705" lon="2.671048">
      <ele>144.911</ele>
      <time>2018-06-24T10:07:27Z</time>
    </trkpt>
    <trkpt lat="48.421776" lon="2.670954">
      <ele>144.828</ele>
      <time>2018-06-24T10:07:30Z</time>
    </trkpt>
    <trkpt lat="48.421953" lon="2.670835">
      <ele>145.037</ele>
      <time>2018-06-24T10:07:33Z</time>
    </trkpt>
    <trkpt lat="48.422051" lon="2.670729">
      <ele>145.24</ele>
      <time>2018-06-24T10:07:36Z</time>
    </trkpt>
    <trkpt lat="48.422153" lon="2.670608">
      <ele>145.142</ele>
      <time>2018-06-24T10:07:39Z</time>
    </trkpt>
    <trkpt lat="48.422245" lon="2.670492">
      <ele>145.063</ele>
      <time>2018-06-24T10:07:42Z</time>
    </trkpt>
    <trkpt lat="48.42234" lon="2.67041">
      <ele>145.202</ele>
      <time>2018-06-24T10:07:44Z</time>
    </trkpt>
    <trkpt lat="48.422453" lon="2.670331">
      <ele>145.159</ele>
      <time>2018-06-24T10:07:47Z</time>
    </trkpt>
    <trkpt lat="48.422715" lon="2.67002">
      <ele>142.58</ele>
      <time>2018-06-24T10:07:55Z</time>
    </trkpt>
    <trkpt lat="48.422955" lon="2.669916">
      <ele>142.0</ele>
      <time>2018-06-24T10:08:00Z</time>
    </trkpt>
    <trkpt lat="48.423096" lon="2.669821">
      <ele>142.385</ele>
      <time>2018-06-24T10:08:04Z</time>
    </trkpt>
    <trkpt lat="48.423336" lon="2.66957">
      <ele>145.033</ele>
      <time>2018-06-24T10:08:13Z</time>
    </trkpt>
    <trkpt lat="48.423446" lon="2.669476">
      <ele>146.263</ele>
      <time>2018-06-24T10:08:16Z</time>
    </trkpt>
    <trkpt lat="48.423567" lon="2.669335">
      <ele>147.192</ele>
      <time>2018-06-24T10:08:22Z</time>
    </trkpt>
    <trkpt lat="48.423706" lon="2.669304">
      <ele>147.494</ele>
      <time>2018-06-24T10:08:25Z</time>
    </trkpt>
    <trkpt lat="48.423835" lon="2.669233">
      <ele>147.239</ele>
      <time>2018-06-24T10:08:28Z</time>
    </trkpt>
    <trkpt lat="48.423968" lon="2.669169">
      <ele>147.008</ele>
      <time>2018-06-24T10:08:31Z</time>
    </trkpt>
    <trkpt lat="48.424237" lon="2.669005">
      <ele>146.671</ele>
      <time>2018-06-24T10:08:38Z</time>
    </trkpt>
    <trkpt lat="48.424379" lon="2.668907">
      <ele>146.83</ele>
      <time>2018-06-24T10:08:41Z</time>
    </trkpt>
    <trkpt lat="48.424476" lon="2.668882">
      <ele>147.202</ele>
      <time>2018-06-24T10:08:43Z</time>
    </trkpt>
    <trkpt lat="48.424548" lon="2.66876">
      <ele>147.282</ele>
      <time>2018-06-24T10:08:46Z</time>
    </trkpt>
    <trkpt lat="48.42464" lon="2.668702">
      <ele>147.735</ele>
      <time>2018-06-24T10:08:48Z</time>
    </trkpt>
    <trkpt lat="48.424726" lon="2.668656">
      <ele>148.175</ele>
      <time>2018-06-24T10:08:50Z</time>
    </trkpt>
    <trkpt lat="48.424824" lon="2.668566">
      <ele>148.144</ele>
      <time>2018-06-24T10:08:53Z</time>
    </trkpt>
    <trkpt lat="48.424995" lon="2.668392">
      <ele>147.419</ele>
      <time>2018-06-24T10:09:00Z</time>
    </trkpt>
    <trkpt lat="48.425106" lon="2.668328">
      <ele>147.343</ele>
      <time>2018-06-24T10:09:04Z</time>
    </trkpt>
    <trkpt lat="48.42521" lon="2.668278">
      <ele>147.358</ele>
      <time>2018-06-24T10:09:07Z</time>
    </trkpt>
    <trkpt lat="48.425369" lon="2.668185">
      <ele>147.26</ele>
      <time>2018-06-24T10:09:11Z</time>
    </trkpt>
    <trkpt lat="48.425524" lon="2.668152">
      <ele>147.581</ele>
      <time>2018-06-24T10:09:15Z</time>
    </trkpt>
    <trkpt lat="48.425633" lon="2.668057">
      <ele>146.732</ele>
      <time>2018-06-24T10:09:18Z</time>
    </trkpt>
    <trkpt lat="48.42575" lon="2.667993">
      <ele>145.85</ele>
      <time>2018-06-24T10:09:21Z</time>
    </trkpt>
    <trkpt lat="48.42586" lon="2.667927">
      <ele>145.17</ele>
      <time>2018-06-24T10:09:25Z</time>
    </trkpt>
    <trkpt lat="48.425981" lon="2.667849">
      <ele>145.044</ele>
      <time>2018-06-24T10:09:28Z</time>
    </trkpt>
    <trkpt lat="48.426071" lon="2.66771">
      <ele>143.915</ele>
      <time>2018-06-24T10:09:32Z</time>
    </trkpt>
    <trkpt lat="48.426265" lon="2.667564">
      <ele>143.456</ele>
      <time>2018-06-24T10:09:37Z</time>
    </trkpt>
    <trkpt lat="48.426359" lon="2.667574">
      <ele>144.505</ele>
      <time>2018-06-24T10:09:39Z</time>
    </trkpt>
    <trkpt lat="48.426466" lon="2.667533">
      <ele>144.846</ele>
      <time>2018-06-24T10:09:41Z</time>
    </trkpt>
    <trkpt lat="48.426614" lon="2.667476">
      <ele>145.518</ele>
      <time>2018-06-24T10:09:45Z</time>
    </trkpt>
    <trkpt lat="48.426805" lon="2.667359">
      <ele>146.243</ele>
      <time>2018-06-24T10:09:50Z</time>
    </trkpt>
    <trkpt lat="48.426911" lon="2.667288">
      <ele>146.788</ele>
      <time>2018-06-24T10:09:52Z</time>
    </trkpt>
    <trkpt lat="48.427015" lon="2.667214">
      <ele>146.462</ele>
      <time>2018-06-24T10:09:54Z</time>
    </trkpt>
    <trkpt lat="48.42716" lon="2.667091">
      <ele>144.976</ele>
      <time>2018-06-24T10:09:57Z</time>
    </trkpt>
    <trkpt lat="48.427309" lon="2.667027">
      <ele>143.672</ele>
      <time>2018-06-24T10:10:02Z</time>
    </trkpt>
    <trkpt lat="48.427404" lon="2.666938">
      <ele>142.683</ele>
      <time>2018-06-24T10:10:04Z</time>
    </trkpt>
    <trkpt lat="48.427492" lon="2.666875">
      <ele>142.05</ele>
      <time>2018-06-24T10:10:06Z</time>
    </trkpt>
    <trkpt lat="48.42759" lon="2.6668">
      <ele>141.676</ele>
      <time>2018-06-24T10:10:08Z</time>
    </trkpt>
    <trkpt lat="48.427674" lon="2.666744">
      <ele>141.374</ele>
      <time>2018-06-24T10:10:10Z</time>
    </trkpt>
    <trkpt lat="48.4278" lon="2.666698">
      <ele>141.0</ele>
      <time>2018-06-24T10:10:12Z</time>
    </trkpt>
    <trkpt lat="48.427924" lon="2.666665">
      <ele>141.006</ele>
      <time>2018-06-24T10:10:14Z</time>
    </trkpt>
    <trkpt lat="48.428042" lon="2.666568">
      <ele>141.355</ele>
      <time>2018-06-24T10:10:17Z</time>
    </trkpt>
    <trkpt lat="48.428141" lon="2.66652">
      <ele>141.836</ele>
      <time>2018-06-24T10:10:20Z</time>
    </trkpt>
    <trkpt lat="48.428251" lon="2.666524">
      <ele>142.217</ele>
      <time>2018-06-24T10:10:26Z</time>
    </trkpt>
    <trkpt lat="48.428456" lon="2.666494">
      <ele>143.23</ele>
      <time>2018-06-24T10:10:32Z</time>
    </trkpt>
    <trkpt lat="48.428547" lon="2.6665">
      <ele>143.677</ele>
      <time>2018-06-24T10:10:34Z</time>
    </trkpt>
    <trkpt lat="48.428556" lon="2.666641">
      <ele>143.622</ele>
      <time>2018-06-24T10:10:39Z</time>
    </trkpt>
    <trkpt lat="48.428743" lon="2.666814">
      <ele>143.721</ele>
      <time>2018-06-24T10:10:44Z</time>
    </trkpt>
    <trkpt lat="48.428851" lon="2.667015">
      <ele>143.575</ele>
      <time>2018-06-24T10:10:48Z</time>
    </trkpt>
    <trkpt lat="48.428979" lon="2.667168">
      <ele>143.132</ele>
      <time>2018-06-24T10:10:55Z</time>
    </trkpt>
    <trkpt lat="48.429075" lon="2.66724">
      <ele>142.872</ele>
      <time>2018-06-24T10:10:58Z</time>
    </trkpt>
    <trkpt lat="48.429177" lon="2.667335">
      <ele>142.203</ele>
      <time>2018-06-24T10:11:03Z</time>
    </trkpt>
    <trkpt lat="48.429312" lon="2.667476">
      <ele>141.651</ele>
      <time>2018-06-24T10:11:08Z</time>
    </trkpt>
    <trkpt lat="48.429474" lon="2.667528">
      <ele>141.888</ele>
      <time>2018-06-24T10:11:13Z</time>
    </trkpt>
    <trkpt lat="48.42954" lon="2.667771">
      <ele>140.689</ele>
      <time>2018-06-24T10:11:23Z</time>
    </trkpt>
    <trkpt lat="48.429632" lon="2.667838">
      <ele>139.891</ele>
      <time>2018-06-24T10:11:49Z</time>
    </trkpt>
    <trkpt lat="48.429743" lon="2.668015">
      <ele>138.068</ele>
      <time>2018-06-24T10:11:58Z</time>
    </trkpt>
    <trkpt lat="48.429861" lon="2.668127">
      <ele>135.73</ele>
      <time>2018-06-24T10:12:12Z</time>
    </trkpt>
    <trkpt lat="48.429942" lon="2.668203">
      <ele>134.034</ele>
      <time>2018-06-24T10:12:20Z</time>
    </trkpt>
    <trkpt lat="48.429949" lon="2.667981">
      <ele>136.088</ele>
      <time>2018-06-24T10:13:00Z</time>
    </trkpt>
    <trkpt lat="48.429944" lon="2.667823">
      <ele>137.279</ele>
      <time>2018-06-24T10:13:05Z</time>
    </trkpt>
    <trkpt lat="48.429945" lon="2.667563">
      <ele>139.761</ele>
      <time>2018-06-24T10:13:11Z</time>
    </trkpt>
    <trkpt lat="48.429973" lon="2.667391">
      <ele>140.979</ele>
      <time>2018-06-24T10:13:18Z</time>
    </trkpt>
    <trkpt lat="48.429885" lon="2.667263">
      <ele>142.534</ele>
      <time>2018-06-24T10:13:22Z</time>
    </trkpt>
    <trkpt lat="48.429908" lon="2.667123">
      <ele>142.901</ele>
      <time>2018-06-24T10:13:25Z</time>
    </trkpt>
    <trkpt lat="48.429971" lon="2.667019">
      <ele>142.864</ele>
      <time>2018-06-24T10:13:27Z</time>
    </trkpt>
    <trkpt lat="48.430055" lon="2.666925">
      <ele>142.688</ele>
      <time>2018-06-24T10:13:30Z</time>
    </trkpt>
    <trkpt lat="48.430139" lon="2.666805">
      <ele>142.752</ele>
      <time>2018-06-24T10:13:33Z</time>
    </trkpt>
    <trkpt lat="48.430206" lon="2.666692">
      <ele>143.1</ele>
      <time>2018-06-24T10:13:36Z</time>
    </trkpt>
    <trkpt lat="48.430252" lon="2.666521">
      <ele>144.093</ele>
      <time>2018-06-24T10:13:41Z</time>
    </trkpt>
    <trkpt lat="48.430472" lon="2.665943">
      <ele>147.028</ele>
      <time>2018-06-24T10:13:59Z</time>
    </trkpt>
    <trkpt lat="48.430563" lon="2.665849">
      <ele>147.86</ele>
      <time>2018-06-24T10:14:03Z</time>
    </trkpt>
    <trkpt lat="48.431139" lon="2.665617">
      <ele>147.258</ele>
      <time>2018-06-24T10:14:25Z</time>
    </trkpt>
    <trkpt lat="48.431279" lon="2.665599">
      <ele>147.021</ele>
      <time>2018-06-24T10:14:28Z</time>
    </trkpt>
    <trkpt lat="48.4314" lon="2.66565">
      <ele>146.32</ele>
      <time>2018-06-24T10:14:31Z</time>
    </trkpt>
    <trkpt lat="48.43152" lon="2.665681">
      <ele>146.097</ele>
      <time>2018-06-24T10:14:33Z</time>
    </trkpt>
    <trkpt lat="48.431681" lon="2.665645">
      <ele>146.424</ele>
      <time>2018-06-24T10:14:36Z</time>
    </trkpt>
    <trkpt lat="48.431785" lon="2.665644">
      <ele>146.925</ele>
      <time>2018-06-24T10:14:38Z</time>
    </trkpt>
    <trkpt lat="48.432254" lon="2.665752">
      <ele>149.374</ele>
      <time>2018-06-24T10:14:52Z</time>
    </trkpt>
    <trkpt lat="48.432343" lon="2.665792">
      <ele>149.519</ele>
      <time>2018-06-24T10:14:54Z</time>
    </trkpt>
    <trkpt lat="48.432433" lon="2.665809">
      <ele>149.78</ele>
      <time>2018-06-24T10:14:56Z</time>
    </trkpt>
    <trkpt lat="48.432536" lon="2.665843">
      <ele>149.836</ele>
      <time>2018-06-24T10:14:59Z</time>
    </trkpt>
    <trkpt lat="48.432627" lon="2.665863">
      <ele>149.436</ele>
      <time>2018-06-24T10:15:02Z</time>
    </trkpt>
    <trkpt lat="48.432752" lon="2.665907">
      <ele>148.828</ele>
      <time>2018-06-24T10:15:06Z</time>
    </trkpt>
    <trkpt lat="48.432872" lon="2.665964">
      <ele>148.19</ele>
      <time>2018-06-24T10:15:08Z</time>
    </trkpt>
    <trkpt lat="48.433017" lon="2.666049">
      <ele>147.362</ele>
      <time>2018-06-24T10:15:10Z</time>
    </trkpt>
    <trkpt lat="48.433179" lon="2.66599">
      <ele>147.88</ele>
      <time>2018-06-24T10:15:12Z</time>
    </trkpt>
    <trkpt lat="48.433299" lon="2.665998">
      <ele>148.284</ele>
      <time>2018-06-24T10:15:14Z</time>
    </trkpt>
    <trkpt lat="48.433458" lon="2.665984">
      <ele>148.906</ele>
      <time>2018-06-24T10:15:18Z</time>
    </trkpt>
    <trkpt lat="48.433483" lon="2.665821">
      <ele>149.583</ele>
      <time>2018-06-24T10:15:22Z</time>
    </trkpt>
    <trkpt lat="48.433619" lon="2.665767">
      <ele>150.232</ele>
      <time>2018-06-24T10:15:28Z</time>
    </trkpt>
    <trkpt lat="48.43364" lon="2.665996">
      <ele>149.475</ele>
      <time>2018-06-24T10:15:35Z</time>
    </trkpt>
    <trkpt lat="48.433742" lon="2.666067">
      <ele>149.555</ele>
      <time>2018-06-24T10:15:40Z</time>
    </trkpt>
    <trkpt lat="48.433835" lon="2.666089">
      <ele>149.821</ele>
      <time>2018-06-24T10:15:43Z</time>
    </trkpt>
    <trkpt lat="48.434076" lon="2.666123">
      <ele>149.284</ele>
      <time>2018-06-24T10:15:49Z</time>
    </trkpt>
    <trkpt lat="48.434193" lon="2.666138">
      <ele>148.723</ele>
      <time>2018-06-24T10:15:53Z</time>
    </trkpt>
    <trkpt lat="48.434336" lon="2.666189">
      <ele>147.671</ele>
      <time>2018-06-24T10:16:00Z</time>
    </trkpt>
    <trkpt lat="48.434455" lon="2.666209">
      <ele>146.987</ele>
      <time>2018-06-24T10:16:04Z</time>
    </trkpt>
    <trkpt lat="48.434559" lon="2.666248">
      <ele>146.797</ele>
      <time>2018-06-24T10:16:09Z</time>
    </trkpt>
    <trkpt lat="48.434657" lon="2.66629">
      <ele>146.507</ele>
      <time>2018-06-24T10:16:13Z</time>
    </trkpt>
    <trkpt lat="48.434786" lon="2.666324">
      <ele>146.41</ele>
      <time>2018-06-24T10:16:17Z</time>
    </trkpt>
    <trkpt lat="48.434896" lon="2.666369">
      <ele>146.652</ele>
      <time>2018-06-24T10:16:21Z</time>
    </trkpt>
    <trkpt lat="48.435068" lon="2.666384">
      <ele>146.755</ele>
      <time>2018-06-24T10:16:25Z</time>
    </trkpt>
    <trkpt lat="48.435333" lon="2.666461">
      <ele>145.343</ele>
      <time>2018-06-24T10:16:32Z</time>
    </trkpt>
    <trkpt lat="48.435427" lon="2.666559">
      <ele>144.313</ele>
      <time>2018-06-24T10:16:35Z</time>
    </trkpt>
    <trkpt lat="48.435721" lon="2.66682">
      <ele>140.972</ele>
      <time>2018-06-24T10:16:43Z</time>
    </trkpt>
    <trkpt lat="48.435865" lon="2.666938">
      <ele>139.181</ele>
      <time>2018-06-24T10:16:48Z</time>
    </trkpt>
    <trkpt lat="48.435945" lon="2.667033">
      <ele>137.936</ele>
      <time>2018-06-24T10:16:51Z</time>
    </trkpt>
    <trkpt lat="48.436123" lon="2.667166">
      <ele>136.852</ele>
      <time>2018-06-24T10:16:59Z</time>
    </trkpt>
    <trkpt lat="48.436249" lon="2.667156">
      <ele>137.45</ele>
      <time>2018-06-24T10:17:04Z</time>
    </trkpt>
    <trkpt lat="48.436374" lon="2.667143">
      <ele>138.087</ele>
      <time>2018-06-24T10:17:09Z</time>
    </trkpt>
    <trkpt lat="48.4365" lon="2.667144">
      <ele>138.014</ele>
      <time>2018-06-24T10:17:12Z</time>
    </trkpt>
    <trkpt lat="48.436638" lon="2.667085">
      <ele>138.533</ele>
      <time>2018-06-24T10:17:17Z</time>
    </trkpt>
    <trkpt lat="48.436837" lon="2.667053">
      <ele>140.667</ele>
      <time>2018-06-24T10:17:25Z</time>
    </trkpt>
    <trkpt lat="48.437078" lon="2.667083">
      <ele>142.705</ele>
      <time>2018-06-24T10:17:32Z</time>
    </trkpt>
    <trkpt lat="48.437193" lon="2.667072">
      <ele>143.823</ele>
      <time>2018-06-24T10:17:35Z</time>
    </trkpt>
    <trkpt lat="48.437286" lon="2.667144">
      <ele>143.958</ele>
      <time>2018-06-24T10:17:38Z</time>
    </trkpt>
    <trkpt lat="48.437384" lon="2.667226">
      <ele>144.138</ele>
      <time>2018-06-24T10:17:41Z</time>
    </trkpt>
    <trkpt lat="48.437475" lon="2.667274">
      <ele>144.447</ele>
      <time>2018-06-24T10:17:46Z</time>
    </trkpt>
    <trkpt lat="48.437782" lon="2.667424">
      <ele>144.551</ele>
      <time>2018-06-24T10:17:53Z</time>
    </trkpt>
    <trkpt lat="48.437923" lon="2.667503">
      <ele>143.973</ele>
      <time>2018-06-24T10:17:56Z</time>
    </trkpt>
    <trkpt lat="48.438028" lon="2.66751">
      <ele>143.924</ele>
      <time>2018-06-24T10:18:00Z</time>
    </trkpt>
    <trkpt lat="48.438194" lon="2.667621">
      <ele>143.129</ele>
      <time>2018-06-24T10:18:06Z</time>
    </trkpt>
    <trkpt lat="48.438311" lon="2.667709">
      <ele>142.495</ele>
      <time>2018-06-24T10:18:08Z</time>
    </trkpt>
    <trkpt lat="48.438406" lon="2.667776">
      <ele>142.274</ele>
      <time>2018-06-24T10:18:10Z</time>
    </trkpt>
    <trkpt lat="48.438586" lon="2.667859">
      <ele>142.617</ele>
      <time>2018-06-24T10:18:13Z</time>
    </trkpt>
    <trkpt lat="48.43882" lon="2.667896">
      <ele>143.758</ele>
      <time>2018-06-24T10:18:18Z</time>
    </trkpt>
    <trkpt lat="48.438924" lon="2.667947">
      <ele>143.809</ele>
      <time>2018-06-24T10:18:22Z</time>
    </trkpt>
    <trkpt lat="48.439049" lon="2.667949">
      <ele>143.901</ele>
      <time>2018-06-24T10:18:25Z</time>
    </trkpt>
    <trkpt lat="48.439266" lon="2.667987">
      <ele>144.358</ele>
      <time>2018-06-24T10:18:30Z</time>
    </trkpt>
    <trkpt lat="48.439416" lon="2.667927">
      <ele>144.898</ele>
      <time>2018-06-24T10:18:34Z</time>
    </trkpt>
    <trkpt lat="48.43951" lon="2.667902">
      <ele>145.366</ele>
      <time>2018-06-24T10:18:38Z</time>
    </trkpt>
    <trkpt lat="48.439613" lon="2.667888">
      <ele>145.973</ele>
      <time>2018-06-24T10:18:45Z</time>
    </trkpt>
    <trkpt lat="48.439877" lon="2.667993">
      <ele>145.668</ele>
      <time>2018-06-24T10:18:53Z</time>
    </trkpt>
    <trkpt lat="48.440014" lon="2.668066">
      <ele>144.962</ele>
      <time>2018-06-24T10:18:59Z</time>
    </trkpt>
    <trkpt lat="48.440402" lon="2.668264">
      <ele>144.585</ele>
      <time>2018-06-24T10:19:13Z</time>
    </trkpt>
    <trkpt lat="48.440503" lon="2.668306">
      <ele>144.829</ele>
      <time>2018-06-24T10:19:16Z</time>
    </trkpt>
    <trkpt lat="48.440596" lon="2.668344">
      <ele>144.967</ele>
      <time>2018-06-24T10:19:18Z</time>
    </trkpt>
    <trkpt lat="48.440696" lon="2.668389">
      <ele>144.901</ele>
      <time>2018-06-24T10:19:21Z</time>
    </trkpt>
    <trkpt lat="48.440829" lon="2.668408">
      <ele>144.996</ele>
      <time>2018-06-24T10:19:26Z</time>
    </trkpt>
    <trkpt lat="48.440927" lon="2.668475">
      <ele>144.491</ele>
      <time>2018-06-24T10:19:28Z</time>
    </trkpt>
    <trkpt lat="48.441088" lon="2.668629">
      <ele>143.161</ele>
      <time>2018-06-24T10:19:32Z</time>
    </trkpt>
    <trkpt lat="48.44118" lon="2.668676">
      <ele>142.752</ele>
      <time>2018-06-24T10:19:34Z</time>
    </trkpt>
    <trkpt lat="48.441278" lon="2.668716">
      <ele>142.399</ele>
      <time>2018-06-24T10:19:36Z</time>
    </trkpt>
    <trkpt lat="48.44144" lon="2.668861">
      <ele>141.65</ele>
      <time>2018-06-24T10:19:40Z</time>
    </trkpt>
    <trkpt lat="48.441715" lon="2.668966">
      <ele>140.0</ele>
      <time>2018-06-24T10:19:45Z</time>
    </trkpt>
    <trkpt lat="48.441845" lon="2.669009">
      <ele>140.0</ele>
      <time>2018-06-24T10:19:47Z</time>
    </trkpt>
    <trkpt lat="48.441964" lon="2.669136">
      <ele>140.063</ele>
      <time>2018-06-24T10:19:54Z</time>
    </trkpt>
    <trkpt lat="48.442108" lon="2.669271">
      <ele>140.81</ele>
      <time>2018-06-24T10:20:04Z</time>
    </trkpt>
    <trkpt lat="48.442225" lon="2.669303">
      <ele>141.501</ele>
      <time>2018-06-24T10:20:14Z</time>
    </trkpt>
    <trkpt lat="48.442314" lon="2.669393">
      <ele>142.145</ele>
      <time>2018-06-24T10:20:19Z</time>
    </trkpt>
    <trkpt lat="48.44245" lon="2.669401">
      <ele>142.664</ele>
      <time>2018-06-24T10:20:22Z</time>
    </trkpt>
    <trkpt lat="48.442553" lon="2.669379">
      <ele>142.764</ele>
      <time>2018-06-24T10:20:29Z</time>
    </trkpt>
    <trkpt lat="48.442647" lon="2.669378">
      <ele>142.761</ele>
      <time>2018-06-24T10:20:35Z</time>
    </trkpt>
    <trkpt lat="48.442759" lon="2.669396">
      <ele>142.826</ele>
      <time>2018-06-24T10:20:37Z</time>
    </trkpt>
    <trkpt lat="48.442911" lon="2.669411">
      <ele>143.359</ele>
      <time>2018-06-24T10:20:44Z</time>
    </trkpt>
    <trkpt lat="48.443152" lon="2.669523">
      <ele>144.0</ele>
      <time>2018-06-24T10:20:53Z</time>
    </trkpt>
    <trkpt lat="48.443357" lon="2.6695">
      <ele>144.0</ele>
      <time>2018-06-24T10:21:00Z</time>
    </trkpt>
    <trkpt lat="48.443462" lon="2.669537">
      <ele>144.0</ele>
      <time>2018-06-24T10:21:05Z</time>
    </trkpt>
    <trkpt lat="48.443544" lon="2.669627">
      <ele>144.0</ele>
      <time>2018-06-24T10:21:09Z</time>
    </trkpt>
    <trkpt lat="48.443649" lon="2.669688">
      <ele>144.017</ele>
      <time>2018-06-24T10:21:13Z</time>
    </trkpt>
    <trkpt lat="48.443714" lon="2.669566">
      <ele>144.208</ele>
      <time>2018-06-24T10:21:20Z</time>
    </trkpt>
    <trkpt lat="48.443733" lon="2.669409">
      <ele>144.495</ele>
      <time>2018-06-24T10:21:25Z</time>
    </trkpt>
    <trkpt lat="48.443876" lon="2.669108">
      <ele>145.907</ele>
      <time>2018-06-24T10:21:35Z</time>
    </trkpt>
    <trkpt lat="48.443968" lon="2.669061">
      <ele>146.57</ele>
      <time>2018-06-24T10:21:38Z</time>
    </trkpt>
    <trkpt lat="48.444052" lon="2.668977">
      <ele>147.174</ele>
      <time>2018-06-24T10:21:40Z</time>
    </trkpt>
    <trkpt lat="48.444192" lon="2.668867">
      <ele>148.0</ele>
      <time>2018-06-24T10:21:42Z</time>
    </trkpt>
    <trkpt lat="48.444269" lon="2.668716">
      <ele>148.0</ele>
      <time>2018-06-24T10:21:47Z</time>
    </trkpt>
    <trkpt lat="48.444423" lon="2.668568">
      <ele>147.845</ele>
      <time>2018-06-24T10:21:51Z</time>
    </trkpt>
    <trkpt lat="48.444494" lon="2.66847">
      <ele>147.583</ele>
      <time>2018-06-24T10:21:53Z</time>
    </trkpt>
    <trkpt lat="48.444649" lon="2.668193">
      <ele>147.736</ele>
      <time>2018-06-24T10:21:58Z</time>
    </trkpt>
    <trkpt lat="48.444763" lon="2.668124">
      <ele>148.147</ele>
      <time>2018-06-24T10:22:00Z</time>
    </trkpt>
    <trkpt lat="48.444873" lon="2.668023">
      <ele>148.489</ele>
      <time>2018-06-24T10:22:03Z</time>
    </trkpt>
    <trkpt lat="48.444943" lon="2.667885">
      <ele>148.669</ele>
      <time>2018-06-24T10:22:06Z</time>
    </trkpt>
    <trkpt lat="48.445058" lon="2.667754">
      <ele>148.723</ele>
      <time>2018-06-24T10:22:09Z</time>
    </trkpt>
    <trkpt lat="48.445346" lon="2.667465">
      <ele>148.0</ele>
      <time>2018-06-24T10:22:16Z</time>
    </trkpt>
    <trkpt lat="48.445434" lon="2.667296">
      <ele>148.0</ele>
      <time>2018-06-24T10:22:19Z</time>
    </trkpt>
    <trkpt lat="48.445622" lon="2.667072">
      <ele>147.871</ele>
      <time>2018-06-24T10:22:24Z</time>
    </trkpt>
    <trkpt lat="48.445725" lon="2.66698">
      <ele>147.468</ele>
      <time>2018-06-24T10:22:28Z</time>
    </trkpt>
    <trkpt lat="48.446122" lon="2.666569">
      <ele>147.014</ele>
      <time>2018-06-24T10:22:37Z</time>
    </trkpt>
    <trkpt lat="48.446199" lon="2.666493">
      <ele>147.198</ele>
      <time>2018-06-24T10:22:39Z</time>
    </trkpt>
    <trkpt lat="48.446285" lon="2.666326">
      <ele>147.711</ele>
      <time>2018-06-24T10:22:43Z</time>
    </trkpt>
    <trkpt lat="48.446361" lon="2.666187">
      <ele>147.973</ele>
      <time>2018-06-24T10:22:46Z</time>
    </trkpt>
    <trkpt lat="48.446429" lon="2.66607">
      <ele>147.708</ele>
      <time>2018-06-24T10:22:49Z</time>
    </trkpt>
    <trkpt lat="48.446584" lon="2.665905">
      <ele>146.556</ele>
      <time>2018-06-24T10:22:53Z</time>
    </trkpt>
    <trkpt lat="48.44666" lon="2.665825">
      <ele>145.995</ele>
      <time>2018-06-24T10:22:56Z</time>
    </trkpt>
    <trkpt lat="48.446745" lon="2.665712">
      <ele>145.968</ele>
      <time>2018-06-24T10:22:58Z</time>
    </trkpt>
    <trkpt lat="48.44681" lon="2.66559">
      <ele>146.092</ele>
      <time>2018-06-24T10:23:00Z</time>
    </trkpt>
    <trkpt lat="48.446943" lon="2.665428">
      <ele>146.99</ele>
      <time>2018-06-24T10:23:04Z</time>
    </trkpt>
    <trkpt lat="48.447015" lon="2.66531">
      <ele>147.283</ele>
      <time>2018-06-24T10:23:07Z</time>
    </trkpt>
    <trkpt lat="48.447271" lon="2.665083">
      <ele>147.824</ele>
      <time>2018-06-24T10:23:14Z</time>
    </trkpt>
    <trkpt lat="48.44736" lon="2.664989">
      <ele>147.504</ele>
      <time>2018-06-24T10:23:17Z</time>
    </trkpt>
    <trkpt lat="48.447474" lon="2.664846">
      <ele>147.094</ele>
      <time>2018-06-24T10:23:22Z</time>
    </trkpt>
    <trkpt lat="48.447584" lon="2.664725">
      <ele>147.0</ele>
      <time>2018-06-24T10:23:25Z</time>
    </trkpt>
    <trkpt lat="48.447674" lon="2.664607">
      <ele>147.0</ele>
      <time>2018-06-24T10:23:29Z</time>
    </trkpt>
    <trkpt lat="48.447815" lon="2.664418">
      <ele>146.853</ele>
      <time>2018-06-24T10:23:34Z</time>
    </trkpt>
    <trkpt lat="48.447911" lon="2.664304">
      <ele>146.278</ele>
      <time>2018-06-24T10:23:36Z</time>
    </trkpt>
    <trkpt lat="48.448024" lon="2.664211">
      <ele>145.369</ele>
      <time>2018-06-24T10:23:39Z</time>
    </trkpt>
    <trkpt lat="48.448122" lon="2.664107">
      <ele>143.426</ele>
      <time>2018-06-24T10:23:42Z</time>
    </trkpt>
    <trkpt lat="48.448265" lon="2.663872">
      <ele>139.969</ele>
      <time>2018-06-24T10:23:46Z</time>
    </trkpt>
    <trkpt lat="48.448372" lon="2.663662">
      <ele>138.861</ele>
      <time>2018-06-24T10:23:49Z</time>
    </trkpt>
    <trkpt lat="48.448557" lon="2.663466">
      <ele>138.615</ele>
      <time>2018-06-24T10:23:54Z</time>
    </trkpt>
    <trkpt lat="48.448809" lon="2.663157">
      <ele>139.635</ele>
      <time>2018-06-24T10:24:00Z</time>
    </trkpt>
    <trkpt lat="48.448897" lon="2.66306">
      <ele>140.013</ele>
      <time>2018-06-24T10:24:03Z</time>
    </trkpt>
    <trkpt lat="48.448971" lon="2.662977">
      <ele>140.296</ele>
      <time>2018-06-24T10:24:06Z</time>
    </trkpt>
    <trkpt lat="48.449087" lon="2.6629">
      <ele>140.713</ele>
      <time>2018-06-24T10:24:08Z</time>
    </trkpt>
    <trkpt lat="48.449301" lon="2.66259">
      <ele>143.127</ele>
      <time>2018-06-24T10:24:14Z</time>
    </trkpt>
    <trkpt lat="48.449473" lon="2.662446">
      <ele>145.103</ele>
      <time>2018-06-24T10:24:16Z</time>
    </trkpt>
    <trkpt lat="48.449575" lon="2.662292">
      <ele>145.47</ele>
      <time>2018-06-24T10:24:19Z</time>
    </trkpt>
    <trkpt lat="48.449705" lon="2.66215">
      <ele>145.938</ele>
      <time>2018-06-24T10:24:24Z</time>
    </trkpt>
    <trkpt lat="48.449898" lon="2.66192">
      <ele>146.688</ele>
      <time>2018-06-24T10:24:31Z</time>
    </trkpt>
    <trkpt lat="48.450007" lon="2.66179">
      <ele>147.567</ele>
      <time>2018-06-24T10:24:35Z</time>
    </trkpt>
    <trkpt lat="48.450096" lon="2.661644">
      <ele>148.082</ele>
      <time>2018-06-24T10:24:39Z</time>
    </trkpt>
    <trkpt lat="48.450201" lon="2.661568">
      <ele>148.355</ele>
      <time>2018-06-24T10:24:41Z</time>
    </trkpt>
    <trkpt lat="48.450362" lon="2.661439">
      <ele>148.516</ele>
      <time>2018-06-24T10:24:46Z</time>
    </trkpt>
    <trkpt lat="48.450772" lon="2.660873">
      <ele>148.0</ele>
      <time>2018-06-24T10:25:00Z</time>
    </trkpt>
    <trkpt lat="48.450845" lon="2.660748">
      <ele>147.719</ele>
      <time>2018-06-24T10:25:07Z</time>
    </trkpt>
    <trkpt lat="48.450929" lon="2.660667">
      <ele>147.814</ele>
      <time>2018-06-24T10:25:13Z</time>
    </trkpt>
    <trkpt lat="48.451013" lon="2.660591">
      <ele>148.256</ele>
      <time>2018-06-24T10:25:16Z</time>
    </trkpt>
    <trkpt lat="48.45109" lon="2.660519">
      <ele>148.858</ele>
      <time>2018-06-24T10:25:19Z</time>
    </trkpt>
    <trkpt lat="48.451177" lon="2.660389">
      <ele>149.474</ele>
      <time>2018-06-24T10:25:23Z</time>
    </trkpt>
    <trkpt lat="48.451188" lon="2.660228">
      <ele>149.634</ele>
      <time>2018-06-24T10:25:26Z</time>
    </trkpt>
    <trkpt lat="48.451246" lon="2.660122">
      <ele>149.987</ele>
      <time>2018-06-24T10:25:28Z</time>
    </trkpt>
    <trkpt lat="48.451324" lon="2.660045">
      <ele>150.086</ele>
      <time>2018-06-24T10:25:29Z</time>
    </trkpt>
    <trkpt lat="48.451397" lon="2.659964">
      <ele>150.067</ele>
      <time>2018-06-24T10:25:31Z</time>
    </trkpt>
    <trkpt lat="48.451489" lon="2.65986">
      <ele>149.602</ele>
      <time>2018-06-24T10:25:36Z</time>
    </trkpt>
    <trkpt lat="48.451564" lon="2.659784">
      <ele>149.027</ele>
      <time>2018-06-24T10:25:38Z</time>
    </trkpt>
    <trkpt lat="48.451666" lon="2.659669">
      <ele>148.007</ele>
      <time>2018-06-24T10:25:40Z</time>
    </trkpt>
    <trkpt lat="48.451759" lon="2.659619">
      <ele>146.462</ele>
      <time>2018-06-24T10:25:43Z</time>
    </trkpt>
    <trkpt lat="48.451836" lon="2.65952">
      <ele>145.396</ele>
      <time>2018-06-24T10:25:46Z</time>
    </trkpt>
    <trkpt lat="48.451914" lon="2.659438">
      <ele>144.441</ele>
      <time>2018-06-24T10:25:49Z</time>
    </trkpt>
    <trkpt lat="48.452019" lon="2.659423">
      <ele>143.195</ele>
      <time>2018-06-24T10:25:52Z</time>
    </trkpt>
    <trkpt lat="48.452186" lon="2.659441">
      <ele>141.391</ele>
      <time>2018-06-24T10:25:53Z</time>
    </trkpt>
    <trkpt lat="48.452266" lon="2.659508">
      <ele>140.65</ele>
      <time>2018-06-24T10:25:56Z</time>
    </trkpt>
    <trkpt lat="48.452374" lon="2.659519">
      <ele>140.332</ele>
      <time>2018-06-24T10:25:57Z</time>
    </trkpt>
    <trkpt lat="48.452483" lon="2.659522">
      <ele>140.044</ele>
      <time>2018-06-24T10:25:59Z</time>
    </trkpt>
    <trkpt lat="48.4526" lon="2.659511">
      <ele>139.914</ele>
      <time>2018-06-24T10:26:01Z</time>
    </trkpt>
    <trkpt lat="48.452737" lon="2.659532">
      <ele>139.731</ele>
      <time>2018-06-24T10:26:03Z</time>
    </trkpt>
    <trkpt lat="48.452837" lon="2.659528">
      <ele>139.337</ele>
      <time>2018-06-24T10:26:05Z</time>
    </trkpt>
    <trkpt lat="48.452923" lon="2.659577">
      <ele>138.727</ele>
      <time>2018-06-24T10:26:07Z</time>
    </trkpt>
    <trkpt lat="48.453034" lon="2.659598">
      <ele>138.112</ele>
      <time>2018-06-24T10:26:09Z</time>
    </trkpt>
    <trkpt lat="48.453154" lon="2.659601">
      <ele>137.646</ele>
      <time>2018-06-24T10:26:11Z</time>
    </trkpt>
    <trkpt lat="48.453255" lon="2.659616">
      <ele>137.282</ele>
      <time>2018-06-24T10:26:12Z</time>
    </trkpt>
    <trkpt lat="48.453377" lon="2.659653">
      <ele>137.118</ele>
      <time>2018-06-24T10:26:15Z</time>
    </trkpt>
    <trkpt lat="48.453493" lon="2.659729">
      <ele>137.585</ele>
      <time>2018-06-24T10:26:18Z</time>
    </trkpt>
    <trkpt lat="48.453601" lon="2.659711">
      <ele>137.925</ele>
      <time>2018-06-24T10:26:20Z</time>
    </trkpt>
    <trkpt lat="48.453703" lon="2.659698">
      <ele>137.913</ele>
      <time>2018-06-24T10:26:22Z</time>
    </trkpt>
    <trkpt lat="48.453825" lon="2.659735">
      <ele>138.035</ele>
      <time>2018-06-24T10:26:26Z</time>
    </trkpt>
    <trkpt lat="48.453942" lon="2.65974">
      <ele>138.052</ele>
      <time>2018-06-24T10:26:28Z</time>
    </trkpt>
    <trkpt lat="48.454096" lon="2.65974">
      <ele>138.016</ele>
      <time>2018-06-24T10:26:30Z</time>
    </trkpt>
    <trkpt lat="48.4542" lon="2.659748">
      <ele>137.891</ele>
      <time>2018-06-24T10:26:32Z</time>
    </trkpt>
    <trkpt lat="48.454325" lon="2.659775">
      <ele>137.538</ele>
      <time>2018-06-24T10:26:34Z</time>
    </trkpt>
    <trkpt lat="48.454434" lon="2.659796">
      <ele>137.293</ele>
      <time>2018-06-24T10:26:36Z</time>
    </trkpt>
    <trkpt lat="48.454529" lon="2.659828">
      <ele>137.265</ele>
      <time>2018-06-24T10:26:39Z</time>
    </trkpt>
    <trkpt lat="48.454665" lon="2.659854">
      <ele>137.098</ele>
      <time>2018-06-24T10:26:41Z</time>
    </trkpt>
    <trkpt lat="48.454766" lon="2.659889">
      <ele>136.842</ele>
      <time>2018-06-24T10:26:43Z</time>
    </trkpt>
    <trkpt lat="48.454919" lon="2.659887">
      <ele>136.292</ele>
      <time>2018-06-24T10:26:46Z</time>
    </trkpt>
    <trkpt lat="48.455025" lon="2.659912">
      <ele>135.91</ele>
      <time>2018-06-24T10:26:49Z</time>
    </trkpt>
    <trkpt lat="48.45511" lon="2.65997">
      <ele>135.604</ele>
      <time>2018-06-24T10:26:51Z</time>
    </trkpt>
    <trkpt lat="48.455271" lon="2.660005">
      <ele>135.024</ele>
      <time>2018-06-24T10:26:54Z</time>
    </trkpt>
    <trkpt lat="48.455387" lon="2.659995">
      <ele>134.607</ele>
      <time>2018-06-24T10:26:57Z</time>
    </trkpt>
    <trkpt lat="48.455525" lon="2.660031">
      <ele>134.11</ele>
      <time>2018-06-24T10:27:00Z</time>
    </trkpt>
    <trkpt lat="48.45567" lon="2.660047">
      <ele>133.93</ele>
      <time>2018-06-24T10:27:02Z</time>
    </trkpt>
    <trkpt lat="48.455791" lon="2.660056">
      <ele>133.829</ele>
      <time>2018-06-24T10:27:05Z</time>
    </trkpt>
    <trkpt lat="48.45592" lon="2.660034">
      <ele>133.604</ele>
      <time>2018-06-24T10:27:08Z</time>
    </trkpt>
    <trkpt lat="48.456024" lon="2.660049">
      <ele>133.258</ele>
      <time>2018-06-24T10:27:10Z</time>
    </trkpt>
    <trkpt lat="48.456114" lon="2.660016">
      <ele>133.01</ele>
      <time>2018-06-24T10:27:14Z</time>
    </trkpt>
    <trkpt lat="48.456143" lon="2.659873">
      <ele>133.52</ele>
      <time>2018-06-24T10:27:18Z</time>
    </trkpt>
    <trkpt lat="48.456249" lon="2.659711">
      <ele>133.939</ele>
      <time>2018-06-24T10:27:20Z</time>
    </trkpt>
    <trkpt lat="48.456276" lon="2.659531">
      <ele>133.032</ele>
      <time>2018-06-24T10:27:22Z</time>
    </trkpt>
    <trkpt lat="48.456327" lon="2.659373">
      <ele>132.577</ele>
      <time>2018-06-24T10:27:24Z</time>
    </trkpt>
    <trkpt lat="48.456422" lon="2.659206">
      <ele>132.142</ele>
      <time>2018-06-24T10:27:27Z</time>
    </trkpt>
    <trkpt lat="48.456505" lon="2.659079">
      <ele>132.0</ele>
      <time>2018-06-24T10:27:29Z</time>
    </trkpt>
    <trkpt lat="48.456529" lon="2.658909">
      <ele>132.0</ele>
      <time>2018-06-24T10:27:31Z</time>
    </trkpt>
    <trkpt lat="48.456525" lon="2.658766">
      <ele>131.774</ele>
      <time>2018-06-24T10:27:33Z</time>
    </trkpt>
    <trkpt lat="48.456578" lon="2.65859">
      <ele>131.629</ele>
      <time>2018-06-24T10:27:35Z</time>
    </trkpt>
    <trkpt lat="48.456625" lon="2.65838">
      <ele>131.143</ele>
      <time>2018-06-24T10:27:37Z</time>
    </trkpt>
    <trkpt lat="48.456697" lon="2.658202">
      <ele>129.997</ele>
      <time>2018-06-24T10:27:39Z</time>
    </trkpt>
    <trkpt lat="48.456753" lon="2.65807">
      <ele>129.088</ele>
      <time>2018-06-24T10:27:41Z</time>
    </trkpt>
    <trkpt lat="48.456828" lon="2.657943">
      <ele>129.0</ele>
      <time>2018-06-24T10:27:44Z</time>
    </trkpt>
    <trkpt lat="48.45695" lon="2.657894">
      <ele>128.98</ele>
      <time>2018-06-24T10:27:47Z</time>
    </trkpt>
    <trkpt lat="48.457083" lon="2.657806">
      <ele>128.501</ele>
      <time>2018-06-24T10:27:50Z</time>
    </trkpt>
    <trkpt lat="48.457184" lon="2.657736">
      <ele>128.288</ele>
      <time>2018-06-24T10:27:52Z</time>
    </trkpt>
    <trkpt lat="48.457306" lon="2.657675">
      <ele>128.258</ele>
      <time>2018-06-24T10:27:55Z</time>
    </trkpt>
    <trkpt lat="48.457424" lon="2.657639">
      <ele>128.137</ele>
      <time>2018-06-24T10:27:59Z</time>
    </trkpt>
    <trkpt lat="48.457511" lon="2.657802">
      <ele>127.997</ele>
      <time>2018-06-24T10:28:03Z</time>
    </trkpt>
    <trkpt lat="48.457541" lon="2.657979">
      <ele>127.893</ele>
      <time>2018-06-24T10:28:05Z</time>
    </trkpt>
    <trkpt lat="48.457629" lon="2.658031">
      <ele>127.577</ele>
      <time>2018-06-24T10:28:12Z</time>
    </trkpt>
    <trkpt lat="48.457729" lon="2.658072">
      <ele>127.068</ele>
      <time>2018-06-24T10:28:15Z</time>
    </trkpt>
    <trkpt lat="48.45781" lon="2.658172">
      <ele>126.113</ele>
      <time>2018-06-24T10:28:18Z</time>
    </trkpt>
    <trkpt lat="48.457933" lon="2.658314">
      <ele>124.619</ele>
      <time>2018-06-24T10:28:20Z</time>
    </trkpt>
    <trkpt lat="48.458031" lon="2.658474">
      <ele>122.108</ele>
      <time>2018-06-24T10:28:22Z</time>
    </trkpt>
    <trkpt lat="48.458134" lon="2.65866">
      <ele>119.422</ele>
      <time>2018-06-24T10:28:24Z</time>
    </trkpt>
    <trkpt lat="48.458183" lon="2.65878">
      <ele>117.897</ele>
      <time>2018-06-24T10:28:25Z</time>
    </trkpt>
    <trkpt lat="48.458293" lon="2.65892">
      <ele>115.825</ele>
      <time>2018-06-24T10:28:28Z</time>
    </trkpt>
    <trkpt lat="48.458386" lon="2.659056">
      <ele>113.323</ele>
      <time>2018-06-24T10:28:30Z</time>
    </trkpt>
    <trkpt lat="48.458498" lon="2.659172">
      <ele>109.982</ele>
      <time>2018-06-24T10:28:33Z</time>
    </trkpt>
    <trkpt lat="48.458601" lon="2.659269">
      <ele>107.418</ele>
      <time>2018-06-24T10:28:35Z</time>
    </trkpt>
    <trkpt lat="48.458564" lon="2.659428">
      <ele>106.647</ele>
      <time>2018-06-24T10:28:36Z</time>
    </trkpt>
    <trkpt lat="48.458597" lon="2.6596">
      <ele>105.032</ele>
      <time>2018-06-24T10:28:38Z</time>
    </trkpt>
    <trkpt lat="48.458571" lon="2.65978">
      <ele>104.195</ele>
      <time>2018-06-24T10:28:40Z</time>
    </trkpt>
    <trkpt lat="48.458502" lon="2.66003">
      <ele>103.57</ele>
      <time>2018-06-24T10:28:42Z</time>
    </trkpt>
    <trkpt lat="48.458539" lon="2.660244">
      <ele>101.762</ele>
      <time>2018-06-24T10:28:44Z</time>
    </trkpt>
    <trkpt lat="48.458526" lon="2.660382">
      <ele>101.353</ele>
      <time>2018-06-24T10:28:45Z</time>
    </trkpt>
    <trkpt lat="48.458488" lon="2.6606">
      <ele>101.33</ele>
      <time>2018-06-24T10:28:48Z</time>
    </trkpt>
    <trkpt lat="48.458589" lon="2.660709">
      <ele>100.239</ele>
      <time>2018-06-24T10:28:51Z</time>
    </trkpt>
    <trkpt lat="48.458696" lon="2.660782">
      <ele>99.638</ele>
      <time>2018-06-24T10:28:56Z</time>
    </trkpt>
    <trkpt lat="48.458827" lon="2.660828">
      <ele>99.208</ele>
      <time>2018-06-24T10:28:57Z</time>
    </trkpt>
    <trkpt lat="48.458935" lon="2.66093">
      <ele>99.406</ele>
      <time>2018-06-24T10:28:59Z</time>
    </trkpt>
    <trkpt lat="48.45905" lon="2.66103">
      <ele>100.119</ele>
      <time>2018-06-24T10:29:02Z</time>
    </trkpt>
    <trkpt lat="48.459219" lon="2.661132">
      <ele>100.873</ele>
      <time>2018-06-24T10:29:04Z</time>
    </trkpt>
    <trkpt lat="48.459331" lon="2.661169">
      <ele>100.494</ele>
      <time>2018-06-24T10:29:05Z</time>
    </trkpt>
    <trkpt lat="48.459453" lon="2.661243">
      <ele>100.0</ele>
      <time>2018-06-24T10:29:07Z</time>
    </trkpt>
    <trkpt lat="48.45958" lon="2.661275">
      <ele>100.0</ele>
      <time>2018-06-24T10:29:10Z</time>
    </trkpt>
    <trkpt lat="48.459688" lon="2.661308">
      <ele>100.0</ele>
      <time>2018-06-24T10:29:13Z</time>
    </trkpt>
    <trkpt lat="48.459796" lon="2.661331">
      <ele>100.587</ele>
      <time>2018-06-24T10:29:15Z</time>
    </trkpt>
    <trkpt lat="48.459913" lon="2.661373">
      <ele>101.413</ele>
      <time>2018-06-24T10:29:18Z</time>
    </trkpt>
    <trkpt lat="48.460015" lon="2.661396">
      <ele>102.162</ele>
      <time>2018-06-24T10:29:20Z</time>
    </trkpt>
    <trkpt lat="48.460093" lon="2.661309">
      <ele>103.196</ele>
      <time>2018-06-24T10:29:24Z</time>
    </trkpt>
    <trkpt lat="48.460195" lon="2.661306">
      <ele>104.195</ele>
      <time>2018-06-24T10:29:30Z</time>
    </trkpt>
    <trkpt lat="48.460304" lon="2.661256">
      <ele>105.094</ele>
      <time>2018-06-24T10:29:32Z</time>
    </trkpt>
    <trkpt lat="48.460386" lon="2.66117">
      <ele>105.39</ele>
      <time>2018-06-24T10:29:36Z</time>
    </trkpt>
    <trkpt lat="48.460454" lon="2.661074">
      <ele>105.634</ele>
      <time>2018-06-24T10:29:40Z</time>
    </trkpt>
    <trkpt lat="48.460559" lon="2.660913">
      <ele>106.0</ele>
      <time>2018-06-24T10:29:43Z</time>
    </trkpt>
    <trkpt lat="48.46067" lon="2.660755">
      <ele>106.116</ele>
      <time>2018-06-24T10:29:46Z</time>
    </trkpt>
    <trkpt lat="48.460743" lon="2.660671">
      <ele>106.394</ele>
      <time>2018-06-24T10:29:48Z</time>
    </trkpt>
    <trkpt lat="48.460863" lon="2.660639">
      <ele>106.625</ele>
      <time>2018-06-24T10:29:51Z</time>
    </trkpt>
    <trkpt lat="48.460949" lon="2.660547">
      <ele>106.584</ele>
      <time>2018-06-24T10:29:54Z</time>
    </trkpt>
    <trkpt lat="48.461048" lon="2.660475">
      <ele>106.227</ele>
      <time>2018-06-24T10:30:01Z</time>
    </trkpt>
    <trkpt lat="48.461153" lon="2.660463">
      <ele>105.548</ele>
      <time>2018-06-24T10:30:03Z</time>
    </trkpt>
    <trkpt lat="48.461266" lon="2.660473">
      <ele>104.327</ele>
      <time>2018-06-24T10:30:05Z</time>
    </trkpt>
    <trkpt lat="48.461396" lon="2.660522">
      <ele>102.923</ele>
      <time>2018-06-24T10:30:09Z</time>
    </trkpt>
    <trkpt lat="48.46149" lon="2.660547">
      <ele>101.908</ele>
      <time>2018-06-24T10:30:12Z</time>
    </trkpt>
    <trkpt lat="48.461592" lon="2.66054">
      <ele>100.806</ele>
      <time>2018-06-24T10:30:16Z</time>
    </trkpt>
    <trkpt lat="48.461704" lon="2.660504">
      <ele>99.866</ele>
      <time>2018-06-24T10:30:18Z</time>
    </trkpt>
    <trkpt lat="48.461873" lon="2.6605">
      <ele>99.257</ele>
      <time>2018-06-24T10:30:20Z</time>
    </trkpt>
    <trkpt lat="48.461967" lon="2.660479">
      <ele>99.022</ele>
      <time>2018-06-24T10:30:23Z</time>
    </trkpt>
    <trkpt lat="48.462088" lon="2.660379">
      <ele>99.328</ele>
      <time>2018-06-24T10:30:25Z</time>
    </trkpt>
    <trkpt lat="48.462197" lon="2.660297">
      <ele>99.846</ele>
      <time>2018-06-24T10:30:28Z</time>
    </trkpt>
    <trkpt lat="48.462339" lon="2.660191">
      <ele>99.95</ele>
      <time>2018-06-24T10:30:31Z</time>
    </trkpt>
    <trkpt lat="48.462443" lon="2.66014">
      <ele>100.292</ele>
      <time>2018-06-24T10:30:33Z</time>
    </trkpt>
    <trkpt lat="48.462535" lon="2.660008">
      <ele>101.101</ele>
      <time>2018-06-24T10:30:37Z</time>
    </trkpt>
    <trkpt lat="48.462639" lon="2.659955">
      <ele>101.419</ele>
      <time>2018-06-24T10:30:40Z</time>
    </trkpt>
    <trkpt lat="48.462736" lon="2.659877">
      <ele>101.783</ele>
      <time>2018-06-24T10:30:43Z</time>
    </trkpt>
    <trkpt lat="48.462838" lon="2.659756">
      <ele>102.217</ele>
      <time>2018-06-24T10:30:45Z</time>
    </trkpt>
    <trkpt lat="48.462915" lon="2.65966">
      <ele>102.27</ele>
      <time>2018-06-24T10:30:47Z</time>
    </trkpt>
    <trkpt lat="48.463043" lon="2.659618">
      <ele>102.58</ele>
      <time>2018-06-24T10:30:50Z</time>
    </trkpt>
    <trkpt lat="48.463127" lon="2.659525">
      <ele>102.398</ele>
      <time>2018-06-24T10:30:52Z</time>
    </trkpt>
    <trkpt lat="48.46322" lon="2.659484">
      <ele>102.566</ele>
      <time>2018-06-24T10:30:53Z</time>
    </trkpt>
    <trkpt lat="48.463317" lon="2.65941">
      <ele>102.934</ele>
      <time>2018-06-24T10:30:55Z</time>
    </trkpt>
    <trkpt lat="48.463433" lon="2.659313">
      <ele>102.641</ele>
      <time>2018-06-24T10:30:57Z</time>
    </trkpt>
    <trkpt lat="48.463607" lon="2.659198">
      <ele>102.015</ele>
      <time>2018-06-24T10:30:59Z</time>
    </trkpt>
    <trkpt lat="48.463717" lon="2.659113">
      <ele>102.0</ele>
      <time>2018-06-24T10:31:01Z</time>
    </trkpt>
    <trkpt lat="48.463842" lon="2.658945">
      <ele>102.0</ele>
      <time>2018-06-24T10:31:03Z</time>
    </trkpt>
    <trkpt lat="48.463955" lon="2.658872">
      <ele>101.986</ele>
      <time>2018-06-24T10:31:05Z</time>
    </trkpt>
    <trkpt lat="48.464103" lon="2.658778">
      <ele>101.692</ele>
      <time>2018-06-24T10:31:07Z</time>
    </trkpt>
    <trkpt lat="48.464223" lon="2.658708">
      <ele>101.075</ele>
      <time>2018-06-24T10:31:09Z</time>
    </trkpt>
    <trkpt lat="48.46446" lon="2.658694">
      <ele>99.944</ele>
      <time>2018-06-24T10:31:11Z</time>
    </trkpt>
    <trkpt lat="48.464555" lon="2.658736">
      <ele>99.602</ele>
      <time>2018-06-24T10:31:13Z</time>
    </trkpt>
    <trkpt lat="48.464695" lon="2.658673">
      <ele>99.098</ele>
      <time>2018-06-24T10:31:15Z</time>
    </trkpt>
    <trkpt lat="48.464823" lon="2.658583">
      <ele>99.464</ele>
      <time>2018-06-24T10:31:17Z</time>
    </trkpt>
    <trkpt lat="48.464955" lon="2.658557">
      <ele>100.033</ele>
      <time>2018-06-24T10:31:19Z</time>
    </trkpt>
    <trkpt lat="48.465143" lon="2.658524">
      <ele>100.667</ele>
      <time>2018-06-24T10:31:22Z</time>
    </trkpt>
    <trkpt lat="48.465239" lon="2.658466">
      <ele>100.933</ele>
      <time>2018-06-24T10:31:25Z</time>
    </trkpt>
    <trkpt lat="48.465326" lon="2.658509">
      <ele>100.826</ele>
      <time>2018-06-24T10:31:26Z</time>
    </trkpt>
    <trkpt lat="48.465437" lon="2.658559">
      <ele>100.427</ele>
      <time>2018-06-24T10:31:28Z</time>
    </trkpt>
    <trkpt lat="48.465568" lon="2.658525">
      <ele>99.91</ele>
      <time>2018-06-24T10:31:31Z</time>
    </trkpt>
    <trkpt lat="48.465681" lon="2.658425">
      <ele>99.097</ele>
      <time>2018-06-24T10:31:37Z</time>
    </trkpt>
    <trkpt lat="48.465774" lon="2.658426">
      <ele>98.427</ele>
      <time>2018-06-24T10:31:39Z</time>
    </trkpt>
    <trkpt lat="48.465868" lon="2.658428">
      <ele>97.875</ele>
      <time>2018-06-24T10:31:41Z</time>
    </trkpt>
    <trkpt lat="48.466021" lon="2.658394">
      <ele>97.324</ele>
      <time>2018-06-24T10:31:44Z</time>
    </trkpt>
    <trkpt lat="48.466118" lon="2.658393">
      <ele>97.0</ele>
      <time>2018-06-24T10:31:46Z</time>
    </trkpt>
    <trkpt lat="48.466273" lon="2.658379">
      <ele>97.0</ele>
      <time>2018-06-24T10:31:49Z</time>
    </trkpt>
    <trkpt lat="48.466386" lon="2.658344">
      <ele>97.0</ele>
      <time>2018-06-24T10:31:51Z</time>
    </trkpt>
    <trkpt lat="48.466493" lon="2.65837">
      <ele>97.0</ele>
      <time>2018-06-24T10:31:53Z</time>
    </trkpt>
    <trkpt lat="48.466622" lon="2.65839">
      <ele>97.0</ele>
      <time>2018-06-24T10:31:54Z</time>
    </trkpt>
    <trkpt lat="48.466736" lon="2.65841">
      <ele>97.43</ele>
      <time>2018-06-24T10:31:56Z</time>
    </trkpt>
    <trkpt lat="48.466854" lon="2.658435">
      <ele>98.102</ele>
      <time>2018-06-24T10:32:00Z</time>
    </trkpt>
    <trkpt lat="48.467082" lon="2.658467">
      <ele>98.262</ele>
      <time>2018-06-24T10:32:02Z</time>
    </trkpt>
    <trkpt lat="48.467206" lon="2.658444">
      <ele>98.035</ele>
      <time>2018-06-24T10:32:03Z</time>
    </trkpt>
    <trkpt lat="48.467295" lon="2.658488">
      <ele>97.214</ele>
      <time>2018-06-24T10:32:05Z</time>
    </trkpt>
    <trkpt lat="48.467396" lon="2.658483">
      <ele>96.123</ele>
      <time>2018-06-24T10:32:07Z</time>
    </trkpt>
    <trkpt lat="48.4675" lon="2.658483">
      <ele>95.0</ele>
      <time>2018-06-24T10:32:10Z</time>
    </trkpt>
    <trkpt lat="48.467694" lon="2.658478">
      <ele>94.302</ele>
      <time>2018-06-24T10:32:12Z</time>
    </trkpt>
    <trkpt lat="48.467811" lon="2.658425">
      <ele>94.0</ele>
      <time>2018-06-24T10:32:15Z</time>
    </trkpt>
    <trkpt lat="48.46794" lon="2.65849">
      <ele>94.0</ele>
      <time>2018-06-24T10:32:18Z</time>
    </trkpt>
    <trkpt lat="48.468032" lon="2.658483">
      <ele>94.0</ele>
      <time>2018-06-24T10:32:20Z</time>
    </trkpt>
    <trkpt lat="48.46814" lon="2.658507">
      <ele>94.0</ele>
      <time>2018-06-24T10:32:24Z</time>
    </trkpt>
    <trkpt lat="48.468263" lon="2.65856">
      <ele>94.0</ele>
      <time>2018-06-24T10:32:28Z</time>
    </trkpt>
    <trkpt lat="48.469051" lon="2.658643">
      <ele>93.416</ele>
      <time>2018-06-24T10:32:50Z</time>
    </trkpt>
    <trkpt lat="48.469433" lon="2.658688">
      <ele>91.082</ele>
      <time>2018-06-24T10:33:00Z</time>
    </trkpt>
    <trkpt lat="48.469552" lon="2.658727">
      <ele>90.387</ele>
      <time>2018-06-24T10:33:02Z</time>
    </trkpt>
    <trkpt lat="48.469699" lon="2.658742">
      <ele>89.599</ele>
      <time>2018-06-24T10:33:05Z</time>
    </trkpt>
    <trkpt lat="48.469837" lon="2.65874">
      <ele>89.877</ele>
      <time>2018-06-24T10:33:06Z</time>
    </trkpt>
    <trkpt lat="48.469967" lon="2.658734">
      <ele>90.324</ele>
      <time>2018-06-24T10:33:09Z</time>
    </trkpt>
    <trkpt lat="48.470093" lon="2.658745">
      <ele>90.655</ele>
      <time>2018-06-24T10:33:12Z</time>
    </trkpt>
    <trkpt lat="48.470182" lon="2.658786">
      <ele>90.872</ele>
      <time>2018-06-24T10:33:14Z</time>
    </trkpt>
    <trkpt lat="48.470324" lon="2.658845">
      <ele>90.947</ele>
      <time>2018-06-24T10:33:19Z</time>
    </trkpt>
    <trkpt lat="48.470481" lon="2.658831">
      <ele>90.695</ele>
      <time>2018-06-24T10:33:23Z</time>
    </trkpt>
    <trkpt lat="48.470609" lon="2.658832">
      <ele>90.166</ele>
      <time>2018-06-24T10:33:27Z</time>
    </trkpt>
    <trkpt lat="48.470725" lon="2.658847">
      <ele>89.386</ele>
      <time>2018-06-24T10:33:31Z</time>
    </trkpt>
    <trkpt lat="48.470863" lon="2.658822">
      <ele>87.957</ele>
      <time>2018-06-24T10:33:35Z</time>
    </trkpt>
    <trkpt lat="48.470984" lon="2.658796">
      <ele>86.37</ele>
      <time>2018-06-24T10:33:39Z</time>
    </trkpt>
    <trkpt lat="48.47108" lon="2.658736">
      <ele>84.685</ele>
      <time>2018-06-24T10:33:41Z</time>
    </trkpt>
    <trkpt lat="48.471203" lon="2.658687">
      <ele>83.308</ele>
      <time>2018-06-24T10:33:44Z</time>
    </trkpt>
    <trkpt lat="48.471296" lon="2.6586">
      <ele>82.281</ele>
      <time>2018-06-24T10:33:47Z</time>
    </trkpt>
    <trkpt lat="48.471487" lon="2.658452">
      <ele>81.276</ele>
      <time>2018-06-24T10:33:51Z</time>
    </trkpt>
    <trkpt lat="48.471654" lon="2.658257">
      <ele>81.262</ele>
      <time>2018-06-24T10:33:57Z</time>
    </trkpt>
    <trkpt lat="48.471816" lon="2.658159">
      <ele>82.365</ele>
      <time>2018-06-24T10:34:00Z</time>
    </trkpt>
    <trkpt lat="48.47196" lon="2.658091">
      <ele>83.056</ele>
      <time>2018-06-24T10:34:03Z</time>
    </trkpt>
    <trkpt lat="48.472049" lon="2.658029">
      <ele>83.376</ele>
      <time>2018-06-24T10:34:06Z</time>
    </trkpt>
    <trkpt lat="48.47214" lon="2.657957">
      <ele>83.704</ele>
      <time>2018-06-24T10:34:08Z</time>
    </trkpt>
    <trkpt lat="48.472192" lon="2.657801">
      <ele>83.891</ele>
      <time>2018-06-24T10:34:12Z</time>
    </trkpt>
    <trkpt lat="48.472415" lon="2.657709">
      <ele>83.752</ele>
      <time>2018-06-24T10:34:16Z</time>
    </trkpt>
    <trkpt lat="48.472558" lon="2.657643">
      <ele>83.515</ele>
      <time>2018-06-24T10:34:19Z</time>
    </trkpt>
    <trkpt lat="48.47263" lon="2.657559">
      <ele>83.212</ele>
      <time>2018-06-24T10:34:21Z</time>
    </trkpt>
    <trkpt lat="48.472756" lon="2.6574">
      <ele>83.0</ele>
      <time>2018-06-24T10:34:26Z</time>
    </trkpt>
    <trkpt lat="48.472824" lon="2.657251">
      <ele>83.017</ele>
      <time>2018-06-24T10:34:29Z</time>
    </trkpt>
    <trkpt lat="48.473113" lon="2.657062">
      <ele>83.207</ele>
      <time>2018-06-24T10:34:35Z</time>
    </trkpt>
    <trkpt lat="48.473259" lon="2.656974">
      <ele>83.732</ele>
      <time>2018-06-24T10:34:37Z</time>
    </trkpt>
    <trkpt lat="48.473375" lon="2.656861">
      <ele>84.0</ele>
      <time>2018-06-24T10:34:38Z</time>
    </trkpt>
    <trkpt lat="48.473475" lon="2.656739">
      <ele>84.28</ele>
      <time>2018-06-24T10:34:40Z</time>
    </trkpt>
    <trkpt lat="48.473682" lon="2.656603">
      <ele>85.766</ele>
      <time>2018-06-24T10:34:46Z</time>
    </trkpt>
    <trkpt lat="48.473841" lon="2.656464">
      <ele>87.483</ele>
      <time>2018-06-24T10:34:51Z</time>
    </trkpt>
    <trkpt lat="48.473917" lon="2.656355">
      <ele>88.215</ele>
      <time>2018-06-24T10:34:53Z</time>
    </trkpt>
    <trkpt lat="48.474008" lon="2.656222">
      <ele>89.115</ele>
      <time>2018-06-24T10:34:55Z</time>
    </trkpt>
    <trkpt lat="48.47456" lon="2.655848">
      <ele>90.606</ele>
      <time>2018-06-24T10:35:06Z</time>
    </trkpt>
    <trkpt lat="48.474664" lon="2.655766">
      <ele>90.21</ele>
      <time>2018-06-24T10:35:08Z</time>
    </trkpt>
    <trkpt lat="48.474777" lon="2.655703">
      <ele>90.0</ele>
      <time>2018-06-24T10:35:11Z</time>
    </trkpt>
    <trkpt lat="48.474902" lon="2.655563">
      <ele>90.0</ele>
      <time>2018-06-24T10:35:14Z</time>
    </trkpt>
    <trkpt lat="48.474985" lon="2.655504">
      <ele>89.99</ele>
      <time>2018-06-24T10:35:16Z</time>
    </trkpt>
    <trkpt lat="48.47508" lon="2.655466">
      <ele>90.483</ele>
      <time>2018-06-24T10:35:18Z</time>
    </trkpt>
    <trkpt lat="48.47519" lon="2.65541">
      <ele>91.01</ele>
      <time>2018-06-24T10:35:20Z</time>
    </trkpt>
    <trkpt lat="48.475297" lon="2.655349">
      <ele>91.377</ele>
      <time>2018-06-24T10:35:22Z</time>
    </trkpt>
    <trkpt lat="48.475364" lon="2.655245">
      <ele>91.466</ele>
      <time>2018-06-24T10:35:27Z</time>
    </trkpt>
    <trkpt lat="48.475484" lon="2.655168">
      <ele>91.796</ele>
      <time>2018-06-24T10:35:30Z</time>
    </trkpt>
    <trkpt lat="48.475606" lon="2.655063">
      <ele>91.553</ele>
      <time>2018-06-24T10:35:33Z</time>
    </trkpt>
    <trkpt lat="48.47575" lon="2.654842">
      <ele>90.961</ele>
      <time>2018-06-24T10:35:41Z</time>
    </trkpt>
    <trkpt lat="48.475851" lon="2.654737">
      <ele>91.05</ele>
      <time>2018-06-24T10:35:45Z</time>
    </trkpt>
    <trkpt lat="48.476054" lon="2.654536">
      <ele>90.862</ele>
      <time>2018-06-24T10:35:52Z</time>
    </trkpt>
    <trkpt lat="48.476159" lon="2.654488">
      <ele>91.172</ele>
      <time>2018-06-24T10:35:54Z</time>
    </trkpt>
    <trkpt lat="48.476332" lon="2.654359">
      <ele>91.488</ele>
      <time>2018-06-24T10:35:57Z</time>
    </trkpt>
    <trkpt lat="48.476469" lon="2.654231">
      <ele>91.232</ele>
      <time>2018-06-24T10:35:59Z</time>
    </trkpt>
    <trkpt lat="48.47657" lon="2.654103">
      <ele>90.691</ele>
      <time>2018-06-24T10:36:01Z</time>
    </trkpt>
    <trkpt lat="48.476707" lon="2.654034">
      <ele>90.668</ele>
      <time>2018-06-24T10:36:04Z</time>
    </trkpt>
    <trkpt lat="48.476831" lon="2.653999">
      <ele>90.988</ele>
      <time>2018-06-24T10:36:06Z</time>
    </trkpt>
    <trkpt lat="48.47692" lon="2.653932">
      <ele>91.067</ele>
      <time>2018-06-24T10:36:08Z</time>
    </trkpt>
    <trkpt lat="48.477194" lon="2.653702">
      <ele>92.797</ele>
      <time>2018-06-24T10:36:17Z</time>
    </trkpt>
    <trkpt lat="48.477347" lon="2.653627">
      <ele>93.424</ele>
      <time>2018-06-24T10:36:20Z</time>
    </trkpt>
    <trkpt lat="48.477451" lon="2.653521">
      <ele>93.766</ele>
      <time>2018-06-24T10:36:23Z</time>
    </trkpt>
    <trkpt lat="48.477535" lon="2.653464">
      <ele>94.0</ele>
      <time>2018-06-24T10:36:25Z</time>
    </trkpt>
    <trkpt lat="48.477613" lon="2.653353">
      <ele>94.0</ele>
      <time>2018-06-24T10:36:29Z</time>
    </trkpt>
    <trkpt lat="48.477719" lon="2.653241">
      <ele>93.93</ele>
      <time>2018-06-24T10:36:34Z</time>
    </trkpt>
    <trkpt lat="48.477783" lon="2.653104">
      <ele>94.0</ele>
      <time>2018-06-24T10:36:37Z</time>
    </trkpt>
    <trkpt lat="48.477977" lon="2.652956">
      <ele>93.642</ele>
      <time>2018-06-24T10:36:41Z</time>
    </trkpt>
    <trkpt lat="48.47813" lon="2.65278">
      <ele>92.742</ele>
      <time>2018-06-24T10:36:47Z</time>
    </trkpt>
    <trkpt lat="48.478243" lon="2.652724">
      <ele>92.001</ele>
      <time>2018-06-24T10:36:49Z</time>
    </trkpt>
    <trkpt lat="48.478406" lon="2.652608">
      <ele>90.676</ele>
      <time>2018-06-24T10:36:52Z</time>
    </trkpt>
    <trkpt lat="48.478506" lon="2.652537">
      <ele>90.184</ele>
      <time>2018-06-24T10:36:54Z</time>
    </trkpt>
    <trkpt lat="48.478589" lon="2.652426">
      <ele>89.755</ele>
      <time>2018-06-24T10:36:57Z</time>
    </trkpt>
    <trkpt lat="48.478671" lon="2.652338">
      <ele>89.327</ele>
      <time>2018-06-24T10:36:59Z</time>
    </trkpt>
    <trkpt lat="48.478786" lon="2.652223">
      <ele>89.001</ele>
      <time>2018-06-24T10:37:02Z</time>
    </trkpt>
    <trkpt lat="48.47889" lon="2.652202">
      <ele>89.004</ele>
      <time>2018-06-24T10:37:04Z</time>
    </trkpt>
    <trkpt lat="48.478988" lon="2.652092">
      <ele>89.357</ele>
      <time>2018-06-24T10:37:08Z</time>
    </trkpt>
    <trkpt lat="48.479194" lon="2.65197">
      <ele>90.286</ele>
      <time>2018-06-24T10:37:15Z</time>
    </trkpt>
    <trkpt lat="48.479259" lon="2.651872">
      <ele>91.171</ele>
      <time>2018-06-24T10:37:19Z</time>
    </trkpt>
    <trkpt lat="48.479363" lon="2.651819">
      <ele>92.253</ele>
      <time>2018-06-24T10:37:21Z</time>
    </trkpt>
    <trkpt lat="48.479456" lon="2.651756">
      <ele>93.042</ele>
      <time>2018-06-24T10:37:24Z</time>
    </trkpt>
    <trkpt lat="48.479541" lon="2.65169">
      <ele>93.348</ele>
      <time>2018-06-24T10:37:26Z</time>
    </trkpt>
    <trkpt lat="48.47964" lon="2.651649">
      <ele>93.768</ele>
      <time>2018-06-24T10:37:28Z</time>
    </trkpt>
    <trkpt lat="48.479961" lon="2.651336">
      <ele>94.14</ele>
      <time>2018-06-24T10:37:41Z</time>
    </trkpt>
    <trkpt lat="48.480086" lon="2.651193">
      <ele>93.782</ele>
      <time>2018-06-24T10:37:47Z</time>
    </trkpt>
    <trkpt lat="48.480191" lon="2.65106">
      <ele>93.312</ele>
      <time>2018-06-24T10:37:54Z</time>
    </trkpt>
    <trkpt lat="48.480317" lon="2.650977">
      <ele>93.141</ele>
      <time>2018-06-24T10:37:58Z</time>
    </trkpt>
    <trkpt lat="48.480484" lon="2.650746">
      <ele>93.742</ele>
      <time>2018-06-24T10:38:07Z</time>
    </trkpt>
    <trkpt lat="48.480561" lon="2.650653">
      <ele>94.02</ele>
      <time>2018-06-24T10:38:10Z</time>
    </trkpt>
    <trkpt lat="48.48074" lon="2.6505">
      <ele>94.664</ele>
      <time>2018-06-24T10:38:18Z</time>
    </trkpt>
    <trkpt lat="48.480889" lon="2.650381">
      <ele>95.275</ele>
      <time>2018-06-24T10:38:26Z</time>
    </trkpt>
    <trkpt lat="48.481173" lon="2.650182">
      <ele>96.446</ele>
      <time>2018-06-24T10:38:34Z</time>
    </trkpt>
    <trkpt lat="48.481385" lon="2.650016">
      <ele>97.972</ele>
      <time>2018-06-24T10:38:41Z</time>
    </trkpt>
    <trkpt lat="48.481472" lon="2.649951">
      <ele>98.775</ele>
      <time>2018-06-24T10:38:45Z</time>
    </trkpt>
    <trkpt lat="48.481613" lon="2.649827">
      <ele>100.236</ele>
      <time>2018-06-24T10:38:51Z</time>
    </trkpt>
    <trkpt lat="48.482019" lon="2.649542">
      <ele>103.011</ele>
      <time>2018-06-24T10:39:08Z</time>
    </trkpt>
    <trkpt lat="48.482109" lon="2.649473">
      <ele>103.55</ele>
      <time>2018-06-24T10:39:12Z</time>
    </trkpt>
    <trkpt lat="48.482203" lon="2.649425">
      <ele>103.866</ele>
      <time>2018-06-24T10:39:15Z</time>
    </trkpt>
    <trkpt lat="48.482322" lon="2.649372">
      <ele>104.192</ele>
      <time>2018-06-24T10:39:19Z</time>
    </trkpt>
    <trkpt lat="48.482403" lon="2.649223">
      <ele>104.372</ele>
      <time>2018-06-24T10:39:26Z</time>
    </trkpt>
    <trkpt lat="48.482554" lon="2.649078">
      <ele>105.194</ele>
      <time>2018-06-24T10:39:32Z</time>
    </trkpt>
    <trkpt lat="48.482648" lon="2.64899">
      <ele>105.533</ele>
      <time>2018-06-24T10:39:35Z</time>
    </trkpt>
    <trkpt lat="48.482751" lon="2.648904">
      <ele>105.904</ele>
      <time>2018-06-24T10:39:38Z</time>
    </trkpt>
    <trkpt lat="48.482926" lon="2.648776">
      <ele>105.783</ele>
      <time>2018-06-24T10:39:41Z</time>
    </trkpt>
    <trkpt lat="48.483083" lon="2.64865">
      <ele>104.731</ele>
      <time>2018-06-24T10:39:45Z</time>
    </trkpt>
    <trkpt lat="48.483208" lon="2.648515">
      <ele>102.649</ele>
      <time>2018-06-24T10:39:48Z</time>
    </trkpt>
    <trkpt lat="48.483464" lon="2.648364">
      <ele>99.589</ele>
      <time>2018-06-24T10:39:56Z</time>
    </trkpt>
    <trkpt lat="48.483839" lon="2.648066">
      <ele>97.21</ele>
      <time>2018-06-24T10:40:11Z</time>
    </trkpt>
    <trkpt lat="48.48392" lon="2.647984">
      <ele>96.971</ele>
      <time>2018-06-24T10:40:15Z</time>
    </trkpt>
    <trkpt lat="48.484079" lon="2.647898">
      <ele>96.612</ele>
      <time>2018-06-24T10:40:20Z</time>
    </trkpt>
    <trkpt lat="48.484169" lon="2.647834">
      <ele>96.209</ele>
      <time>2018-06-24T10:40:23Z</time>
    </trkpt>
    <trkpt lat="48.484261" lon="2.647758">
      <ele>96.387</ele>
      <time>2018-06-24T10:40:26Z</time>
    </trkpt>
    <trkpt lat="48.484346" lon="2.647636">
      <ele>96.826</ele>
      <time>2018-06-24T10:40:29Z</time>
    </trkpt>
    <trkpt lat="48.484456" lon="2.647532">
      <ele>97.0</ele>
      <time>2018-06-24T10:40:32Z</time>
    </trkpt>
    <trkpt lat="48.484682" lon="2.647354">
      <ele>97.0</ele>
      <time>2018-06-24T10:40:38Z</time>
    </trkpt>
    <trkpt lat="48.484784" lon="2.64726">
      <ele>97.0</ele>
      <time>2018-06-24T10:40:41Z</time>
    </trkpt>
    <trkpt lat="48.48489" lon="2.647146">
      <ele>97.274</ele>
      <time>2018-06-24T10:40:45Z</time>
    </trkpt>
    <trkpt lat="48.485864" lon="2.646321">
      <ele>94.97</ele>
      <time>2018-06-24T10:41:02Z</time>
    </trkpt>
    <trkpt lat="48.485986" lon="2.646245">
      <ele>93.849</ele>
      <time>2018-06-24T10:41:06Z</time>
    </trkpt>
    <trkpt lat="48.486076" lon="2.646125">
      <ele>92.543</ele>
      <time>2018-06-24T10:41:09Z</time>
    </trkpt>
    <trkpt lat="48.486494" lon="2.645723">
      <ele>91.0</ele>
      <time>2018-06-24T10:41:21Z</time>
    </trkpt>
    <trkpt lat="48.486699" lon="2.645506">
      <ele>91.295</ele>
      <time>2018-06-24T10:41:26Z</time>
    </trkpt>
    <trkpt lat="48.486784" lon="2.645434">
      <ele>91.86</ele>
      <time>2018-06-24T10:41:28Z</time>
    </trkpt>
    <trkpt lat="48.486885" lon="2.645332">
      <ele>92.591</ele>
      <time>2018-06-24T10:41:31Z</time>
    </trkpt>
    <trkpt lat="48.487183" lon="2.645111">
      <ele>94.459</ele>
      <time>2018-06-24T10:41:41Z</time>
    </trkpt>
    <trkpt lat="48.487345" lon="2.644914">
      <ele>95.442</ele>
      <time>2018-06-24T10:41:46Z</time>
    </trkpt>
    <trkpt lat="48.487506" lon="2.644869">
      <ele>95.989</ele>
      <time>2018-06-24T10:41:48Z</time>
    </trkpt>
    <trkpt lat="48.487596" lon="2.644785">
      <ele>95.922</ele>
      <time>2018-06-24T10:41:54Z</time>
    </trkpt>
    <trkpt lat="48.487663" lon="2.644684">
      <ele>96.0</ele>
      <time>2018-06-24T10:41:57Z</time>
    </trkpt>
    <trkpt lat="48.48777" lon="2.644601">
      <ele>96.0</ele>
      <time>2018-06-24T10:42:01Z</time>
    </trkpt>
    <trkpt lat="48.487879" lon="2.644494">
      <ele>95.935</ele>
      <time>2018-06-24T10:42:04Z</time>
    </trkpt>
    <trkpt lat="48.487967" lon="2.644419">
      <ele>96.154</ele>
      <time>2018-06-24T10:42:07Z</time>
    </trkpt>
    <trkpt lat="48.488113" lon="2.644314">
      <ele>96.732</ele>
      <time>2018-06-24T10:42:11Z</time>
    </trkpt>
    <trkpt lat="48.488389" lon="2.644076">
      <ele>97.126</ele>
      <time>2018-06-24T10:42:18Z</time>
    </trkpt>
    <trkpt lat="48.488515" lon="2.643968">
      <ele>97.061</ele>
      <time>2018-06-24T10:42:21Z</time>
    </trkpt>
    <trkpt lat="48.489047" lon="2.643748">
      <ele>97.357</ele>
      <time>2018-06-24T10:42:36Z</time>
    </trkpt>
    <trkpt lat="48.489142" lon="2.64371">
      <ele>97.88</ele>
      <time>2018-06-24T10:42:38Z</time>
    </trkpt>
    <trkpt lat="48.489273" lon="2.643685">
      <ele>98.766</ele>
      <time>2018-06-24T10:42:41Z</time>
    </trkpt>
    <trkpt lat="48.489521" lon="2.643549">
      <ele>100.713</ele>
      <time>2018-06-24T10:42:47Z</time>
    </trkpt>
    <trkpt lat="48.489611" lon="2.643472">
      <ele>101.4</ele>
      <time>2018-06-24T10:42:50Z</time>
    </trkpt>
    <trkpt lat="48.489685" lon="2.643346">
      <ele>101.86</ele>
      <time>2018-06-24T10:42:56Z</time>
    </trkpt>
    <trkpt lat="48.489811" lon="2.643181">
      <ele>102.144</ele>
      <time>2018-06-24T10:43:02Z</time>
    </trkpt>
    <trkpt lat="48.490426" lon="2.642343">
      <ele>101.435</ele>
      <time>2018-06-24T10:43:30Z</time>
    </trkpt>
    <trkpt lat="48.490508" lon="2.642251">
      <ele>101.104</ele>
      <time>2018-06-24T10:43:32Z</time>
    </trkpt>
    <trkpt lat="48.490606" lon="2.642199">
      <ele>100.932</ele>
      <time>2018-06-24T10:43:33Z</time>
    </trkpt>
    <trkpt lat="48.490856" lon="2.641979">
      <ele>101.082</ele>
      <time>2018-06-24T10:43:41Z</time>
    </trkpt>
    <trkpt lat="48.490924" lon="2.641881">
      <ele>101.326</ele>
      <time>2018-06-24T10:43:43Z</time>
    </trkpt>
    <trkpt lat="48.491008" lon="2.641699">
      <ele>101.629</ele>
      <time>2018-06-24T10:43:51Z</time>
    </trkpt>
    <trkpt lat="48.491067" lon="2.64158">
      <ele>102.153</ele>
      <time>2018-06-24T10:43:54Z</time>
    </trkpt>
    <trkpt lat="48.491477" lon="2.641011">
      <ele>102.437</ele>
      <time>2018-06-24T10:44:11Z</time>
    </trkpt>
    <trkpt lat="48.491594" lon="2.640872">
      <ele>102.036</ele>
      <time>2018-06-24T10:44:15Z</time>
    </trkpt>
    <trkpt lat="48.491857" lon="2.640656">
      <ele>102.201</ele>
      <time>2018-06-24T10:44:21Z</time>
    </trkpt>
    <trkpt lat="48.492141" lon="2.640312">
      <ele>101.292</ele>
      <time>2018-06-24T10:44:31Z</time>
    </trkpt>
    <trkpt lat="48.492199" lon="2.640152">
      <ele>100.631</ele>
      <time>2018-06-24T10:44:34Z</time>
    </trkpt>
    <trkpt lat="48.492377" lon="2.639911">
      <ele>100.0</ele>
      <time>2018-06-24T10:44:39Z</time>
    </trkpt>
    <trkpt lat="48.492512" lon="2.63972">
      <ele>100.008</ele>
      <time>2018-06-24T10:44:43Z</time>
    </trkpt>
    <trkpt lat="48.492626" lon="2.639591">
      <ele>100.258</ele>
      <time>2018-06-24T10:44:45Z</time>
    </trkpt>
    <trkpt lat="48.49269" lon="2.639488">
      <ele>100.266</ele>
      <time>2018-06-24T10:44:46Z</time>
    </trkpt>
    <trkpt lat="48.492844" lon="2.639299">
      <ele>100.16</ele>
      <time>2018-06-24T10:44:48Z</time>
    </trkpt>
    <trkpt lat="48.492962" lon="2.639141">
      <ele>99.735</ele>
      <time>2018-06-24T10:44:50Z</time>
    </trkpt>
    <trkpt lat="48.493033" lon="2.639031">
      <ele>99.611</ele>
      <time>2018-06-24T10:44:52Z</time>
    </trkpt>
    <trkpt lat="48.493131" lon="2.638892">
      <ele>99.446</ele>
      <time>2018-06-24T10:44:54Z</time>
    </trkpt>
    <trkpt lat="48.493217" lon="2.638791">
      <ele>99.042</ele>
      <time>2018-06-24T10:44:56Z</time>
    </trkpt>
    <trkpt lat="48.493325" lon="2.638636">
      <ele>98.943</ele>
      <time>2018-06-24T10:44:58Z</time>
    </trkpt>
    <trkpt lat="48.493419" lon="2.638563">
      <ele>98.518</ele>
      <time>2018-06-24T10:44:59Z</time>
    </trkpt>
    <trkpt lat="48.493508" lon="2.638398">
      <ele>97.604</ele>
      <time>2018-06-24T10:45:01Z</time>
    </trkpt>
    <trkpt lat="48.493632" lon="2.638292">
      <ele>96.851</ele>
      <time>2018-06-24T10:45:03Z</time>
    </trkpt>
    <trkpt lat="48.493745" lon="2.638163">
      <ele>96.387</ele>
      <time>2018-06-24T10:45:05Z</time>
    </trkpt>
    <trkpt lat="48.493907" lon="2.637984">
      <ele>95.677</ele>
      <time>2018-06-24T10:45:07Z</time>
    </trkpt>
    <trkpt lat="48.494048" lon="2.63789">
      <ele>94.831</ele>
      <time>2018-06-24T10:45:09Z</time>
    </trkpt>
    <trkpt lat="48.494169" lon="2.637797">
      <ele>94.069</ele>
      <time>2018-06-24T10:45:10Z</time>
    </trkpt>
    <trkpt lat="48.494255" lon="2.637664">
      <ele>93.59</ele>
      <time>2018-06-24T10:45:12Z</time>
    </trkpt>
    <trkpt lat="48.49447" lon="2.637447">
      <ele>93.092</ele>
      <time>2018-06-24T10:45:15Z</time>
    </trkpt>
    <trkpt lat="48.495422" lon="2.636416">
      <ele>93.11</ele>
      <time>2018-06-24T10:45:33Z</time>
    </trkpt>
    <trkpt lat="48.495492" lon="2.636301">
      <ele>92.385</ele>
      <time>2018-06-24T10:45:35Z</time>
    </trkpt>
    <trkpt lat="48.495502" lon="2.636161">
      <ele>92.227</ele>
      <time>2018-06-24T10:45:38Z</time>
    </trkpt>
    <trkpt lat="48.495601" lon="2.636042">
      <ele>91.628</ele>
      <time>2018-06-24T10:45:42Z</time>
    </trkpt>
    <trkpt lat="48.49586" lon="2.635599">
      <ele>91.0</ele>
      <time>2018-06-24T10:45:51Z</time>
    </trkpt>
    <trkpt lat="48.495998" lon="2.635462">
      <ele>91.0</ele>
      <time>2018-06-24T10:45:54Z</time>
    </trkpt>
    <trkpt lat="48.496088" lon="2.63533">
      <ele>91.0</ele>
      <time>2018-06-24T10:45:57Z</time>
    </trkpt>
    <trkpt lat="48.496238" lon="2.635169">
      <ele>91.457</ele>
      <time>2018-06-24T10:46:02Z</time>
    </trkpt>
    <trkpt lat="48.496372" lon="2.634994">
      <ele>91.919</ele>
      <time>2018-06-24T10:46:06Z</time>
    </trkpt>
    <trkpt lat="48.496466" lon="2.63493">
      <ele>92.026</ele>
      <time>2018-06-24T10:46:07Z</time>
    </trkpt>
    <trkpt lat="48.496705" lon="2.634728">
      <ele>92.297</ele>
      <time>2018-06-24T10:46:14Z</time>
    </trkpt>
    <trkpt lat="48.496775" lon="2.634636">
      <ele>92.659</ele>
      <time>2018-06-24T10:46:21Z</time>
    </trkpt>
    <trkpt lat="48.49681" lon="2.634483">
      <ele>92.588</ele>
      <time>2018-06-24T10:46:31Z</time>
    </trkpt>
    <trkpt lat="48.496905" lon="2.634665">
      <ele>93.539</ele>
      <time>2018-06-24T10:46:41Z</time>
    </trkpt>
    <trkpt lat="48.497076" lon="2.634703">
      <ele>94.845</ele>
      <time>2018-06-24T10:46:44Z</time>
    </trkpt>
    <trkpt lat="48.497016" lon="2.634575">
      <ele>93.849</ele>
      <time>2018-06-24T10:46:53Z</time>
    </trkpt>
    <trkpt lat="48.496875" lon="2.634505">
      <ele>92.913</ele>
      <time>2018-06-24T10:46:58Z</time>
    </trkpt>
    <trkpt lat="48.4969" lon="2.634522">
      <ele>93.075</ele>
      <time>2018-06-24T10:49:15Z</time>
    </trkpt>
  </trkseg>
</trk>
</gpx>
